PWSweather.com
Personal Weather Stations
Station Observations
KMNHANSK2
Andys Live Weather Stations, Hanska, MN 56041

Andys Live Weather StationsHanska, MN 56041

Lat: 44.170119, Lon: -94.381619

Elevation: 1004

Station Type: Davis Instruments Vantage Pro2 Plus

http://www.madeliasliveweather.com/thompsonfarms/

High Low Average
Temperature 64.0°F17.8°F 53.5°F11.9°F 57.5°F14.2°F
Dew Point 60.3°F15.7°F 51.7°F10.9°F 55.6°F13.1°F
Winds 14.0 mph S22.5 mph S Calm Calm 5.3 mph 8.5 mph
Wind Gusts 17.0 mph27.4 mph 2.0 mph3.2 mph 9.7 mph15.6 mph
Humidity 98% 87% 93%
Pressure 29.82 in1009.80 in 29.72 in1006.40 in -
Precipitation 10.97 in278.60 in - -
Hour Temp Dew Point Humidity Winds Wind Gusts Pressure Precip Precip Rate Daily Precip Total
12:00 AM 57.4°F14.1°C 54.5°F12.5°C 90% 11.0 mph SSE17.7 kmh SSE 15.0 mph24.1 kmh 29.81 in1009.5 mb 0.00 in0.0 mm 0.00 in/hr0.0 mm/hr 0.00 in0.0 mm
12:01 AM 57.5°F14.2°C 54.6°F12.6°C 90% 8.0 mph SE12.9 kmh SE 15.0 mph24.1 kmh 29.81 in1009.5 mb 0.00 in0.0 mm 0.00 in/hr0.0 mm/hr 0.00 in0.0 mm
12:02 AM 57.4°F14.1°C 54.5°F12.5°C 90% 11.0 mph SSE17.7 kmh SSE 11.0 mph17.7 kmh 29.81 in1009.5 mb 0.00 in0.0 mm 0.00 in/hr0.0 mm/hr 0.00 in0.0 mm
12:03 AM 57.4°F14.1°C 54.5°F12.5°C 90% 6.0 mph SE9.7 kmh SE 11.0 mph17.7 kmh 29.81 in1009.5 mb 0.00 in0.0 mm 0.00 in/hr0.0 mm/hr 0.00 in0.0 mm
12:04 AM 57.4°F14.1°C 54.5°F12.5°C 90% 11.0 mph SSE17.7 kmh SSE 13.0 mph20.9 kmh 29.81 in1009.5 mb 0.00 in0.0 mm 0.00 in/hr0.0 mm/hr 0.00 in0.0 mm
12:05 AM 57.4°F14.1°C 54.5°F12.5°C 90% 11.0 mph SSE17.7 kmh SSE 14.0 mph22.5 kmh 29.81 in1009.5 mb 0.00 in0.0 mm 0.00 in/hr0.0 mm/hr 0.00 in0.0 mm
12:06 AM 57.3°F14.1°C 54.4°F12.4°C 90% 7.0 mph S11.3 kmh S 14.0 mph22.5 kmh 29.81 in1009.5 mb 0.00 in0.0 mm 0.00 in/hr0.0 mm/hr 0.00 in0.0 mm
12:07 AM 57.3°F14.1°C 54.4°F12.4°C 90% 8.0 mph SSE12.9 kmh SSE 14.0 mph22.5 kmh 29.81 in1009.5 mb 0.00 in0.0 mm 0.00 in/hr0.0 mm/hr 0.00 in0.0 mm
12:08 AM 57.3°F14.1°C 54.4°F12.4°C 90% 7.0 mph SSE11.3 kmh SSE 14.0 mph22.5 kmh 29.81 in1009.5 mb 0.00 in0.0 mm 0.00 in/hr0.0 mm/hr 0.00 in0.0 mm
12:09 AM 57.3°F14.1°C 54.4°F12.4°C 90% 8.0 mph SSE12.9 kmh SSE 14.0 mph22.5 kmh 29.81 in1009.5 mb 0.00 in0.0 mm 0.00 in/hr0.0 mm/hr 0.00 in0.0 mm
12:10 AM 57.3°F14.1°C 54.4°F12.4°C 90% 7.0 mph SSE11.3 kmh SSE 14.0 mph22.5 kmh 29.81 in1009.5 mb 0.00 in0.0 mm 0.00 in/hr0.0 mm/hr 0.00 in0.0 mm
12:11 AM 57.3°F14.1°C 54.4°F12.4°C 90% 6.0 mph SSE9.7 kmh SSE 14.0 mph22.5 kmh 29.81 in1009.5 mb 0.00 in0.0 mm 0.00 in/hr0.0 mm/hr 0.00 in0.0 mm
12:12 AM 57.3°F14.1°C 54.4°F12.4°C 90% 8.0 mph S12.9 kmh S 14.0 mph22.5 kmh 29.82 in1009.8 mb 0.00 in0.0 mm 0.00 in/hr0.0 mm/hr 0.00 in0.0 mm
12:13 AM 57.3°F14.1°C 54.4°F12.4°C 90% 10.0 mph SSE16.1 kmh SSE 14.0 mph22.5 kmh 29.81 in1009.5 mb 0.00 in0.0 mm 0.00 in/hr0.0 mm/hr 0.00 in0.0 mm
12:14 AM 57.2°F14.0°C 54.3°F12.4°C 90% 8.0 mph SSE12.9 kmh SSE 14.0 mph22.5 kmh 29.81 in1009.5 mb 0.00 in0.0 mm 0.00 in/hr0.0 mm/hr 0.00 in0.0 mm
12:15 AM 57.3°F14.1°C 54.4°F12.4°C 90% 8.0 mph SE12.9 kmh SE 14.0 mph22.5 kmh 29.81 in1009.5 mb 0.00 in0.0 mm 0.00 in/hr0.0 mm/hr 0.00 in0.0 mm
12:16 AM 57.2°F14.0°C 54.3°F12.4°C 90% 9.0 mph SSE14.5 kmh SSE 14.0 mph22.5 kmh 29.81 in1009.5 mb 0.00 in0.0 mm 0.00 in/hr0.0 mm/hr 0.00 in0.0 mm
12:17 AM 57.2°F14.0°C 54.3°F12.4°C 90% 14.0 mph S22.5 kmh S 17.0 mph27.4 kmh 29.81 in1009.5 mb 0.00 in0.0 mm 0.00 in/hr0.0 mm/hr 0.00 in0.0 mm
12:18 AM 57.1°F13.9°C 54.2°F12.3°C 90% 8.0 mph SE12.9 kmh SE 17.0 mph27.4 kmh 29.81 in1009.5 mb 0.00 in0.0 mm 0.00 in/hr0.0 mm/hr 0.00 in0.0 mm
12:19 AM 57.1°F13.9°C 54.2°F12.3°C 90% 8.0 mph SE12.9 kmh SE 17.0 mph27.4 kmh 29.81 in1009.5 mb 0.00 in0.0 mm 0.00 in/hr0.0 mm/hr 0.00 in0.0 mm
12:20 AM 57.1°F13.9°C 54.2°F12.3°C 90% 5.0 mph SE8.0 kmh SE 17.0 mph27.4 kmh 29.81 in1009.5 mb 0.00 in0.0 mm 0.00 in/hr0.0 mm/hr 0.00 in0.0 mm
12:21 AM 57.0°F13.9°C 54.1°F12.3°C 90% 9.0 mph SE14.5 kmh SE 17.0 mph27.4 kmh 29.81 in1009.5 mb 0.00 in0.0 mm 0.00 in/hr0.0 mm/hr 0.00 in0.0 mm
12:22 AM 57.0°F13.9°C 54.1°F12.3°C 90% 7.0 mph SE11.3 kmh SE 17.0 mph27.4 kmh 29.81 in1009.5 mb 0.00 in0.0 mm 0.00 in/hr0.0 mm/hr 0.00 in0.0 mm
12:23 AM 56.9°F13.8°C 54.0°F12.2°C 90% 7.0 mph SE11.3 kmh SE 17.0 mph27.4 kmh 29.81 in1009.5 mb 0.00 in0.0 mm 0.00 in/hr0.0 mm/hr 0.00 in0.0 mm
12:24 AM 56.9°F13.8°C 54.0°F12.2°C 90% 8.0 mph SE12.9 kmh SE 17.0 mph27.4 kmh 29.81 in1009.5 mb 0.00 in0.0 mm 0.00 in/hr0.0 mm/hr 0.00 in0.0 mm
12:25 AM 56.9°F13.8°C 54.0°F12.2°C 90% 12.0 mph SE19.3 kmh SE 17.0 mph27.4 kmh 29.81 in1009.5 mb 0.00 in0.0 mm 0.00 in/hr0.0 mm/hr 0.00 in0.0 mm
12:26 AM 56.8°F13.8°C 53.6°F12.0°C 89% 8.0 mph S12.9 kmh S 17.0 mph27.4 kmh 29.81 in1009.5 mb 0.00 in0.0 mm 0.00 in/hr0.0 mm/hr 0.00 in0.0 mm
12:27 AM 56.8°F13.8°C 53.6°F12.0°C 89% 6.0 mph SE9.7 kmh SE 17.0 mph27.4 kmh 29.81 in1009.5 mb 0.00 in0.0 mm 0.00 in/hr0.0 mm/hr 0.00 in0.0 mm
12:28 AM 56.7°F13.7°C 53.5°F11.9°C 89% 8.0 mph SE12.9 kmh SE 17.0 mph27.4 kmh 29.80 in1009.1 mb 0.00 in0.0 mm 0.00 in/hr0.0 mm/hr 0.00 in0.0 mm
12:29 AM 56.7°F13.7°C 53.5°F11.9°C 89% 9.0 mph SE14.5 kmh SE 17.0 mph27.4 kmh 29.80 in1009.1 mb 0.00 in0.0 mm 0.00 in/hr0.0 mm/hr 0.00 in0.0 mm
12:30 AM 56.6°F13.7°C 53.4°F11.9°C 89% 6.0 mph SE9.7 kmh SE 17.0 mph27.4 kmh 29.80 in1009.1 mb 0.00 in0.0 mm 0.00 in/hr0.0 mm/hr 0.00 in0.0 mm
12:31 AM 56.6°F13.7°C 53.4°F11.9°C 89% 5.0 mph SE8.0 kmh SE 17.0 mph27.4 kmh 29.80 in1009.1 mb 0.00 in0.0 mm 0.00 in/hr0.0 mm/hr 0.00 in0.0 mm
12:32 AM 56.5°F13.6°C 53.3°F11.8°C 89% 6.0 mph SE9.7 kmh SE 8.0 mph12.9 kmh 29.80 in1009.1 mb 0.00 in0.0 mm 0.00 in/hr0.0 mm/hr 0.00 in0.0 mm
12:33 AM 56.5°F13.6°C 53.6°F12.0°C 90% 13.0 mph ESE20.9 kmh ESE 14.0 mph22.5 kmh 29.80 in1009.1 mb 0.00 in0.0 mm 0.00 in/hr0.0 mm/hr 0.00 in0.0 mm
12:34 AM 56.5°F13.6°C 53.6°F12.0°C 90% 9.0 mph SE14.5 kmh SE 14.0 mph22.5 kmh 29.80 in1009.1 mb 0.00 in0.0 mm 0.00 in/hr0.0 mm/hr 0.00 in0.0 mm
12:35 AM 56.4°F13.6°C 53.5°F11.9°C 90% 12.0 mph SSE19.3 kmh SSE 14.0 mph22.5 kmh 29.80 in1009.1 mb 0.00 in0.0 mm 0.00 in/hr0.0 mm/hr 0.00 in0.0 mm
12:36 AM 56.3°F13.5°C 53.4°F11.9°C 90% 9.0 mph SE14.5 kmh SE 14.0 mph22.5 kmh 29.80 in1009.1 mb 0.00 in0.0 mm 0.00 in/hr0.0 mm/hr 0.00 in0.0 mm
12:37 AM 56.3°F13.5°C 53.4°F11.9°C 90% 10.0 mph SE16.1 kmh SE 14.0 mph22.5 kmh 29.81 in1009.5 mb 0.00 in0.0 mm 0.00 in/hr0.0 mm/hr 0.00 in0.0 mm
12:38 AM 56.3°F13.5°C 53.4°F11.9°C 90% 8.0 mph SSE12.9 kmh SSE 14.0 mph22.5 kmh 29.80 in1009.1 mb 0.00 in0.0 mm 0.00 in/hr0.0 mm/hr 0.00 in0.0 mm
12:39 AM 56.2°F13.4°C 53.3°F11.8°C 90% 7.0 mph SE11.3 kmh SE 14.0 mph22.5 kmh 29.80 in1009.1 mb 0.00 in0.0 mm 0.00 in/hr0.0 mm/hr 0.00 in0.0 mm
12:40 AM 56.2°F13.4°C 53.3°F11.8°C 90% 8.0 mph SE12.9 kmh SE 14.0 mph22.5 kmh 29.80 in1009.1 mb 0.00 in0.0 mm 0.00 in/hr0.0 mm/hr 0.00 in0.0 mm
12:41 AM 56.2°F13.4°C 53.3°F11.8°C 90% 10.0 mph SSE16.1 kmh SSE 14.0 mph22.5 kmh 29.81 in1009.5 mb 0.00 in0.0 mm 0.00 in/hr0.0 mm/hr 0.00 in0.0 mm
12:42 AM 56.1°F13.4°C 53.2°F11.8°C 90% 9.0 mph SSE14.5 kmh SSE 14.0 mph22.5 kmh 29.81 in1009.5 mb 0.00 in0.0 mm 0.00 in/hr0.0 mm/hr 0.00 in0.0 mm
12:43 AM 56.1°F13.4°C 53.2°F11.8°C 90% 8.0 mph SSE12.9 kmh SSE 14.0 mph22.5 kmh 29.80 in1009.1 mb 0.00 in0.0 mm 0.00 in/hr0.0 mm/hr 0.00 in0.0 mm
12:44 AM 56.0°F13.3°C 53.1°F11.7°C 90% 7.0 mph S11.3 kmh S 14.0 mph22.5 kmh 29.81 in1009.5 mb 0.00 in0.0 mm 0.00 in/hr0.0 mm/hr 0.00 in0.0 mm
12:45 AM 56.0°F13.3°C 53.1°F11.7°C 90% 8.0 mph SE12.9 kmh SE 14.0 mph22.5 kmh 29.80 in1009.1 mb 0.00 in0.0 mm 0.00 in/hr0.0 mm/hr 0.00 in0.0 mm
12:46 AM 56.0°F13.3°C 53.1°F11.7°C 90% 8.0 mph S12.9 kmh S 14.0 mph22.5 kmh 29.80 in1009.1 mb 0.00 in0.0 mm 0.00 in/hr0.0 mm/hr 0.00 in0.0 mm
12:47 AM 55.9°F13.3°C 53.0°F11.7°C 90% 14.0 mph SE22.5 kmh SE 14.0 mph22.5 kmh 29.80 in1009.1 mb 0.00 in0.0 mm 0.00 in/hr0.0 mm/hr 0.00 in0.0 mm
12:48 AM 55.9°F13.3°C 53.0°F11.7°C 90% 9.0 mph SE14.5 kmh SE 15.0 mph24.1 kmh 29.80 in1009.1 mb 0.00 in0.0 mm 0.00 in/hr0.0 mm/hr 0.00 in0.0 mm
12:49 AM 55.9°F13.3°C 53.0°F11.7°C 90% 7.0 mph SE11.3 kmh SE 15.0 mph24.1 kmh 29.80 in1009.1 mb 0.00 in0.0 mm 0.00 in/hr0.0 mm/hr 0.00 in0.0 mm
12:50 AM 55.8°F13.2°C 52.9°F11.6°C 90% 8.0 mph SSE12.9 kmh SSE 15.0 mph24.1 kmh 29.80 in1009.1 mb 0.00 in0.0 mm 0.00 in/hr0.0 mm/hr 0.00 in0.0 mm
12:51 AM 55.8°F13.2°C 52.9°F11.6°C 90% 9.0 mph SSE14.5 kmh SSE 15.0 mph24.1 kmh 29.80 in1009.1 mb 0.00 in0.0 mm 0.00 in/hr0.0 mm/hr 0.00 in0.0 mm
12:52 AM 55.8°F13.2°C 52.9°F11.6°C 90% 10.0 mph SE16.1 kmh SE 15.0 mph24.1 kmh 29.80 in1009.1 mb 0.00 in0.0 mm 0.00 in/hr0.0 mm/hr 0.00 in0.0 mm
12:53 AM 55.7°F13.2°C 52.8°F11.6°C 90% 9.0 mph SE14.5 kmh SE 15.0 mph24.1 kmh 29.80 in1009.1 mb 0.00 in0.0 mm 0.00 in/hr0.0 mm/hr 0.00 in0.0 mm
12:54 AM 55.7°F13.2°C 52.8°F11.6°C 90% 8.0 mph ESE12.9 kmh ESE 15.0 mph24.1 kmh 29.80 in1009.1 mb 0.00 in0.0 mm 0.00 in/hr0.0 mm/hr 0.00 in0.0 mm
12:55 AM 55.7°F13.2°C 52.8°F11.6°C 90% 5.0 mph SSE8.0 kmh SSE 15.0 mph24.1 kmh 29.80 in1009.1 mb 0.00 in0.0 mm 0.00 in/hr0.0 mm/hr 0.00 in0.0 mm
12:56 AM 55.6°F13.1°C 52.7°F11.5°C 90% 9.0 mph SE14.5 kmh SE 15.0 mph24.1 kmh 29.80 in1009.1 mb 0.00 in0.0 mm 0.00 in/hr0.0 mm/hr 0.00 in0.0 mm
12:57 AM 55.6°F13.1°C 52.7°F11.5°C 90% 6.0 mph SSE9.7 kmh SSE 15.0 mph24.1 kmh 29.80 in1009.1 mb 0.00 in0.0 mm 0.00 in/hr0.0 mm/hr 0.00 in0.0 mm
12:58 AM 55.5°F13.1°C 52.6°F11.4°C 90% 7.0 mph SSE11.3 kmh SSE 15.0 mph24.1 kmh 29.80 in1009.1 mb 0.00 in0.0 mm 0.00 in/hr0.0 mm/hr 0.00 in0.0 mm
12:59 AM 55.5°F13.1°C 52.6°F11.4°C 90% 9.0 mph SE14.5 kmh SE 15.0 mph24.1 kmh 29.80 in1009.1 mb 0.00 in0.0 mm 0.00 in/hr0.0 mm/hr 0.00 in0.0 mm
01:00 AM 55.5°F13.1°C 52.9°F11.6°C 91% 8.0 mph SE12.9 kmh SE 15.0 mph24.1 kmh 29.80 in1009.1 mb 0.00 in0.0 mm 0.00 in/hr0.0 mm/hr 0.00 in0.0 mm
01:01 AM 55.4°F13.0°C 52.8°F11.6°C 91% 6.0 mph SE9.7 kmh SE 15.0 mph24.1 kmh 29.80 in1009.1 mb 0.00 in0.0 mm 0.00 in/hr0.0 mm/hr 0.00 in0.0 mm
01:02 AM 55.4°F13.0°C 52.8°F11.6°C 91% 7.0 mph SE11.3 kmh SE 8.0 mph12.9 kmh 29.80 in1009.1 mb 0.00 in0.0 mm 0.00 in/hr0.0 mm/hr 0.00 in0.0 mm
01:03 AM 55.3°F12.9°C 52.7°F11.5°C 91% 5.0 mph SE8.0 kmh SE 9.0 mph14.5 kmh 29.80 in1009.1 mb 0.00 in0.0 mm 0.00 in/hr0.0 mm/hr 0.00 in0.0 mm
01:04 AM 55.3°F12.9°C 52.7°F11.5°C 91% 9.0 mph SE14.5 kmh SE 11.0 mph17.7 kmh 29.80 in1009.1 mb 0.00 in0.0 mm 0.00 in/hr0.0 mm/hr 0.00 in0.0 mm
01:05 AM 55.3°F12.9°C 52.7°F11.5°C 91% 6.0 mph SE9.7 kmh SE 11.0 mph17.7 kmh 29.80 in1009.1 mb 0.00 in0.0 mm 0.00 in/hr0.0 mm/hr 0.00 in0.0 mm
01:06 AM 55.3°F12.9°C 52.7°F11.5°C 91% 8.0 mph SE12.9 kmh SE 11.0 mph17.7 kmh 29.80 in1009.1 mb 0.00 in0.0 mm 0.00 in/hr0.0 mm/hr 0.00 in0.0 mm
01:07 AM 55.2°F12.9°C 52.6°F11.4°C 91% 8.0 mph SE12.9 kmh SE 11.0 mph17.7 kmh 29.80 in1009.1 mb 0.00 in0.0 mm 0.00 in/hr0.0 mm/hr 0.00 in0.0 mm
01:08 AM 55.2°F12.9°C 52.6°F11.4°C 91% 6.0 mph SE9.7 kmh SE 11.0 mph17.7 kmh 29.79 in1008.8 mb 0.00 in0.0 mm 0.00 in/hr0.0 mm/hr 0.00 in0.0 mm
01:09 AM 55.1°F12.8°C 52.5°F11.4°C 91% 8.0 mph SSE12.9 kmh SSE 11.0 mph17.7 kmh 29.79 in1008.8 mb 0.00 in0.0 mm 0.00 in/hr0.0 mm/hr 0.00 in0.0 mm
01:10 AM 55.1°F12.8°C 52.5°F11.4°C 91% 5.0 mph SSE8.0 kmh SSE 11.0 mph17.7 kmh 29.79 in1008.8 mb 0.00 in0.0 mm 0.00 in/hr0.0 mm/hr 0.00 in0.0 mm
01:11 AM 55.1°F12.8°C 52.5°F11.4°C 91% 6.0 mph SSE9.7 kmh SSE 11.0 mph17.7 kmh 29.79 in1008.8 mb 0.00 in0.0 mm 0.00 in/hr0.0 mm/hr 0.00 in0.0 mm
01:12 AM 55.0°F12.8°C 52.4°F11.3°C 91% 9.0 mph S14.5 kmh S 12.0 mph19.3 kmh 29.79 in1008.8 mb 0.00 in0.0 mm 0.00 in/hr0.0 mm/hr 0.00 in0.0 mm
01:13 AM 55.0°F12.8°C 52.4°F11.3°C 91% 6.0 mph SSE9.7 kmh SSE 14.0 mph22.5 kmh 29.79 in1008.8 mb 0.00 in0.0 mm 0.00 in/hr0.0 mm/hr 0.00 in0.0 mm
01:14 AM 55.0°F12.8°C 52.4°F11.3°C 91% 4.0 mph SE6.4 kmh SE 14.0 mph22.5 kmh 29.79 in1008.8 mb 0.00 in0.0 mm 0.00 in/hr0.0 mm/hr 0.00 in0.0 mm
01:15 AM 55.0°F12.8°C 52.4°F11.3°C 91% 4.0 mph SE6.4 kmh SE 14.0 mph22.5 kmh 29.79 in1008.8 mb 0.00 in0.0 mm 0.00 in/hr0.0 mm/hr 0.00 in0.0 mm
01:16 AM 54.9°F12.7°C 52.3°F11.3°C 91% 7.0 mph SE11.3 kmh SE 14.0 mph22.5 kmh 29.79 in1008.8 mb 0.00 in0.0 mm 0.00 in/hr0.0 mm/hr 0.00 in0.0 mm
01:17 AM 54.9°F12.7°C 52.3°F11.3°C 91% 8.0 mph S12.9 kmh S 14.0 mph22.5 kmh 29.79 in1008.8 mb 0.00 in0.0 mm 0.00 in/hr0.0 mm/hr 0.00 in0.0 mm
01:18 AM 54.9°F12.7°C 52.6°F11.4°C 92% 10.0 mph SSE16.1 kmh SSE 14.0 mph22.5 kmh 29.79 in1008.8 mb 0.00 in0.0 mm 0.00 in/hr0.0 mm/hr 0.00 in0.0 mm
01:19 AM 54.9°F12.7°C 52.6°F11.4°C 92% 10.0 mph SE16.1 kmh SE 14.0 mph22.5 kmh 29.79 in1008.8 mb 0.00 in0.0 mm 0.00 in/hr0.0 mm/hr 0.00 in0.0 mm
01:20 AM 54.8°F12.7°C 52.5°F11.4°C 92% 5.0 mph SSE8.0 kmh SSE 14.0 mph22.5 kmh 29.79 in1008.8 mb 0.00 in0.0 mm 0.00 in/hr0.0 mm/hr 0.00 in0.0 mm
01:21 AM 54.8°F12.7°C 52.5°F11.4°C 92% 6.0 mph SE9.7 kmh SE 14.0 mph22.5 kmh 29.79 in1008.8 mb 0.00 in0.0 mm 0.00 in/hr0.0 mm/hr 0.00 in0.0 mm
01:22 AM 54.8°F12.7°C 52.5°F11.4°C 92% 10.0 mph SE16.1 kmh SE 14.0 mph22.5 kmh 29.79 in1008.8 mb 0.00 in0.0 mm 0.00 in/hr0.0 mm/hr 0.00 in0.0 mm
01:23 AM 54.8°F12.7°C 52.5°F11.4°C 92% 5.0 mph SE8.0 kmh SE 14.0 mph22.5 kmh 29.79 in1008.8 mb 0.00 in0.0 mm 0.00 in/hr0.0 mm/hr 0.00 in0.0 mm
01:24 AM 54.7°F12.6°C 52.4°F11.3°C 92% 7.0 mph E11.3 kmh E 14.0 mph22.5 kmh 29.79 in1008.8 mb 0.00 in0.0 mm 0.00 in/hr0.0 mm/hr 0.00 in0.0 mm
01:25 AM 54.7°F12.6°C 52.4°F11.3°C 92% 6.0 mph SE9.7 kmh SE 14.0 mph22.5 kmh 29.79 in1008.8 mb 0.00 in0.0 mm 0.00 in/hr0.0 mm/hr 0.00 in0.0 mm
01:26 AM 54.7°F12.6°C 52.4°F11.3°C 92% 10.0 mph SE16.1 kmh SE 14.0 mph22.5 kmh 29.79 in1008.8 mb 0.00 in0.0 mm 0.00 in/hr0.0 mm/hr 0.00 in0.0 mm
01:27 AM 54.7°F12.6°C 52.4°F11.3°C 92% 6.0 mph SSE9.7 kmh SSE 14.0 mph22.5 kmh 29.79 in1008.8 mb 0.00 in0.0 mm 0.00 in/hr0.0 mm/hr 0.00 in0.0 mm
01:28 AM 54.7°F12.6°C 52.4°F11.3°C 92% 4.0 mph SE6.4 kmh SE 14.0 mph22.5 kmh 29.79 in1008.8 mb 0.00 in0.0 mm 0.00 in/hr0.0 mm/hr 0.00 in0.0 mm
01:29 AM 54.6°F12.6°C 52.3°F11.3°C 92% 4.0 mph SSE6.4 kmh SSE 14.0 mph22.5 kmh 29.79 in1008.8 mb 0.00 in0.0 mm 0.00 in/hr0.0 mm/hr 0.00 in0.0 mm
01:30 AM 54.6°F12.6°C 52.3°F11.3°C 92% 5.0 mph SE8.0 kmh SE 14.0 mph22.5 kmh 29.79 in1008.8 mb 0.00 in0.0 mm 0.00 in/hr0.0 mm/hr 0.00 in0.0 mm
01:31 AM 54.6°F12.6°C 52.3°F11.3°C 92% 6.0 mph SSE9.7 kmh SSE 14.0 mph22.5 kmh 29.79 in1008.8 mb 0.00 in0.0 mm 0.00 in/hr0.0 mm/hr 0.00 in0.0 mm
01:32 AM 54.5°F12.5°C 52.2°F11.2°C 92% 6.0 mph SE9.7 kmh SE 8.0 mph12.9 kmh 29.79 in1008.8 mb 0.00 in0.0 mm 0.00 in/hr0.0 mm/hr 0.00 in0.0 mm
01:33 AM 54.5°F12.5°C 52.2°F11.2°C 92% 7.0 mph SE11.3 kmh SE 10.0 mph16.1 kmh 29.79 in1008.8 mb 0.00 in0.0 mm 0.00 in/hr0.0 mm/hr 0.00 in0.0 mm
01:34 AM 54.5°F12.5°C 52.2°F11.2°C 92% 4.0 mph SE6.4 kmh SE 10.0 mph16.1 kmh 29.79 in1008.8 mb 0.00 in0.0 mm 0.00 in/hr0.0 mm/hr 0.00 in0.0 mm
01:35 AM 54.5°F12.5°C 52.2°F11.2°C 92% 8.0 mph SE12.9 kmh SE 11.0 mph17.7 kmh 29.79 in1008.8 mb 0.00 in0.0 mm 0.00 in/hr0.0 mm/hr 0.00 in0.0 mm
01:36 AM 54.5°F12.5°C 52.2°F11.2°C 92% 6.0 mph SE9.7 kmh SE 11.0 mph17.7 kmh 29.79 in1008.8 mb 0.00 in0.0 mm 0.00 in/hr0.0 mm/hr 0.00 in0.0 mm
01:37 AM 54.5°F12.5°C 52.2°F11.2°C 92% 6.0 mph S9.7 kmh S 11.0 mph17.7 kmh 29.79 in1008.8 mb 0.00 in0.0 mm 0.00 in/hr0.0 mm/hr 0.00 in0.0 mm
01:38 AM 54.4°F12.4°C 52.1°F11.2°C 92% 5.0 mph SE8.0 kmh SE 11.0 mph17.7 kmh 29.79 in1008.8 mb 0.00 in0.0 mm 0.00 in/hr0.0 mm/hr 0.00 in0.0 mm
01:39 AM 54.4°F12.4°C 52.1°F11.2°C 92% 7.0 mph SSE11.3 kmh SSE 11.0 mph17.7 kmh 29.79 in1008.8 mb 0.00 in0.0 mm 0.00 in/hr0.0 mm/hr 0.00 in0.0 mm
01:40 AM 54.4°F12.4°C 52.1°F11.2°C 92% 7.0 mph SSE11.3 kmh SSE 11.0 mph17.7 kmh 29.79 in1008.8 mb 0.00 in0.0 mm 0.00 in/hr0.0 mm/hr 0.00 in0.0 mm
01:41 AM 54.4°F12.4°C 52.1°F11.2°C 92% 7.0 mph SSE11.3 kmh SSE 11.0 mph17.7 kmh 29.79 in1008.8 mb 0.00 in0.0 mm 0.00 in/hr0.0 mm/hr 0.00 in0.0 mm
01:42 AM 54.4°F12.4°C 52.1°F11.2°C 92% 6.0 mph SE9.7 kmh SE 11.0 mph17.7 kmh 29.80 in1009.1 mb 0.00 in0.0 mm 0.00 in/hr0.0 mm/hr 0.00 in0.0 mm
01:43 AM 54.4°F12.4°C 52.1°F11.2°C 92% 9.0 mph SE14.5 kmh SE 11.0 mph17.7 kmh 29.79 in1008.8 mb 0.00 in0.0 mm 0.00 in/hr0.0 mm/hr 0.00 in0.0 mm
01:44 AM 54.4°F12.4°C 52.1°F11.2°C 92% 6.0 mph SSE9.7 kmh SSE 11.0 mph17.7 kmh 29.80 in1009.1 mb 0.00 in0.0 mm 0.00 in/hr0.0 mm/hr 0.00 in0.0 mm
01:45 AM 54.3°F12.4°C 52.0°F11.1°C 92% 9.0 mph SE14.5 kmh SE 11.0 mph17.7 kmh 29.79 in1008.8 mb 0.00 in0.0 mm 0.00 in/hr0.0 mm/hr 0.00 in0.0 mm
01:46 AM 54.3°F12.4°C 52.0°F11.1°C 92% 8.0 mph SE12.9 kmh SE 11.0 mph17.7 kmh 29.79 in1008.8 mb 0.00 in0.0 mm 0.00 in/hr0.0 mm/hr 0.00 in0.0 mm
01:47 AM 54.3°F12.4°C 52.0°F11.1°C 92% 6.0 mph SE9.7 kmh SE 11.0 mph17.7 kmh 29.79 in1008.8 mb 0.00 in0.0 mm 0.00 in/hr0.0 mm/hr 0.00 in0.0 mm
01:48 AM 54.3°F12.4°C 52.0°F11.1°C 92% 9.0 mph SE14.5 kmh SE 12.0 mph19.3 kmh 29.79 in1008.8 mb 0.00 in0.0 mm 0.00 in/hr0.0 mm/hr 0.00 in0.0 mm
01:49 AM 54.3°F12.4°C 52.0°F11.1°C 92% 8.0 mph ESE12.9 kmh ESE 12.0 mph19.3 kmh 29.79 in1008.8 mb 0.00 in0.0 mm 0.00 in/hr0.0 mm/hr 0.00 in0.0 mm
01:50 AM 54.3°F12.4°C 52.0°F11.1°C 92% 6.0 mph SE9.7 kmh SE 12.0 mph19.3 kmh 29.79 in1008.8 mb 0.00 in0.0 mm 0.00 in/hr0.0 mm/hr 0.00 in0.0 mm
01:51 AM 54.3°F12.4°C 52.0°F11.1°C 92% 7.0 mph SE11.3 kmh SE 12.0 mph19.3 kmh 29.79 in1008.8 mb 0.00 in0.0 mm 0.00 in/hr0.0 mm/hr 0.00 in0.0 mm
01:52 AM 54.3°F12.4°C 52.0°F11.1°C 92% 6.0 mph SE9.7 kmh SE 12.0 mph19.3 kmh 29.79 in1008.8 mb 0.00 in0.0 mm 0.00 in/hr0.0 mm/hr 0.00 in0.0 mm
01:53 AM 54.2°F12.3°C 51.9°F11.1°C 92% 9.0 mph SE14.5 kmh SE 12.0 mph19.3 kmh 29.79 in1008.8 mb 0.00 in0.0 mm 0.00 in/hr0.0 mm/hr 0.00 in0.0 mm
01:54 AM 54.2°F12.3°C 51.9°F11.1°C 92% 4.0 mph ESE6.4 kmh ESE 12.0 mph19.3 kmh 29.79 in1008.8 mb 0.00 in0.0 mm 0.00 in/hr0.0 mm/hr 0.00 in0.0 mm
01:55 AM 54.2°F12.3°C 51.9°F11.1°C 92% 6.0 mph SSE9.7 kmh SSE 12.0 mph19.3 kmh 29.79 in1008.8 mb 0.00 in0.0 mm 0.00 in/hr0.0 mm/hr 0.00 in0.0 mm
01:56 AM 54.2°F12.3°C 51.9°F11.1°C 92% 9.0 mph SE14.5 kmh SE 12.0 mph19.3 kmh 29.79 in1008.8 mb 0.00 in0.0 mm 0.00 in/hr0.0 mm/hr 0.00 in0.0 mm
01:57 AM 54.2°F12.3°C 51.9°F11.1°C 92% 4.0 mph SE6.4 kmh SE 12.0 mph19.3 kmh 29.79 in1008.8 mb 0.00 in0.0 mm 0.00 in/hr0.0 mm/hr 0.00 in0.0 mm
01:58 AM 54.2°F12.3°C 51.9°F11.1°C 92% 6.0 mph SE9.7 kmh SE 12.0 mph19.3 kmh 29.79 in1008.8 mb 0.00 in0.0 mm 0.00 in/hr0.0 mm/hr 0.00 in0.0 mm
01:59 AM 54.2°F12.3°C 51.9°F11.1°C 92% 9.0 mph SE14.5 kmh SE 12.0 mph19.3 kmh 29.79 in1008.8 mb 0.00 in0.0 mm 0.00 in/hr0.0 mm/hr 0.00 in0.0 mm
02:00 AM 54.2°F12.3°C 51.9°F11.1°C 92% 5.0 mph ESE8.0 kmh ESE 12.0 mph19.3 kmh 29.79 in1008.8 mb 0.00 in0.0 mm 0.00 in/hr0.0 mm/hr 0.00 in0.0 mm
02:01 AM 54.1°F12.3°C 51.8°F11.0°C 92% 7.0 mph SSE11.3 kmh SSE 12.0 mph19.3 kmh 29.79 in1008.8 mb 0.00 in0.0 mm 0.00 in/hr0.0 mm/hr 0.00 in0.0 mm
02:02 AM 54.1°F12.3°C 51.8°F11.0°C 92% 6.0 mph SE9.7 kmh SE 9.0 mph14.5 kmh 29.79 in1008.8 mb 0.00 in0.0 mm 0.00 in/hr0.0 mm/hr 0.00 in0.0 mm
02:03 AM 54.1°F12.3°C 51.8°F11.0°C 92% 4.0 mph SE6.4 kmh SE 10.0 mph16.1 kmh 29.79 in1008.8 mb 0.00 in0.0 mm 0.00 in/hr0.0 mm/hr 0.00 in0.0 mm
02:04 AM 54.1°F12.3°C 51.8°F11.0°C 92% 7.0 mph SE11.3 kmh SE 10.0 mph16.1 kmh 29.79 in1008.8 mb 0.00 in0.0 mm 0.00 in/hr0.0 mm/hr 0.00 in0.0 mm
02:05 AM 54.1°F12.3°C 51.8°F11.0°C 92% 7.0 mph SE11.3 kmh SE 10.0 mph16.1 kmh 29.79 in1008.8 mb 0.00 in0.0 mm 0.00 in/hr0.0 mm/hr 0.00 in0.0 mm
02:06 AM 54.0°F12.2°C 51.7°F10.9°C 92% 5.0 mph SE8.0 kmh SE 10.0 mph16.1 kmh 29.79 in1008.8 mb 0.00 in0.0 mm 0.00 in/hr0.0 mm/hr 0.00 in0.0 mm
02:07 AM 54.0°F12.2°C 51.7°F10.9°C 92% 4.0 mph SE6.4 kmh SE 10.0 mph16.1 kmh 29.79 in1008.8 mb 0.00 in0.0 mm 0.00 in/hr0.0 mm/hr 0.00 in0.0 mm
02:08 AM 54.0°F12.2°C 51.7°F10.9°C 92% 9.0 mph SE14.5 kmh SE 11.0 mph17.7 kmh 29.79 in1008.8 mb 0.00 in0.0 mm 0.00 in/hr0.0 mm/hr 0.00 in0.0 mm
02:09 AM 54.0°F12.2°C 51.7°F10.9°C 92% 7.0 mph SE11.3 kmh SE 11.0 mph17.7 kmh 29.79 in1008.8 mb 0.00 in0.0 mm 0.00 in/hr0.0 mm/hr 0.00 in0.0 mm
02:10 AM 54.0°F12.2°C 52.0°F11.1°C 93% 5.0 mph S8.0 kmh S 11.0 mph17.7 kmh 29.79 in1008.8 mb 0.00 in0.0 mm 0.00 in/hr0.0 mm/hr 0.00 in0.0 mm
02:11 AM 54.0°F12.2°C 52.0°F11.1°C 93% 7.0 mph SE11.3 kmh SE 11.0 mph17.7 kmh 29.79 in1008.8 mb 0.00 in0.0 mm 0.00 in/hr0.0 mm/hr 0.00 in0.0 mm
02:12 AM 54.0°F12.2°C 52.0°F11.1°C 93% 3.0 mph SSE4.8 kmh SSE 11.0 mph17.7 kmh 29.79 in1008.8 mb 0.00 in0.0 mm 0.00 in/hr0.0 mm/hr 0.00 in0.0 mm
02:13 AM 54.0°F12.2°C 52.0°F11.1°C 93% 4.0 mph SSE6.4 kmh SSE 11.0 mph17.7 kmh 29.79 in1008.8 mb 0.00 in0.0 mm 0.00 in/hr0.0 mm/hr 0.00 in0.0 mm
02:14 AM 53.9°F12.2°C 51.9°F11.1°C 93% 3.0 mph SSE4.8 kmh SSE 11.0 mph17.7 kmh 29.79 in1008.8 mb 0.00 in0.0 mm 0.00 in/hr0.0 mm/hr 0.00 in0.0 mm
02:15 AM 53.9°F12.2°C 51.9°F11.1°C 93% 4.0 mph SE6.4 kmh SE 11.0 mph17.7 kmh 29.79 in1008.8 mb 0.00 in0.0 mm 0.00 in/hr0.0 mm/hr 0.00 in0.0 mm
02:16 AM 53.9°F12.2°C 51.9°F11.1°C 93% 5.0 mph SSE8.0 kmh SSE 11.0 mph17.7 kmh 29.79 in1008.8 mb 0.00 in0.0 mm 0.00 in/hr0.0 mm/hr 0.00 in0.0 mm
02:17 AM 53.9°F12.2°C 51.9°F11.1°C 93% 6.0 mph SSE9.7 kmh SSE 11.0 mph17.7 kmh 29.79 in1008.8 mb 0.00 in0.0 mm 0.00 in/hr0.0 mm/hr 0.00 in0.0 mm
02:18 AM 53.9°F12.2°C 51.9°F11.1°C 93% 5.0 mph SE8.0 kmh SE 11.0 mph17.7 kmh 29.79 in1008.8 mb 0.00 in0.0 mm 0.00 in/hr0.0 mm/hr 0.00 in0.0 mm
02:19 AM 53.9°F12.2°C 51.9°F11.1°C 93% 7.0 mph ESE11.3 kmh ESE 11.0 mph17.7 kmh 29.79 in1008.8 mb 0.00 in0.0 mm 0.00 in/hr0.0 mm/hr 0.00 in0.0 mm
02:20 AM 53.9°F12.2°C 51.9°F11.1°C 93% 4.0 mph S6.4 kmh S 11.0 mph17.7 kmh 29.79 in1008.8 mb 0.00 in0.0 mm 0.00 in/hr0.0 mm/hr 0.00 in0.0 mm
02:21 AM 53.8°F12.1°C 51.8°F11.0°C 93% 5.0 mph SE8.0 kmh SE 11.0 mph17.7 kmh 29.79 in1008.8 mb 0.00 in0.0 mm 0.00 in/hr0.0 mm/hr 0.00 in0.0 mm
02:22 AM 53.8°F12.1°C 51.8°F11.0°C 93% 7.0 mph SE11.3 kmh SE 11.0 mph17.7 kmh 29.79 in1008.8 mb 0.00 in0.0 mm 0.00 in/hr0.0 mm/hr 0.00 in0.0 mm
02:23 AM 53.8°F12.1°C 51.8°F11.0°C 93% 4.0 mph SE6.4 kmh SE 11.0 mph17.7 kmh 29.79 in1008.8 mb 0.00 in0.0 mm 0.00 in/hr0.0 mm/hr 0.00 in0.0 mm
02:24 AM 53.8°F12.1°C 51.8°F11.0°C 93% 4.0 mph SE6.4 kmh SE 11.0 mph17.7 kmh 29.79 in1008.8 mb 0.00 in0.0 mm 0.00 in/hr0.0 mm/hr 0.00 in0.0 mm
02:25 AM 53.8°F12.1°C 51.8°F11.0°C 93% 4.0 mph ESE6.4 kmh ESE 11.0 mph17.7 kmh 29.79 in1008.8 mb 0.00 in0.0 mm 0.00 in/hr0.0 mm/hr 0.00 in0.0 mm
02:26 AM 53.8°F12.1°C 51.8°F11.0°C 93% 4.0 mph SE6.4 kmh SE 11.0 mph17.7 kmh 29.79 in1008.8 mb 0.00 in0.0 mm 0.00 in/hr0.0 mm/hr 0.00 in0.0 mm
02:27 AM 53.8°F12.1°C 51.8°F11.0°C 93% 5.0 mph SE8.0 kmh SE 11.0 mph17.7 kmh 29.79 in1008.8 mb 0.00 in0.0 mm 0.00 in/hr0.0 mm/hr 0.00 in0.0 mm
02:28 AM 53.7°F12.1°C 51.7°F10.9°C 93% 5.0 mph SE8.0 kmh SE 11.0 mph17.7 kmh 29.79 in1008.8 mb 0.00 in0.0 mm 0.00 in/hr0.0 mm/hr 0.00 in0.0 mm
02:29 AM 53.7°F12.1°C 51.7°F10.9°C 93% 5.0 mph SE8.0 kmh SE 11.0 mph17.7 kmh 29.79 in1008.8 mb 0.00 in0.0 mm 0.00 in/hr0.0 mm/hr 0.00 in0.0 mm
02:30 AM 53.7°F12.1°C 51.7°F10.9°C 93% 5.0 mph SE8.0 kmh SE 11.0 mph17.7 kmh 29.79 in1008.8 mb 0.00 in0.0 mm 0.00 in/hr0.0 mm/hr 0.00 in0.0 mm
02:31 AM 53.7°F12.1°C 51.7°F10.9°C 93% 5.0 mph SE8.0 kmh SE 11.0 mph17.7 kmh 29.79 in1008.8 mb 0.00 in0.0 mm 0.00 in/hr0.0 mm/hr 0.00 in0.0 mm
02:32 AM 53.7°F12.1°C 51.7°F10.9°C 93% 4.0 mph SE6.4 kmh SE 4.0 mph6.4 kmh 29.79 in1008.8 mb 0.00 in0.0 mm 0.00 in/hr0.0 mm/hr 0.00 in0.0 mm
02:33 AM 53.7°F12.1°C 51.7°F10.9°C 93% 4.0 mph S6.4 kmh S 6.0 mph9.7 kmh 29.79 in1008.8 mb 0.00 in0.0 mm 0.00 in/hr0.0 mm/hr 0.00 in0.0 mm
02:34 AM 53.7°F12.1°C 51.7°F10.9°C 93% 3.0 mph SSE4.8 kmh SSE 6.0 mph9.7 kmh 29.79 in1008.8 mb 0.00 in0.0 mm 0.00 in/hr0.0 mm/hr 0.00 in0.0 mm
02:35 AM 53.7°F12.1°C 51.7°F10.9°C 93% 6.0 mph SE9.7 kmh SE 6.0 mph9.7 kmh 29.79 in1008.8 mb 0.00 in0.0 mm 0.00 in/hr0.0 mm/hr 0.00 in0.0 mm
02:36 AM 53.7°F12.1°C 51.7°F10.9°C 93% 4.0 mph SE6.4 kmh SE 6.0 mph9.7 kmh 29.79 in1008.8 mb 0.00 in0.0 mm 0.00 in/hr0.0 mm/hr 0.00 in0.0 mm
02:37 AM 53.8°F12.1°C 51.8°F11.0°C 93% 3.0 mph SSE4.8 kmh SSE 6.0 mph9.7 kmh 29.79 in1008.8 mb 0.00 in0.0 mm 0.00 in/hr0.0 mm/hr 0.00 in0.0 mm
02:38 AM 53.8°F12.1°C 51.8°F11.0°C 93% 5.0 mph SE8.0 kmh SE 6.0 mph9.7 kmh 29.79 in1008.8 mb 0.00 in0.0 mm 0.00 in/hr0.0 mm/hr 0.00 in0.0 mm
02:39 AM 53.8°F12.1°C 51.8°F11.0°C 93% 4.0 mph SE6.4 kmh SE 6.0 mph9.7 kmh 29.79 in1008.8 mb 0.00 in0.0 mm 0.00 in/hr0.0 mm/hr 0.00 in0.0 mm
02:40 AM 53.8°F12.1°C 51.8°F11.0°C 93% 6.0 mph SE9.7 kmh SE 7.0 mph11.3 kmh 29.79 in1008.8 mb 0.00 in0.0 mm 0.00 in/hr0.0 mm/hr 0.00 in0.0 mm
02:41 AM 53.8°F12.1°C 51.8°F11.0°C 93% 7.0 mph SSE11.3 kmh SSE 7.0 mph11.3 kmh 29.80 in1009.1 mb 0.00 in0.0 mm 0.00 in/hr0.0 mm/hr 0.00 in0.0 mm
02:42 AM 53.8°F12.1°C 51.8°F11.0°C 93% 4.0 mph SE6.4 kmh SE 7.0 mph11.3 kmh 29.79 in1008.8 mb 0.00 in0.0 mm 0.00 in/hr0.0 mm/hr 0.00 in0.0 mm
02:43 AM 53.8°F12.1°C 51.8°F11.0°C 93% 4.0 mph SE6.4 kmh SE 7.0 mph11.3 kmh 29.79 in1008.8 mb 0.00 in0.0 mm 0.00 in/hr0.0 mm/hr 0.00 in0.0 mm
02:44 AM 53.8°F12.1°C 51.8°F11.0°C 93% 3.0 mph SSE4.8 kmh SSE 8.0 mph12.9 kmh 29.80 in1009.1 mb 0.00 in0.0 mm 0.00 in/hr0.0 mm/hr 0.00 in0.0 mm
02:45 AM 53.9°F12.2°C 51.9°F11.1°C 93% 4.0 mph SSE6.4 kmh SSE 8.0 mph12.9 kmh 29.79 in1008.8 mb 0.00 in0.0 mm 0.00 in/hr0.0 mm/hr 0.00 in0.0 mm
02:46 AM 53.9°F12.2°C 51.9°F11.1°C 93% 4.0 mph SE6.4 kmh SE 8.0 mph12.9 kmh 29.79 in1008.8 mb 0.00 in0.0 mm 0.00 in/hr0.0 mm/hr 0.00 in0.0 mm
02:47 AM 53.9°F12.2°C 51.9°F11.1°C 93% 7.0 mph SSE11.3 kmh SSE 8.0 mph12.9 kmh 29.80 in1009.1 mb 0.00 in0.0 mm 0.00 in/hr0.0 mm/hr 0.00 in0.0 mm
02:48 AM 53.9°F12.2°C 51.9°F11.1°C 93% 5.0 mph SSE8.0 kmh SSE 8.0 mph12.9 kmh 29.80 in1009.1 mb 0.00 in0.0 mm 0.00 in/hr0.0 mm/hr 0.00 in0.0 mm
02:49 AM 53.9°F12.2°C 51.9°F11.1°C 93% 8.0 mph SE12.9 kmh SE 9.0 mph14.5 kmh 29.80 in1009.1 mb 0.00 in0.0 mm 0.00 in/hr0.0 mm/hr 0.00 in0.0 mm
02:50 AM 53.9°F12.2°C 52.2°F11.2°C 94% 7.0 mph SSE11.3 kmh SSE 9.0 mph14.5 kmh 29.80 in1009.1 mb 0.00 in0.0 mm 0.00 in/hr0.0 mm/hr 0.00 in0.0 mm
02:51 AM 53.9°F12.2°C 52.2°F11.2°C 94% 6.0 mph S9.7 kmh S 9.0 mph14.5 kmh 29.80 in1009.1 mb 0.00 in0.0 mm 0.00 in/hr0.0 mm/hr 0.00 in0.0 mm
02:52 AM 54.0°F12.2°C 52.3°F11.3°C 94% 4.0 mph SSE6.4 kmh SSE 9.0 mph14.5 kmh 29.79 in1008.8 mb 0.00 in0.0 mm 0.00 in/hr0.0 mm/hr 0.00 in0.0 mm
02:53 AM 54.0°F12.2°C 52.3°F11.3°C 94% 5.0 mph SE8.0 kmh SE 9.0 mph14.5 kmh 29.79 in1008.8 mb 0.00 in0.0 mm 0.00 in/hr0.0 mm/hr 0.00 in0.0 mm
02:54 AM 54.0°F12.2°C 52.3°F11.3°C 94% 5.0 mph SE8.0 kmh SE 9.0 mph14.5 kmh 29.79 in1008.8 mb 0.00 in0.0 mm 0.00 in/hr0.0 mm/hr 0.00 in0.0 mm
02:55 AM 54.0°F12.2°C 52.3°F11.3°C 94% 4.0 mph SSE6.4 kmh SSE 9.0 mph14.5 kmh 29.79 in1008.8 mb 0.00 in0.0 mm 0.00 in/hr0.0 mm/hr 0.00 in0.0 mm
02:56 AM 54.0°F12.2°C 52.3°F11.3°C 94% 5.0 mph SE8.0 kmh SE 9.0 mph14.5 kmh 29.79 in1008.8 mb 0.00 in0.0 mm 0.00 in/hr0.0 mm/hr 0.00 in0.0 mm
02:57 AM 54.1°F12.3°C 52.4°F11.3°C 94% 6.0 mph SE9.7 kmh SE 9.0 mph14.5 kmh 29.79 in1008.8 mb 0.00 in0.0 mm 0.00 in/hr0.0 mm/hr 0.00 in0.0 mm
02:58 AM 54.1°F12.3°C 52.4°F11.3°C 94% 6.0 mph SSE9.7 kmh SSE 9.0 mph14.5 kmh 29.79 in1008.8 mb 0.00 in0.0 mm 0.00 in/hr0.0 mm/hr 0.00 in0.0 mm
02:59 AM 54.1°F12.3°C 52.4°F11.3°C 94% 4.0 mph SSE6.4 kmh SSE 9.0 mph14.5 kmh 29.79 in1008.8 mb 0.00 in0.0 mm 0.00 in/hr0.0 mm/hr 0.00 in0.0 mm
03:00 AM 54.1°F12.3°C 52.4°F11.3°C 94% 4.0 mph SSE6.4 kmh SSE 9.0 mph14.5 kmh 29.79 in1008.8 mb 0.00 in0.0 mm 0.00 in/hr0.0 mm/hr 0.00 in0.0 mm
03:01 AM 54.1°F12.3°C 52.4°F11.3°C 94% 5.0 mph SE8.0 kmh SE 9.0 mph14.5 kmh 29.79 in1008.8 mb 0.00 in0.0 mm 0.00 in/hr0.0 mm/hr 0.00 in0.0 mm
03:02 AM 54.1°F12.3°C 52.4°F11.3°C 94% 4.0 mph SE6.4 kmh SE 8.0 mph12.9 kmh 29.79 in1008.8 mb 0.00 in0.0 mm 0.00 in/hr0.0 mm/hr 0.00 in0.0 mm
03:03 AM 54.1°F12.3°C 52.4°F11.3°C 94% 7.0 mph SSE11.3 kmh SSE 8.0 mph12.9 kmh 29.79 in1008.8 mb 0.00 in0.0 mm 0.00 in/hr0.0 mm/hr 0.00 in0.0 mm
03:04 AM 54.1°F12.3°C 52.4°F11.3°C 94% 6.0 mph SSE9.7 kmh SSE 8.0 mph12.9 kmh 29.79 in1008.8 mb 0.00 in0.0 mm 0.00 in/hr0.0 mm/hr 0.00 in0.0 mm
03:05 AM 54.2°F12.3°C 52.5°F11.4°C 94% 3.0 mph SSE4.8 kmh SSE 10.0 mph16.1 kmh 29.79 in1008.8 mb 0.00 in0.0 mm 0.00 in/hr0.0 mm/hr 0.00 in0.0 mm
03:06 AM 54.2°F12.3°C 52.5°F11.4°C 94% 5.0 mph SE8.0 kmh SE 10.0 mph16.1 kmh 29.79 in1008.8 mb 0.00 in0.0 mm 0.00 in/hr0.0 mm/hr 0.00 in0.0 mm
03:07 AM 54.2°F12.3°C 52.5°F11.4°C 94% 4.0 mph SE6.4 kmh SE 10.0 mph16.1 kmh 29.80 in1009.1 mb 0.00 in0.0 mm 0.00 in/hr0.0 mm/hr 0.00 in0.0 mm
03:08 AM 54.2°F12.3°C 52.5°F11.4°C 94% 3.0 mph SSE4.8 kmh SSE 10.0 mph16.1 kmh 29.80 in1009.1 mb 0.00 in0.0 mm 0.00 in/hr0.0 mm/hr 0.00 in0.0 mm
03:09 AM 54.2°F12.3°C 52.5°F11.4°C 94% 8.0 mph SSE12.9 kmh SSE 10.0 mph16.1 kmh 29.79 in1008.8 mb 0.00 in0.0 mm 0.00 in/hr0.0 mm/hr 0.00 in0.0 mm
03:10 AM 54.2°F12.3°C 52.5°F11.4°C 94% 5.0 mph SE8.0 kmh SE 10.0 mph16.1 kmh 29.79 in1008.8 mb 0.00 in0.0 mm 0.00 in/hr0.0 mm/hr 0.00 in0.0 mm
03:11 AM 54.2°F12.3°C 52.5°F11.4°C 94% 2.0 mph SE3.2 kmh SE 10.0 mph16.1 kmh 29.79 in1008.8 mb 0.00 in0.0 mm 0.00 in/hr0.0 mm/hr 0.00 in0.0 mm
03:12 AM 54.3°F12.4°C 52.6°F11.4°C 94% 5.0 mph SE8.0 kmh SE 10.0 mph16.1 kmh 29.79 in1008.8 mb 0.00 in0.0 mm 0.00 in/hr0.0 mm/hr 0.00 in0.0 mm
03:13 AM 54.3°F12.4°C 52.6°F11.4°C 94% 6.0 mph SE9.7 kmh SE 10.0 mph16.1 kmh 29.79 in1008.8 mb 0.00 in0.0 mm 0.00 in/hr0.0 mm/hr 0.00 in0.0 mm
03:14 AM 54.3°F12.4°C 52.6°F11.4°C 94% 4.0 mph SSE6.4 kmh SSE 10.0 mph16.1 kmh 29.79 in1008.8 mb 0.00 in0.0 mm 0.00 in/hr0.0 mm/hr 0.00 in0.0 mm
03:15 AM 54.3°F12.4°C 52.6°F11.4°C 94% 6.0 mph SE9.7 kmh SE 10.0 mph16.1 kmh 29.79 in1008.8 mb 0.00 in0.0 mm 0.00 in/hr0.0 mm/hr 0.00 in0.0 mm
03:16 AM 54.4°F12.4°C 52.7°F11.5°C 94% 5.0 mph SE8.0 kmh SE 10.0 mph16.1 kmh 29.79 in1008.8 mb 0.00 in0.0 mm 0.00 in/hr0.0 mm/hr 0.00 in0.0 mm
03:17 AM 54.4°F12.4°C 52.7°F11.5°C 94% 3.0 mph SE4.8 kmh SE 10.0 mph16.1 kmh 29.79 in1008.8 mb 0.00 in0.0 mm 0.00 in/hr0.0 mm/hr 0.00 in0.0 mm
03:18 AM 54.4°F12.4°C 52.7°F11.5°C 94% 6.0 mph SE9.7 kmh SE 10.0 mph16.1 kmh 29.79 in1008.8 mb 0.00 in0.0 mm 0.00 in/hr0.0 mm/hr 0.00 in0.0 mm
03:19 AM 54.4°F12.4°C 52.7°F11.5°C 94% 6.0 mph SE9.7 kmh SE 10.0 mph16.1 kmh 29.78 in1008.5 mb 0.00 in0.0 mm 0.00 in/hr0.0 mm/hr 0.00 in0.0 mm
03:20 AM 54.4°F12.4°C 52.7°F11.5°C 94% 4.0 mph SE6.4 kmh SE 10.0 mph16.1 kmh 29.78 in1008.5 mb 0.00 in0.0 mm 0.00 in/hr0.0 mm/hr 0.00 in0.0 mm
03:21 AM 54.4°F12.4°C 52.7°F11.5°C 94% 4.0 mph SSE6.4 kmh SSE 10.0 mph16.1 kmh 29.79 in1008.8 mb 0.00 in0.0 mm 0.00 in/hr0.0 mm/hr 0.00 in0.0 mm
03:22 AM 54.4°F12.4°C 52.7°F11.5°C 94% 6.0 mph SSE9.7 kmh SSE 10.0 mph16.1 kmh 29.78 in1008.5 mb 0.00 in0.0 mm 0.00 in/hr0.0 mm/hr 0.00 in0.0 mm
03:23 AM 54.4°F12.4°C 52.7°F11.5°C 94% 5.0 mph SE8.0 kmh SE 10.0 mph16.1 kmh 29.78 in1008.5 mb 0.00 in0.0 mm 0.00 in/hr0.0 mm/hr 0.00 in0.0 mm
03:24 AM 54.4°F12.4°C 52.7°F11.5°C 94% 3.0 mph ESE4.8 kmh ESE 10.0 mph16.1 kmh 29.78 in1008.5 mb 0.00 in0.0 mm 0.00 in/hr0.0 mm/hr 0.00 in0.0 mm
03:25 AM 54.4°F12.4°C 52.7°F11.5°C 94% 7.0 mph SE11.3 kmh SE 10.0 mph16.1 kmh 29.78 in1008.5 mb 0.00 in0.0 mm 0.00 in/hr0.0 mm/hr 0.00 in0.0 mm
03:26 AM 54.4°F12.4°C 52.7°F11.5°C 94% 2.0 mph SSE3.2 kmh SSE 10.0 mph16.1 kmh 29.78 in1008.5 mb 0.00 in0.0 mm 0.00 in/hr0.0 mm/hr 0.00 in0.0 mm
03:27 AM 54.4°F12.4°C 52.7°F11.5°C 94% 4.0 mph ESE6.4 kmh ESE 10.0 mph16.1 kmh 29.78 in1008.5 mb 0.00 in0.0 mm 0.00 in/hr0.0 mm/hr 0.00 in0.0 mm
03:28 AM 54.5°F12.5°C 52.8°F11.6°C 94% 7.0 mph SE11.3 kmh SE 10.0 mph16.1 kmh 29.78 in1008.5 mb 0.00 in0.0 mm 0.00 in/hr0.0 mm/hr 0.00 in0.0 mm
03:29 AM 54.5°F12.5°C 52.8°F11.6°C 94% 3.0 mph SE4.8 kmh SE 10.0 mph16.1 kmh 29.78 in1008.5 mb 0.00 in0.0 mm 0.00 in/hr0.0 mm/hr 0.00 in0.0 mm
03:30 AM 54.5°F12.5°C 52.8°F11.6°C 94% 2.0 mph SSE3.2 kmh SSE 10.0 mph16.1 kmh 29.78 in1008.5 mb 0.00 in0.0 mm 0.00 in/hr0.0 mm/hr 0.00 in0.0 mm
03:31 AM 54.5°F12.5°C 52.8°F11.6°C 94% 3.0 mph SE4.8 kmh SE 10.0 mph16.1 kmh 29.78 in1008.5 mb 0.00 in0.0 mm 0.00 in/hr0.0 mm/hr 0.00 in0.0 mm
03:32 AM 54.5°F12.5°C 52.8°F11.6°C 94% 5.0 mph SE8.0 kmh SE 5.0 mph8.0 kmh 29.78 in1008.5 mb 0.00 in0.0 mm 0.00 in/hr0.0 mm/hr 0.00 in0.0 mm
03:33 AM 54.5°F12.5°C 52.8°F11.6°C 94% 6.0 mph SE9.7 kmh SE 7.0 mph11.3 kmh 29.78 in1008.5 mb 0.00 in0.0 mm 0.00 in/hr0.0 mm/hr 0.00 in0.0 mm
03:34 AM 54.5°F12.5°C 52.8°F11.6°C 94% 5.0 mph SE8.0 kmh SE 7.0 mph11.3 kmh 29.78 in1008.5 mb 0.00 in0.0 mm 0.00 in/hr0.0 mm/hr 0.00 in0.0 mm
03:35 AM 54.5°F12.5°C 52.8°F11.6°C 94% 4.0 mph ESE6.4 kmh ESE 7.0 mph11.3 kmh 29.78 in1008.5 mb 0.00 in0.0 mm 0.00 in/hr0.0 mm/hr 0.00 in0.0 mm
03:36 AM 54.5°F12.5°C 52.8°F11.6°C 94% 3.0 mph SE4.8 kmh SE 7.0 mph11.3 kmh 29.79 in1008.8 mb 0.00 in0.0 mm 0.00 in/hr0.0 mm/hr 0.00 in0.0 mm
03:37 AM 54.5°F12.5°C 52.8°F11.6°C 94% 4.0 mph SE6.4 kmh SE 7.0 mph11.3 kmh 29.78 in1008.5 mb 0.00 in0.0 mm 0.00 in/hr0.0 mm/hr 0.00 in0.0 mm
03:38 AM 54.5°F12.5°C 52.8°F11.6°C 94% 4.0 mph SSE6.4 kmh SSE 7.0 mph11.3 kmh 29.78 in1008.5 mb 0.00 in0.0 mm 0.00 in/hr0.0 mm/hr 0.00 in0.0 mm
03:39 AM 54.5°F12.5°C 52.8°F11.6°C 94% 2.0 mph SE3.2 kmh SE 7.0 mph11.3 kmh 29.78 in1008.5 mb 0.00 in0.0 mm 0.00 in/hr0.0 mm/hr 0.00 in0.0 mm
03:40 AM 54.5°F12.5°C 52.8°F11.6°C 94% 5.0 mph SE8.0 kmh SE 7.0 mph11.3 kmh 29.78 in1008.5 mb 0.00 in0.0 mm 0.00 in/hr0.0 mm/hr 0.00 in0.0 mm
03:41 AM 54.5°F12.5°C 52.8°F11.6°C 94% 5.0 mph SE8.0 kmh SE 7.0 mph11.3 kmh 29.78 in1008.5 mb 0.00 in0.0 mm 0.00 in/hr0.0 mm/hr 0.00 in0.0 mm
03:42 AM 54.5°F12.5°C 52.8°F11.6°C 94% 5.0 mph SE8.0 kmh SE 8.0 mph12.9 kmh 29.78 in1008.5 mb 0.00 in0.0 mm 0.00 in/hr0.0 mm/hr 0.00 in0.0 mm
03:43 AM 54.5°F12.5°C 52.8°F11.6°C 94% 3.0 mph SSE4.8 kmh SSE 8.0 mph12.9 kmh 29.78 in1008.5 mb 0.00 in0.0 mm 0.00 in/hr0.0 mm/hr 0.00 in0.0 mm
03:44 AM 54.5°F12.5°C 52.8°F11.6°C 94% 4.0 mph SE6.4 kmh SE 8.0 mph12.9 kmh 29.78 in1008.5 mb 0.00 in0.0 mm 0.00 in/hr0.0 mm/hr 0.00 in0.0 mm
03:45 AM 54.6°F12.6°C 52.9°F11.6°C 94% 3.0 mph SE4.8 kmh SE 8.0 mph12.9 kmh 29.78 in1008.5 mb 0.00 in0.0 mm 0.00 in/hr0.0 mm/hr 0.00 in0.0 mm
03:46 AM 54.5°F12.5°C 52.8°F11.6°C 94% 5.0 mph SE8.0 kmh SE 9.0 mph14.5 kmh 29.78 in1008.5 mb 0.00 in0.0 mm 0.00 in/hr0.0 mm/hr 0.00 in0.0 mm
03:47 AM 54.6°F12.6°C 52.9°F11.6°C 94% 4.0 mph SE6.4 kmh SE 9.0 mph14.5 kmh 29.78 in1008.5 mb 0.00 in0.0 mm 0.00 in/hr0.0 mm/hr 0.00 in0.0 mm
03:48 AM 54.6°F12.6°C 52.9°F11.6°C 94% 6.0 mph SSE9.7 kmh SSE 9.0 mph14.5 kmh 29.78 in1008.5 mb 0.00 in0.0 mm 0.00 in/hr0.0 mm/hr 0.00 in0.0 mm
03:49 AM 54.6°F12.6°C 52.6°F11.4°C 93% 5.0 mph SE8.0 kmh SE 9.0 mph14.5 kmh 29.78 in1008.5 mb 0.00 in0.0 mm 0.00 in/hr0.0 mm/hr 0.00 in0.0 mm
03:50 AM 54.6°F12.6°C 52.6°F11.4°C 93% 4.0 mph SSE6.4 kmh SSE 9.0 mph14.5 kmh 29.78 in1008.5 mb 0.00 in0.0 mm 0.00 in/hr0.0 mm/hr 0.00 in0.0 mm
03:51 AM 54.6°F12.6°C 52.6°F11.4°C 93% 5.0 mph SE8.0 kmh SE 9.0 mph14.5 kmh 29.78 in1008.5 mb 0.00 in0.0 mm 0.00 in/hr0.0 mm/hr 0.00 in0.0 mm
03:52 AM 54.6°F12.6°C 52.6°F11.4°C 93% 4.0 mph SSE6.4 kmh SSE 9.0 mph14.5 kmh 29.78 in1008.5 mb 0.00 in0.0 mm 0.00 in/hr0.0 mm/hr 0.00 in0.0 mm
03:53 AM 54.6°F12.6°C 52.6°F11.4°C 93% 5.0 mph SE8.0 kmh SE 9.0 mph14.5 kmh 29.78 in1008.5 mb 0.00 in0.0 mm 0.00 in/hr0.0 mm/hr 0.00 in0.0 mm
03:54 AM 54.5°F12.5°C 52.5°F11.4°C 93% 3.0 mph SE4.8 kmh SE 9.0 mph14.5 kmh 29.78 in1008.5 mb 0.00 in0.0 mm 0.00 in/hr0.0 mm/hr 0.00 in0.0 mm
03:55 AM 54.5°F12.5°C 52.5°F11.4°C 93% 4.0 mph SSE6.4 kmh SSE 9.0 mph14.5 kmh 29.78 in1008.5 mb 0.00 in0.0 mm 0.00 in/hr0.0 mm/hr 0.00 in0.0 mm
03:56 AM 54.5°F12.5°C 52.5°F11.4°C 93% 5.0 mph SE8.0 kmh SE 9.0 mph14.5 kmh 29.78 in1008.5 mb 0.00 in0.0 mm 0.00 in/hr0.0 mm/hr 0.00 in0.0 mm
03:57 AM 54.5°F12.5°C 52.5°F11.4°C 93% 6.0 mph SE9.7 kmh SE 9.0 mph14.5 kmh 29.78 in1008.5 mb 0.00 in0.0 mm 0.00 in/hr0.0 mm/hr 0.00 in0.0 mm
03:58 AM 54.5°F12.5°C 52.5°F11.4°C 93% 5.0 mph SE8.0 kmh SE 9.0 mph14.5 kmh 29.78 in1008.5 mb 0.00 in0.0 mm 0.00 in/hr0.0 mm/hr 0.00 in0.0 mm
03:59 AM 54.5°F12.5°C 52.5°F11.4°C 93% 4.0 mph SE6.4 kmh SE 9.0 mph14.5 kmh 29.78 in1008.5 mb 0.00 in0.0 mm 0.00 in/hr0.0 mm/hr 0.00 in0.0 mm
04:00 AM 54.5°F12.5°C 52.5°F11.4°C 93% 5.0 mph SE8.0 kmh SE 9.0 mph14.5 kmh 29.78 in1008.5 mb 0.00 in0.0 mm 0.00 in/hr0.0 mm/hr 0.00 in0.0 mm
04:01 AM 54.5°F12.5°C 52.5°F11.4°C 93% 7.0 mph SE11.3 kmh SE 10.0 mph16.1 kmh 29.78 in1008.5 mb 0.00 in0.0 mm 0.00 in/hr0.0 mm/hr 0.00 in0.0 mm
04:02 AM 54.5°F12.5°C 52.5°F11.4°C 93% 7.0 mph SE11.3 kmh SE 7.0 mph11.3 kmh 29.78 in1008.5 mb 0.00 in0.0 mm 0.00 in/hr0.0 mm/hr 0.00 in0.0 mm
04:03 AM 54.5°F12.5°C 52.5°F11.4°C 93% 5.0 mph SE8.0 kmh SE 8.0 mph12.9 kmh 29.78 in1008.5 mb 0.00 in0.0 mm 0.00 in/hr0.0 mm/hr 0.00 in0.0 mm
04:04 AM 54.5°F12.5°C 52.8°F11.6°C 94% 3.0 mph SE4.8 kmh SE 8.0 mph12.9 kmh 29.78 in1008.5 mb 0.00 in0.0 mm 0.00 in/hr0.0 mm/hr 0.00 in0.0 mm
04:05 AM 54.5°F12.5°C 52.8°F11.6°C 94% 8.0 mph SE12.9 kmh SE 8.0 mph12.9 kmh 29.78 in1008.5 mb 0.00 in0.0 mm 0.00 in/hr0.0 mm/hr 0.00 in0.0 mm
04:06 AM 54.5°F12.5°C 52.8°F11.6°C 94% 6.0 mph SE9.7 kmh SE 9.0 mph14.5 kmh 29.78 in1008.5 mb 0.00 in0.0 mm 0.00 in/hr0.0 mm/hr 0.00 in0.0 mm
04:07 AM 54.5°F12.5°C 52.8°F11.6°C 94% 6.0 mph SSE9.7 kmh SSE 9.0 mph14.5 kmh 29.78 in1008.5 mb 0.00 in0.0 mm 0.00 in/hr0.0 mm/hr 0.00 in0.0 mm
04:08 AM 54.5°F12.5°C 52.8°F11.6°C 94% 5.0 mph SE8.0 kmh SE 9.0 mph14.5 kmh 29.78 in1008.5 mb 0.00 in0.0 mm 0.00 in/hr0.0 mm/hr 0.00 in0.0 mm
04:09 AM 54.5°F12.5°C 52.8°F11.6°C 94% 6.0 mph SE9.7 kmh SE 9.0 mph14.5 kmh 29.78 in1008.5 mb 0.00 in0.0 mm 0.00 in/hr0.0 mm/hr 0.00 in0.0 mm
04:10 AM 54.5°F12.5°C 52.8°F11.6°C 94% 6.0 mph SE9.7 kmh SE 9.0 mph14.5 kmh 29.78 in1008.5 mb 0.00 in0.0 mm 0.00 in/hr0.0 mm/hr 0.00 in0.0 mm
04:11 AM 54.5°F12.5°C 52.8°F11.6°C 94% 4.0 mph ESE6.4 kmh ESE 9.0 mph14.5 kmh 29.78 in1008.5 mb 0.00 in0.0 mm 0.00 in/hr0.0 mm/hr 0.00 in0.0 mm
04:12 AM 54.5°F12.5°C 52.8°F11.6°C 94% 7.0 mph SE11.3 kmh SE 9.0 mph14.5 kmh 29.77 in1008.1 mb 0.00 in0.0 mm 0.00 in/hr0.0 mm/hr 0.00 in0.0 mm
04:13 AM 54.5°F12.5°C 52.8°F11.6°C 94% 7.0 mph SE11.3 kmh SE 9.0 mph14.5 kmh 29.77 in1008.1 mb 0.00 in0.0 mm 0.00 in/hr0.0 mm/hr 0.00 in0.0 mm
04:14 AM 54.5°F12.5°C 52.8°F11.6°C 94% 6.0 mph E9.7 kmh E 9.0 mph14.5 kmh 29.78 in1008.5 mb 0.00 in0.0 mm 0.00 in/hr0.0 mm/hr 0.00 in0.0 mm
04:15 AM 54.5°F12.5°C 52.8°F11.6°C 94% 4.0 mph SE6.4 kmh SE 9.0 mph14.5 kmh 29.77 in1008.1 mb 0.00 in0.0 mm 0.00 in/hr0.0 mm/hr 0.00 in0.0 mm
04:16 AM 54.5°F12.5°C 52.8°F11.6°C 94% 4.0 mph SE6.4 kmh SE 9.0 mph14.5 kmh 29.77 in1008.1 mb 0.00 in0.0 mm 0.00 in/hr0.0 mm/hr 0.00 in0.0 mm
04:17 AM 54.5°F12.5°C 52.8°F11.6°C 94% 4.0 mph SE6.4 kmh SE 9.0 mph14.5 kmh 29.77 in1008.1 mb 0.00 in0.0 mm 0.00 in/hr0.0 mm/hr 0.00 in0.0 mm
04:18 AM 54.5°F12.5°C 52.8°F11.6°C 94% 5.0 mph SE8.0 kmh SE 9.0 mph14.5 kmh 29.77 in1008.1 mb 0.00 in0.0 mm 0.00 in/hr0.0 mm/hr 0.00 in0.0 mm
04:19 AM 54.5°F12.5°C 52.8°F11.6°C 94% 5.0 mph SSE8.0 kmh SSE 9.0 mph14.5 kmh 29.78 in1008.5 mb 0.00 in0.0 mm 0.00 in/hr0.0 mm/hr 0.00 in0.0 mm
04:20 AM 54.5°F12.5°C 52.8°F11.6°C 94% 3.0 mph SE4.8 kmh SE 9.0 mph14.5 kmh 29.78 in1008.5 mb 0.00 in0.0 mm 0.00 in/hr0.0 mm/hr 0.00 in0.0 mm
04:21 AM 54.5°F12.5°C 52.8°F11.6°C 94% 5.0 mph SE8.0 kmh SE 9.0 mph14.5 kmh 29.78 in1008.5 mb 0.00 in0.0 mm 0.00 in/hr0.0 mm/hr 0.00 in0.0 mm
04:22 AM 54.5°F12.5°C 52.8°F11.6°C 94% 7.0 mph E11.3 kmh E 9.0 mph14.5 kmh 29.78 in1008.5 mb 0.00 in0.0 mm 0.00 in/hr0.0 mm/hr 0.00 in0.0 mm
04:23 AM 54.5°F12.5°C 52.8°F11.6°C 94% 5.0 mph SE8.0 kmh SE 9.0 mph14.5 kmh 29.78 in1008.5 mb 0.00 in0.0 mm 0.00 in/hr0.0 mm/hr 0.00 in0.0 mm
04:24 AM 54.5°F12.5°C 52.8°F11.6°C 94% 7.0 mph SE11.3 kmh SE 9.0 mph14.5 kmh 29.78 in1008.5 mb 0.00 in0.0 mm 0.00 in/hr0.0 mm/hr 0.00 in0.0 mm
04:25 AM 54.5°F12.5°C 52.8°F11.6°C 94% 6.0 mph SE9.7 kmh SE 9.0 mph14.5 kmh 29.78 in1008.5 mb 0.00 in0.0 mm 0.00 in/hr0.0 mm/hr 0.00 in0.0 mm
04:26 AM 54.5°F12.5°C 52.8°F11.6°C 94% 4.0 mph SE6.4 kmh SE 9.0 mph14.5 kmh 29.78 in1008.5 mb 0.00 in0.0 mm 0.00 in/hr0.0 mm/hr 0.00 in0.0 mm
04:27 AM 54.4°F12.4°C 52.7°F11.5°C 94% 7.0 mph SE11.3 kmh SE 9.0 mph14.5 kmh 29.78 in1008.5 mb 0.00 in0.0 mm 0.00 in/hr0.0 mm/hr 0.00 in0.0 mm
04:28 AM 54.4°F12.4°C 52.7°F11.5°C 94% 6.0 mph SE9.7 kmh SE 9.0 mph14.5 kmh 29.78 in1008.5 mb 0.00 in0.0 mm 0.00 in/hr0.0 mm/hr 0.00 in0.0 mm
04:29 AM 54.5°F12.5°C 52.8°F11.6°C 94% 4.0 mph SSE6.4 kmh SSE 9.0 mph14.5 kmh 29.78 in1008.5 mb 0.00 in0.0 mm 0.00 in/hr0.0 mm/hr 0.00 in0.0 mm
04:30 AM 54.5°F12.5°C 52.8°F11.6°C 94% 4.0 mph SE6.4 kmh SE 9.0 mph14.5 kmh 29.78 in1008.5 mb 0.00 in0.0 mm 0.00 in/hr0.0 mm/hr 0.00 in0.0 mm
04:31 AM 54.5°F12.5°C 52.8°F11.6°C 94% 3.0 mph SSE4.8 kmh SSE 9.0 mph14.5 kmh 29.77 in1008.1 mb 0.00 in0.0 mm 0.00 in/hr0.0 mm/hr 0.00 in0.0 mm
04:32 AM 54.5°F12.5°C 52.8°F11.6°C 94% 7.0 mph SE11.3 kmh SE 9.0 mph14.5 kmh 29.78 in1008.5 mb 0.00 in0.0 mm 0.00 in/hr0.0 mm/hr 0.00 in0.0 mm
04:33 AM 54.5°F12.5°C 52.8°F11.6°C 94% 6.0 mph SE9.7 kmh SE 9.0 mph14.5 kmh 29.77 in1008.1 mb 0.00 in0.0 mm 0.00 in/hr0.0 mm/hr 0.00 in0.0 mm
04:34 AM 54.5°F12.5°C 52.8°F11.6°C 94% 7.0 mph SE11.3 kmh SE 9.0 mph14.5 kmh 29.77 in1008.1 mb 0.00 in0.0 mm 0.00 in/hr0.0 mm/hr 0.00 in0.0 mm
04:35 AM 54.5°F12.5°C 52.8°F11.6°C 94% 8.0 mph SE12.9 kmh SE 9.0 mph14.5 kmh 29.77 in1008.1 mb 0.00 in0.0 mm 0.00 in/hr0.0 mm/hr 0.00 in0.0 mm
04:36 AM 54.5°F12.5°C 52.8°F11.6°C 94% 5.0 mph SSE8.0 kmh SSE 9.0 mph14.5 kmh 29.77 in1008.1 mb 0.00 in0.0 mm 0.00 in/hr0.0 mm/hr 0.00 in0.0 mm
04:37 AM 54.5°F12.5°C 52.8°F11.6°C 94% 6.0 mph SE9.7 kmh SE 10.0 mph16.1 kmh 29.77 in1008.1 mb 0.00 in0.0 mm 0.00 in/hr0.0 mm/hr 0.00 in0.0 mm
04:38 AM 54.5°F12.5°C 52.8°F11.6°C 94% 5.0 mph SSE8.0 kmh SSE 11.0 mph17.7 kmh 29.77 in1008.1 mb 0.00 in0.0 mm 0.00 in/hr0.0 mm/hr 0.00 in0.0 mm
04:39 AM 54.6°F12.6°C 52.9°F11.6°C 94% 9.0 mph SE14.5 kmh SE 11.0 mph17.7 kmh 29.77 in1008.1 mb 0.00 in0.0 mm 0.00 in/hr0.0 mm/hr 0.00 in0.0 mm
04:40 AM 54.6°F12.6°C 52.9°F11.6°C 94% 3.0 mph SSE4.8 kmh SSE 11.0 mph17.7 kmh 29.77 in1008.1 mb 0.00 in0.0 mm 0.00 in/hr0.0 mm/hr 0.00 in0.0 mm
04:41 AM 54.6°F12.6°C 52.9°F11.6°C 94% 8.0 mph SSE12.9 kmh SSE 11.0 mph17.7 kmh 29.77 in1008.1 mb 0.00 in0.0 mm 0.00 in/hr0.0 mm/hr 0.00 in0.0 mm
04:42 AM 54.6°F12.6°C 52.9°F11.6°C 94% 7.0 mph SSE11.3 kmh SSE 11.0 mph17.7 kmh 29.77 in1008.1 mb 0.00 in0.0 mm 0.00 in/hr0.0 mm/hr 0.00 in0.0 mm
04:43 AM 54.6°F12.6°C 52.9°F11.6°C 94% 8.0 mph SSE12.9 kmh SSE 11.0 mph17.7 kmh 29.77 in1008.1 mb 0.00 in0.0 mm 0.00 in/hr0.0 mm/hr 0.00 in0.0 mm
04:44 AM 54.7°F12.6°C 53.0°F11.7°C 94% 9.0 mph SE14.5 kmh SE 11.0 mph17.7 kmh 29.77 in1008.1 mb 0.00 in0.0 mm 0.00 in/hr0.0 mm/hr 0.00 in0.0 mm
04:45 AM 54.7°F12.6°C 53.0°F11.7°C 94% 10.0 mph SSE16.1 kmh SSE 11.0 mph17.7 kmh 29.77 in1008.1 mb 0.00 in0.0 mm 0.00 in/hr0.0 mm/hr 0.00 in0.0 mm
04:46 AM 54.8°F12.7°C 53.1°F11.7°C 94% 8.0 mph SSE12.9 kmh SSE 11.0 mph17.7 kmh 29.77 in1008.1 mb 0.00 in0.0 mm 0.00 in/hr0.0 mm/hr 0.00 in0.0 mm
04:47 AM 54.8°F12.7°C 53.1°F11.7°C 94% 7.0 mph E11.3 kmh E 11.0 mph17.7 kmh 29.77 in1008.1 mb 0.00 in0.0 mm 0.00 in/hr0.0 mm/hr 0.00 in0.0 mm
04:48 AM 54.8°F12.7°C 53.1°F11.7°C 94% 8.0 mph SE12.9 kmh SE 11.0 mph17.7 kmh 29.77 in1008.1 mb 0.00 in0.0 mm 0.00 in/hr0.0 mm/hr 0.00 in0.0 mm
04:49 AM 54.9°F12.7°C 53.2°F11.8°C 94% 7.0 mph SSE11.3 kmh SSE 11.0 mph17.7 kmh 29.77 in1008.1 mb 0.00 in0.0 mm 0.00 in/hr0.0 mm/hr 0.00 in0.0 mm
04:50 AM 54.9°F12.7°C 53.2°F11.8°C 94% 7.0 mph SE11.3 kmh SE 13.0 mph20.9 kmh 29.77 in1008.1 mb 0.00 in0.0 mm 0.00 in/hr0.0 mm/hr 0.00 in0.0 mm
04:51 AM 55.0°F12.8°C 53.3°F11.8°C 94% 8.0 mph SE12.9 kmh SE 13.0 mph20.9 kmh 29.77 in1008.1 mb 0.00 in0.0 mm 0.00 in/hr0.0 mm/hr 0.00 in0.0 mm
04:52 AM 55.0°F12.8°C 53.3°F11.8°C 94% 4.0 mph SSE6.4 kmh SSE 13.0 mph20.9 kmh 29.77 in1008.1 mb 0.00 in0.0 mm 0.00 in/hr0.0 mm/hr 0.00 in0.0 mm
04:53 AM 55.0°F12.8°C 53.3°F11.8°C 94% 7.0 mph SE11.3 kmh SE 13.0 mph20.9 kmh 29.77 in1008.1 mb 0.00 in0.0 mm 0.00 in/hr0.0 mm/hr 0.00 in0.0 mm
04:54 AM 55.0°F12.8°C 53.3°F11.8°C 94% 6.0 mph SE9.7 kmh SE 13.0 mph20.9 kmh 29.77 in1008.1 mb 0.00 in0.0 mm 0.00 in/hr0.0 mm/hr 0.00 in0.0 mm
04:55 AM 55.1°F12.8°C 53.4°F11.9°C 94% 8.0 mph SE12.9 kmh SE 13.0 mph20.9 kmh 29.77 in1008.1 mb 0.00 in0.0 mm 0.00 in/hr0.0 mm/hr 0.00 in0.0 mm
04:56 AM 55.1°F12.8°C 53.4°F11.9°C 94% 8.0 mph SE12.9 kmh SE 13.0 mph20.9 kmh 29.77 in1008.1 mb 0.00 in0.0 mm 0.00 in/hr0.0 mm/hr 0.00 in0.0 mm
04:57 AM 55.2°F12.9°C 53.5°F11.9°C 94% 6.0 mph S9.7 kmh S 13.0 mph20.9 kmh 29.77 in1008.1 mb 0.00 in0.0 mm 0.00 in/hr0.0 mm/hr 0.00 in0.0 mm
04:58 AM 55.2°F12.9°C 53.5°F11.9°C 94% 9.0 mph SE14.5 kmh SE 13.0 mph20.9 kmh 29.77 in1008.1 mb 0.00 in0.0 mm 0.00 in/hr0.0 mm/hr 0.00 in0.0 mm
04:59 AM 55.2°F12.9°C 53.5°F11.9°C 94% 11.0 mph SSE17.7 kmh SSE 13.0 mph20.9 kmh 29.77 in1008.1 mb 0.00 in0.0 mm 0.00 in/hr0.0 mm/hr 0.00 in0.0 mm
05:00 AM 55.3°F12.9°C 53.6°F12.0°C 94% 7.0 mph S11.3 kmh S 13.0 mph20.9 kmh 29.77 in1008.1 mb 0.00 in0.0 mm 0.00 in/hr0.0 mm/hr 0.00 in0.0 mm
05:01 AM 55.3°F12.9°C 53.6°F12.0°C 94% 8.0 mph SE12.9 kmh SE 13.0 mph20.9 kmh 29.78 in1008.5 mb 0.00 in0.0 mm 0.00 in/hr0.0 mm/hr 0.00 in0.0 mm
05:02 AM 55.3°F12.9°C 53.6°F12.0°C 94% 6.0 mph S9.7 kmh S 9.0 mph14.5 kmh 29.78 in1008.5 mb 0.00 in0.0 mm 0.00 in/hr0.0 mm/hr 0.00 in0.0 mm
05:03 AM 55.3°F12.9°C 53.6°F12.0°C 94% 6.0 mph SE9.7 kmh SE 9.0 mph14.5 kmh 29.78 in1008.5 mb 0.00 in0.0 mm 0.00 in/hr0.0 mm/hr 0.00 in0.0 mm
05:04 AM 55.3°F12.9°C 53.6°F12.0°C 94% 8.0 mph SSE12.9 kmh SSE 10.0 mph16.1 kmh 29.78 in1008.5 mb 0.00 in0.0 mm 0.00 in/hr0.0 mm/hr 0.00 in0.0 mm
05:05 AM 55.4°F13.0°C 53.7°F12.1°C 94% 7.0 mph SSE11.3 kmh SSE 11.0 mph17.7 kmh 29.77 in1008.1 mb 0.00 in0.0 mm 0.00 in/hr0.0 mm/hr 0.00 in0.0 mm
05:06 AM 55.4°F13.0°C 53.7°F12.1°C 94% 10.0 mph SSE16.1 kmh SSE 11.0 mph17.7 kmh 29.77 in1008.1 mb 0.00 in0.0 mm 0.00 in/hr0.0 mm/hr 0.00 in0.0 mm
05:07 AM 55.5°F13.1°C 53.8°F12.1°C 94% 6.0 mph SSE9.7 kmh SSE 11.0 mph17.7 kmh 29.77 in1008.1 mb 0.00 in0.0 mm 0.00 in/hr0.0 mm/hr 0.00 in0.0 mm
05:08 AM 55.5°F13.1°C 53.8°F12.1°C 94% 8.0 mph SSE12.9 kmh SSE 11.0 mph17.7 kmh 29.77 in1008.1 mb 0.00 in0.0 mm 0.00 in/hr0.0 mm/hr 0.00 in0.0 mm
05:09 AM 55.5°F13.1°C 53.8°F12.1°C 94% 6.0 mph SE9.7 kmh SE 11.0 mph17.7 kmh 29.77 in1008.1 mb 0.00 in0.0 mm 0.00 in/hr0.0 mm/hr 0.00 in0.0 mm
05:10 AM 55.5°F13.1°C 53.8°F12.1°C 94% 8.0 mph SSE12.9 kmh SSE 11.0 mph17.7 kmh 29.77 in1008.1 mb 0.00 in0.0 mm 0.00 in/hr0.0 mm/hr 0.00 in0.0 mm
05:11 AM 55.6°F13.1°C 53.9°F12.2°C 94% 7.0 mph SSE11.3 kmh SSE 12.0 mph19.3 kmh 29.77 in1008.1 mb 0.00 in0.0 mm 0.00 in/hr0.0 mm/hr 0.00 in0.0 mm
05:12 AM 55.6°F13.1°C 53.9°F12.2°C 94% 9.0 mph SE14.5 kmh SE 12.0 mph19.3 kmh 29.77 in1008.1 mb 0.00 in0.0 mm 0.00 in/hr0.0 mm/hr 0.00 in0.0 mm
05:17 AM 55.7°F13.2°C 54.0°F12.2°C 94% 6.0 mph SSE9.7 kmh SSE 13.0 mph20.9 kmh 29.77 in1008.1 mb 0.00 in0.0 mm 0.00 in/hr0.0 mm/hr 0.00 in0.0 mm
05:18 AM 55.8°F13.2°C 54.1°F12.3°C 94% 9.0 mph SE14.5 kmh SE 13.0 mph20.9 kmh 29.77 in1008.1 mb 0.00 in0.0 mm 0.00 in/hr0.0 mm/hr 0.00 in0.0 mm
05:19 AM 55.8°F13.2°C 54.1°F12.3°C 94% 6.0 mph SE9.7 kmh SE 13.0 mph20.9 kmh 29.77 in1008.1 mb 0.00 in0.0 mm 0.00 in/hr0.0 mm/hr 0.00 in0.0 mm
05:20 AM 55.8°F13.2°C 54.1°F12.3°C 94% 8.0 mph SSE12.9 kmh SSE 13.0 mph20.9 kmh 29.77 in1008.1 mb 0.00 in0.0 mm 0.00 in/hr0.0 mm/hr 0.00 in0.0 mm
05:21 AM 55.8°F13.2°C 54.1°F12.3°C 94% 7.0 mph S11.3 kmh S 13.0 mph20.9 kmh 29.77 in1008.1 mb 0.00 in0.0 mm 0.00 in/hr0.0 mm/hr 0.00 in0.0 mm
05:22 AM 55.8°F13.2°C 54.1°F12.3°C 94% 6.0 mph SE9.7 kmh SE 13.0 mph20.9 kmh 29.77 in1008.1 mb 0.00 in0.0 mm 0.00 in/hr0.0 mm/hr 0.00 in0.0 mm
05:23 AM 55.8°F13.2°C 54.1°F12.3°C 94% 7.0 mph SSE11.3 kmh SSE 13.0 mph20.9 kmh 29.77 in1008.1 mb 0.00 in0.0 mm 0.00 in/hr0.0 mm/hr 0.00 in0.0 mm
05:24 AM 55.9°F13.3°C 54.2°F12.3°C 94% 7.0 mph SE11.3 kmh SE 13.0 mph20.9 kmh 29.77 in1008.1 mb 0.00 in0.0 mm 0.00 in/hr0.0 mm/hr 0.00 in0.0 mm
05:25 AM 55.9°F13.3°C 54.2°F12.3°C 94% 10.0 mph SE16.1 kmh SE 13.0 mph20.9 kmh 29.77 in1008.1 mb 0.00 in0.0 mm 0.00 in/hr0.0 mm/hr 0.00 in0.0 mm
05:26 AM 55.9°F13.3°C 54.2°F12.3°C 94% 8.0 mph SE12.9 kmh SE 14.0 mph22.5 kmh 29.77 in1008.1 mb 0.00 in0.0 mm 0.00 in/hr0.0 mm/hr 0.00 in0.0 mm
05:27 AM 55.9°F13.3°C 54.2°F12.3°C 94% 11.0 mph S17.7 kmh S 16.0 mph25.7 kmh 29.77 in1008.1 mb 0.00 in0.0 mm 0.00 in/hr0.0 mm/hr 0.00 in0.0 mm
05:28 AM 55.9°F13.3°C 54.2°F12.3°C 94% 8.0 mph S12.9 kmh S 16.0 mph25.7 kmh 29.77 in1008.1 mb 0.00 in0.0 mm 0.00 in/hr0.0 mm/hr 0.00 in0.0 mm
05:29 AM 55.9°F13.3°C 53.9°F12.2°C 93% 13.0 mph SSE20.9 kmh SSE 16.0 mph25.7 kmh 29.77 in1008.1 mb 0.00 in0.0 mm 0.00 in/hr0.0 mm/hr 0.00 in0.0 mm
05:30 AM 56.0°F13.3°C 54.3°F12.4°C 94% 7.0 mph SSE11.3 kmh SSE 16.0 mph25.7 kmh 29.77 in1008.1 mb 0.00 in0.0 mm 0.00 in/hr0.0 mm/hr 0.00 in0.0 mm
05:31 AM 56.0°F13.3°C 54.0°F12.2°C 93% 12.0 mph SE19.3 kmh SE 16.0 mph25.7 kmh 29.77 in1008.1 mb 0.00 in0.0 mm 0.00 in/hr0.0 mm/hr 0.00 in0.0 mm
05:32 AM 56.0°F13.3°C 54.0°F12.2°C 93% 5.0 mph S8.0 kmh S 11.0 mph17.7 kmh 29.77 in1008.1 mb 0.00 in0.0 mm 0.00 in/hr0.0 mm/hr 0.00 in0.0 mm
05:33 AM 56.0°F13.3°C 54.0°F12.2°C 93% 6.0 mph S9.7 kmh S 11.0 mph17.7 kmh 29.77 in1008.1 mb 0.00 in0.0 mm 0.00 in/hr0.0 mm/hr 0.00 in0.0 mm
05:34 AM 56.0°F13.3°C 54.0°F12.2°C 93% 7.0 mph SSE11.3 kmh SSE 11.0 mph17.7 kmh 29.77 in1008.1 mb 0.00 in0.0 mm 0.00 in/hr0.0 mm/hr 0.00 in0.0 mm
05:35 AM 56.0°F13.3°C 54.0°F12.2°C 93% 5.0 mph SSE8.0 kmh SSE 11.0 mph17.7 kmh 29.77 in1008.1 mb 0.00 in0.0 mm 0.00 in/hr0.0 mm/hr 0.00 in0.0 mm
05:36 AM 56.0°F13.3°C 54.0°F12.2°C 93% 7.0 mph S11.3 kmh S 11.0 mph17.7 kmh 29.77 in1008.1 mb 0.00 in0.0 mm 0.00 in/hr0.0 mm/hr 0.00 in0.0 mm
05:37 AM 56.0°F13.3°C 54.0°F12.2°C 93% 6.0 mph SE9.7 kmh SE 11.0 mph17.7 kmh 29.77 in1008.1 mb 0.00 in0.0 mm 0.00 in/hr0.0 mm/hr 0.00 in0.0 mm
05:38 AM 56.0°F13.3°C 54.0°F12.2°C 93% 5.0 mph SSE8.0 kmh SSE 11.0 mph17.7 kmh 29.77 in1008.1 mb 0.00 in0.0 mm 0.00 in/hr0.0 mm/hr 0.00 in0.0 mm
05:39 AM 56.1°F13.4°C 54.1°F12.3°C 93% 8.0 mph SE12.9 kmh SE 11.0 mph17.7 kmh 29.77 in1008.1 mb 0.00 in0.0 mm 0.00 in/hr0.0 mm/hr 0.00 in0.0 mm
05:40 AM 56.0°F13.3°C 54.0°F12.2°C 93% 7.0 mph SSE11.3 kmh SSE 11.0 mph17.7 kmh 29.77 in1008.1 mb 0.00 in0.0 mm 0.00 in/hr0.0 mm/hr 0.00 in0.0 mm
05:41 AM 56.1°F13.4°C 54.1°F12.3°C 93% 8.0 mph SE12.9 kmh SE 11.0 mph17.7 kmh 29.77 in1008.1 mb 0.00 in0.0 mm 0.00 in/hr0.0 mm/hr 0.00 in0.0 mm
05:42 AM 56.1°F13.4°C 54.1°F12.3°C 93% 6.0 mph S9.7 kmh S 11.0 mph17.7 kmh 29.76 in1007.8 mb 0.00 in0.0 mm 0.00 in/hr0.0 mm/hr 0.00 in0.0 mm
05:43 AM 56.1°F13.4°C 54.1°F12.3°C 93% 8.0 mph SE12.9 kmh SE 11.0 mph17.7 kmh 29.77 in1008.1 mb 0.00 in0.0 mm 0.00 in/hr0.0 mm/hr 0.00 in0.0 mm
05:44 AM 56.1°F13.4°C 54.1°F12.3°C 93% 9.0 mph SSE14.5 kmh SSE 11.0 mph17.7 kmh 29.77 in1008.1 mb 0.00 in0.0 mm 0.00 in/hr0.0 mm/hr 0.00 in0.0 mm
05:45 AM 56.1°F13.4°C 54.1°F12.3°C 93% 5.0 mph SE8.0 kmh SE 11.0 mph17.7 kmh 29.77 in1008.1 mb 0.00 in0.0 mm 0.00 in/hr0.0 mm/hr 0.00 in0.0 mm
05:46 AM 56.1°F13.4°C 54.1°F12.3°C 93% 11.0 mph SE17.7 kmh SE 12.0 mph19.3 kmh 29.77 in1008.1 mb 0.00 in0.0 mm 0.00 in/hr0.0 mm/hr 0.00 in0.0 mm
05:47 AM 56.1°F13.4°C 54.1°F12.3°C 93% 11.0 mph SE17.7 kmh SE 14.0 mph22.5 kmh 29.76 in1007.8 mb 0.00 in0.0 mm 0.00 in/hr0.0 mm/hr 0.00 in0.0 mm
05:48 AM 56.0°F13.3°C 54.0°F12.2°C 93% 8.0 mph ESE12.9 kmh ESE 14.0 mph22.5 kmh 29.76 in1007.8 mb 0.00 in0.0 mm 0.00 in/hr0.0 mm/hr 0.00 in0.0 mm
05:49 AM 56.0°F13.3°C 54.0°F12.2°C 93% 9.0 mph SE14.5 kmh SE 14.0 mph22.5 kmh 29.76 in1007.8 mb 0.00 in0.0 mm 0.00 in/hr0.0 mm/hr 0.00 in0.0 mm
05:50 AM 56.0°F13.3°C 54.0°F12.2°C 93% 7.0 mph SSE11.3 kmh SSE 14.0 mph22.5 kmh 29.76 in1007.8 mb 0.00 in0.0 mm 0.00 in/hr0.0 mm/hr 0.00 in0.0 mm
05:51 AM 56.0°F13.3°C 54.0°F12.2°C 93% 8.0 mph S12.9 kmh S 14.0 mph22.5 kmh 29.76 in1007.8 mb 0.00 in0.0 mm 0.00 in/hr0.0 mm/hr 0.00 in0.0 mm
05:52 AM 55.9°F13.3°C 53.9°F12.2°C 93% 8.0 mph SSE12.9 kmh SSE 14.0 mph22.5 kmh 29.77 in1008.1 mb 0.00 in0.0 mm 0.00 in/hr0.0 mm/hr 0.00 in0.0 mm
05:53 AM 55.9°F13.3°C 53.9°F12.2°C 93% 6.0 mph SSE9.7 kmh SSE 14.0 mph22.5 kmh 29.77 in1008.1 mb 0.00 in0.0 mm 0.00 in/hr0.0 mm/hr 0.00 in0.0 mm
05:54 AM 55.9°F13.3°C 53.9°F12.2°C 93% 8.0 mph SE12.9 kmh SE 14.0 mph22.5 kmh 29.77 in1008.1 mb 0.00 in0.0 mm 0.00 in/hr0.0 mm/hr 0.00 in0.0 mm
05:55 AM 55.9°F13.3°C 53.9°F12.2°C 93% 8.0 mph SSE12.9 kmh SSE 14.0 mph22.5 kmh 29.77 in1008.1 mb 0.00 in0.0 mm 0.00 in/hr0.0 mm/hr 0.00 in0.0 mm
05:56 AM 55.8°F13.2°C 53.8°F12.1°C 93% 7.0 mph SE11.3 kmh SE 14.0 mph22.5 kmh 29.77 in1008.1 mb 0.00 in0.0 mm 0.00 in/hr0.0 mm/hr 0.00 in0.0 mm
05:57 AM 55.8°F13.2°C 53.8°F12.1°C 93% 7.0 mph SSE11.3 kmh SSE 14.0 mph22.5 kmh 29.77 in1008.1 mb 0.00 in0.0 mm 0.00 in/hr0.0 mm/hr 0.00 in0.0 mm
05:58 AM 55.7°F13.2°C 53.7°F12.1°C 93% 6.0 mph SSE9.7 kmh SSE 14.0 mph22.5 kmh 29.77 in1008.1 mb 0.00 in0.0 mm 0.00 in/hr0.0 mm/hr 0.00 in0.0 mm
05:59 AM 55.7°F13.2°C 53.7°F12.1°C 93% 6.0 mph SE9.7 kmh SE 14.0 mph22.5 kmh 29.77 in1008.1 mb 0.00 in0.0 mm 0.00 in/hr0.0 mm/hr 0.00 in0.0 mm
06:00 AM 55.7°F13.2°C 53.7°F12.1°C 93% 7.0 mph S11.3 kmh S 14.0 mph22.5 kmh 29.77 in1008.1 mb 0.00 in0.0 mm 0.00 in/hr0.0 mm/hr 0.00 in0.0 mm
06:01 AM 55.7°F13.2°C 53.4°F11.9°C 92% 6.0 mph SE9.7 kmh SE 14.0 mph22.5 kmh 29.77 in1008.1 mb 0.00 in0.0 mm 0.00 in/hr0.0 mm/hr 0.00 in0.0 mm
06:02 AM 55.7°F13.2°C 53.4°F11.9°C 92% 7.0 mph S11.3 kmh S 12.0 mph19.3 kmh 29.77 in1008.1 mb 0.00 in0.0 mm 0.00 in/hr0.0 mm/hr 0.00 in0.0 mm
06:03 AM 55.6°F13.1°C 53.3°F11.8°C 92% 9.0 mph SE14.5 kmh SE 12.0 mph19.3 kmh 29.77 in1008.1 mb 0.00 in0.0 mm 0.00 in/hr0.0 mm/hr 0.00 in0.0 mm
06:04 AM 55.6°F13.1°C 53.3°F11.8°C 92% 8.0 mph SE12.9 kmh SE 12.0 mph19.3 kmh 29.77 in1008.1 mb 0.00 in0.0 mm 0.00 in/hr0.0 mm/hr 0.00 in0.0 mm
06:05 AM 55.6°F13.1°C 53.3°F11.8°C 92% 6.0 mph SE9.7 kmh SE 12.0 mph19.3 kmh 29.77 in1008.1 mb 0.00 in0.0 mm 0.00 in/hr0.0 mm/hr 0.00 in0.0 mm
06:06 AM 55.6°F13.1°C 53.3°F11.8°C 92% 8.0 mph SE12.9 kmh SE 12.0 mph19.3 kmh 29.77 in1008.1 mb 0.00 in0.0 mm 0.00 in/hr0.0 mm/hr 0.00 in0.0 mm
06:07 AM 55.5°F13.1°C 53.2°F11.8°C 92% 6.0 mph SE9.7 kmh SE 13.0 mph20.9 kmh 29.77 in1008.1 mb 0.00 in0.0 mm 0.00 in/hr0.0 mm/hr 0.00 in0.0 mm
06:08 AM 55.5°F13.1°C 53.2°F11.8°C 92% 9.0 mph SE14.5 kmh SE 13.0 mph20.9 kmh 29.77 in1008.1 mb 0.00 in0.0 mm 0.00 in/hr0.0 mm/hr 0.00 in0.0 mm
06:09 AM 55.5°F13.1°C 53.2°F11.8°C 92% 5.0 mph ESE8.0 kmh ESE 13.0 mph20.9 kmh 29.77 in1008.1 mb 0.00 in0.0 mm 0.00 in/hr0.0 mm/hr 0.00 in0.0 mm
06:10 AM 55.5°F13.1°C 53.2°F11.8°C 92% 7.0 mph SSE11.3 kmh SSE 13.0 mph20.9 kmh 29.77 in1008.1 mb 0.00 in0.0 mm 0.00 in/hr0.0 mm/hr 0.00 in0.0 mm
06:11 AM 55.4°F13.0°C 53.1°F11.7°C 92% 9.0 mph ESE14.5 kmh ESE 13.0 mph20.9 kmh 29.77 in1008.1 mb 0.00 in0.0 mm 0.00 in/hr0.0 mm/hr 0.00 in0.0 mm
06:12 AM 55.4°F13.0°C 53.1°F11.7°C 92% 9.0 mph SE14.5 kmh SE 13.0 mph20.9 kmh 29.77 in1008.1 mb 0.00 in0.0 mm 0.00 in/hr0.0 mm/hr 0.00 in0.0 mm
06:13 AM 55.4°F13.0°C 53.1°F11.7°C 92% 6.0 mph SE9.7 kmh SE 13.0 mph20.9 kmh 29.77 in1008.1 mb 0.00 in0.0 mm 0.00 in/hr0.0 mm/hr 0.00 in0.0 mm
06:14 AM 55.4°F13.0°C 53.1°F11.7°C 92% 7.0 mph SSE11.3 kmh SSE 13.0 mph20.9 kmh 29.77 in1008.1 mb 0.00 in0.0 mm 0.00 in/hr0.0 mm/hr 0.00 in0.0 mm
06:15 AM 55.3°F12.9°C 53.0°F11.7°C 92% 5.0 mph SSE8.0 kmh SSE 13.0 mph20.9 kmh 29.77 in1008.1 mb 0.00 in0.0 mm 0.00 in/hr0.0 mm/hr 0.00 in0.0 mm
06:16 AM 55.3°F12.9°C 53.0°F11.7°C 92% 6.0 mph SE9.7 kmh SE 13.0 mph20.9 kmh 29.77 in1008.1 mb 0.00 in0.0 mm 0.00 in/hr0.0 mm/hr 0.00 in0.0 mm
06:17 AM 55.3°F12.9°C 53.0°F11.7°C 92% 9.0 mph SE14.5 kmh SE 13.0 mph20.9 kmh 29.77 in1008.1 mb 0.00 in0.0 mm 0.00 in/hr0.0 mm/hr 0.00 in0.0 mm
06:18 AM 55.3°F12.9°C 53.0°F11.7°C 92% 11.0 mph SE17.7 kmh SE 13.0 mph20.9 kmh 29.77 in1008.1 mb 0.00 in0.0 mm 0.00 in/hr0.0 mm/hr 0.00 in0.0 mm
06:19 AM 55.2°F12.9°C 52.9°F11.6°C 92% 9.0 mph SE14.5 kmh SE 13.0 mph20.9 kmh 29.77 in1008.1 mb 0.00 in0.0 mm 0.00 in/hr0.0 mm/hr 0.00 in0.0 mm
06:20 AM 55.2°F12.9°C 52.9°F11.6°C 92% 11.0 mph SSE17.7 kmh SSE 13.0 mph20.9 kmh 29.77 in1008.1 mb 0.00 in0.0 mm 0.00 in/hr0.0 mm/hr 0.00 in0.0 mm
06:21 AM 55.2°F12.9°C 52.9°F11.6°C 92% 7.0 mph SSE11.3 kmh SSE 13.0 mph20.9 kmh 29.77 in1008.1 mb 0.00 in0.0 mm 0.00 in/hr0.0 mm/hr 0.00 in0.0 mm
06:22 AM 55.1°F12.8°C 52.8°F11.6°C 92% 8.0 mph SE12.9 kmh SE 13.0 mph20.9 kmh 29.77 in1008.1 mb 0.00 in0.0 mm 0.00 in/hr0.0 mm/hr 0.00 in0.0 mm
06:23 AM 55.1°F12.8°C 52.8°F11.6°C 92% 5.0 mph S8.0 kmh S 13.0 mph20.9 kmh 29.77 in1008.1 mb 0.00 in0.0 mm 0.00 in/hr0.0 mm/hr 0.00 in0.0 mm
06:24 AM 55.1°F12.8°C 52.8°F11.6°C 92% 9.0 mph SSE14.5 kmh SSE 13.0 mph20.9 kmh 29.77 in1008.1 mb 0.00 in0.0 mm 0.00 in/hr0.0 mm/hr 0.00 in0.0 mm
06:25 AM 55.0°F12.8°C 52.7°F11.5°C 92% 5.0 mph SE8.0 kmh SE 13.0 mph20.9 kmh 29.77 in1008.1 mb 0.00 in0.0 mm 0.00 in/hr0.0 mm/hr 0.00 in0.0 mm
06:26 AM 55.0°F12.8°C 52.7°F11.5°C 92% 10.0 mph SE16.1 kmh SE 13.0 mph20.9 kmh 29.77 in1008.1 mb 0.00 in0.0 mm 0.00 in/hr0.0 mm/hr 0.00 in0.0 mm
06:27 AM 55.0°F12.8°C 52.7°F11.5°C 92% 5.0 mph SSE8.0 kmh SSE 13.0 mph20.9 kmh 29.77 in1008.1 mb 0.00 in0.0 mm 0.00 in/hr0.0 mm/hr 0.00 in0.0 mm
06:28 AM 55.0°F12.8°C 52.7°F11.5°C 92% 6.0 mph SSE9.7 kmh SSE 13.0 mph20.9 kmh 29.77 in1008.1 mb 0.00 in0.0 mm 0.00 in/hr0.0 mm/hr 0.00 in0.0 mm
06:29 AM 55.0°F12.8°C 52.7°F11.5°C 92% 7.0 mph SE11.3 kmh SE 13.0 mph20.9 kmh 29.77 in1008.1 mb 0.00 in0.0 mm 0.00 in/hr0.0 mm/hr 0.00 in0.0 mm
06:30 AM 55.0°F12.8°C 52.7°F11.5°C 92% 8.0 mph SE12.9 kmh SE 13.0 mph20.9 kmh 29.77 in1008.1 mb 0.00 in0.0 mm 0.00 in/hr0.0 mm/hr 0.00 in0.0 mm
06:31 AM 54.9°F12.7°C 52.6°F11.4°C 92% 5.0 mph SE8.0 kmh SE 13.0 mph20.9 kmh 29.77 in1008.1 mb 0.00 in0.0 mm 0.00 in/hr0.0 mm/hr 0.00 in0.0 mm
06:32 AM 55.0°F12.8°C 52.7°F11.5°C 92% 9.0 mph S14.5 kmh S 9.0 mph14.5 kmh 29.77 in1008.1 mb 0.00 in0.0 mm 0.00 in/hr0.0 mm/hr 0.00 in0.0 mm
06:33 AM 54.9°F12.7°C 52.6°F11.4°C 92% 8.0 mph SE12.9 kmh SE 10.0 mph16.1 kmh 29.77 in1008.1 mb 0.00 in0.0 mm 0.00 in/hr0.0 mm/hr 0.00 in0.0 mm
06:34 AM 54.9°F12.7°C 52.6°F11.4°C 92% 6.0 mph SSE9.7 kmh SSE 10.0 mph16.1 kmh 29.77 in1008.1 mb 0.00 in0.0 mm 0.00 in/hr0.0 mm/hr 0.00 in0.0 mm
06:35 AM 54.9°F12.7°C 52.6°F11.4°C 92% 6.0 mph SSE9.7 kmh SSE 11.0 mph17.7 kmh 29.77 in1008.1 mb 0.00 in0.0 mm 0.00 in/hr0.0 mm/hr 0.00 in0.0 mm
06:36 AM 54.9°F12.7°C 52.6°F11.4°C 92% 6.0 mph SSE9.7 kmh SSE 12.0 mph19.3 kmh 29.77 in1008.1 mb 0.00 in0.0 mm 0.00 in/hr0.0 mm/hr 0.00 in0.0 mm
06:37 AM 54.9°F12.7°C 52.6°F11.4°C 92% 12.0 mph SE19.3 kmh SE 12.0 mph19.3 kmh 29.77 in1008.1 mb 0.00 in0.0 mm 0.00 in/hr0.0 mm/hr 0.00 in0.0 mm
06:38 AM 54.9°F12.7°C 52.6°F11.4°C 92% 5.0 mph SE8.0 kmh SE 12.0 mph19.3 kmh 29.77 in1008.1 mb 0.00 in0.0 mm 0.00 in/hr0.0 mm/hr 0.00 in0.0 mm
06:39 AM 54.9°F12.7°C 52.6°F11.4°C 92% 6.0 mph SSE9.7 kmh SSE 12.0 mph19.3 kmh 29.77 in1008.1 mb 0.00 in0.0 mm 0.00 in/hr0.0 mm/hr 0.00 in0.0 mm
06:40 AM 54.9°F12.7°C 52.6°F11.4°C 92% 9.0 mph SSE14.5 kmh SSE 14.0 mph22.5 kmh 29.77 in1008.1 mb 0.00 in0.0 mm 0.00 in/hr0.0 mm/hr 0.00 in0.0 mm
06:41 AM 54.9°F12.7°C 52.6°F11.4°C 92% 6.0 mph SE9.7 kmh SE 14.0 mph22.5 kmh 29.77 in1008.1 mb 0.00 in0.0 mm 0.00 in/hr0.0 mm/hr 0.00 in0.0 mm
06:42 AM 54.9°F12.7°C 52.9°F11.6°C 93% 6.0 mph SE9.7 kmh SE 14.0 mph22.5 kmh 29.77 in1008.1 mb 0.00 in0.0 mm 0.00 in/hr0.0 mm/hr 0.00 in0.0 mm
06:43 AM 54.9°F12.7°C 52.9°F11.6°C 93% 10.0 mph SE16.1 kmh SE 14.0 mph22.5 kmh 29.77 in1008.1 mb 0.00 in0.0 mm 0.00 in/hr0.0 mm/hr 0.00 in0.0 mm
06:44 AM 54.8°F12.7°C 52.8°F11.6°C 93% 6.0 mph SE9.7 kmh SE 14.0 mph22.5 kmh 29.77 in1008.1 mb 0.00 in0.0 mm 0.00 in/hr0.0 mm/hr 0.00 in0.0 mm
06:45 AM 54.9°F12.7°C 52.9°F11.6°C 93% 7.0 mph SSE11.3 kmh SSE 14.0 mph22.5 kmh 29.77 in1008.1 mb 0.00 in0.0 mm 0.00 in/hr0.0 mm/hr 0.00 in0.0 mm
06:46 AM 54.9°F12.7°C 52.9°F11.6°C 93% 7.0 mph SSE11.3 kmh SSE 14.0 mph22.5 kmh 29.77 in1008.1 mb 0.00 in0.0 mm 0.00 in/hr0.0 mm/hr 0.00 in0.0 mm
06:47 AM 54.8°F12.7°C 52.8°F11.6°C 93% 10.0 mph ESE16.1 kmh ESE 14.0 mph22.5 kmh 29.77 in1008.1 mb 0.00 in0.0 mm 0.00 in/hr0.0 mm/hr 0.00 in0.0 mm
06:48 AM 54.8°F12.7°C 52.8°F11.6°C 93% 8.0 mph SE12.9 kmh SE 14.0 mph22.5 kmh 29.77 in1008.1 mb 0.00 in0.0 mm 0.00 in/hr0.0 mm/hr 0.00 in0.0 mm
06:49 AM 54.8°F12.7°C 52.8°F11.6°C 93% 7.0 mph SE11.3 kmh SE 14.0 mph22.5 kmh 29.77 in1008.1 mb 0.00 in0.0 mm 0.00 in/hr0.0 mm/hr 0.00 in0.0 mm
06:50 AM 54.8°F12.7°C 52.8°F11.6°C 93% 5.0 mph SSE8.0 kmh SSE 14.0 mph22.5 kmh 29.77 in1008.1 mb 0.00 in0.0 mm 0.00 in/hr0.0 mm/hr 0.00 in0.0 mm
06:51 AM 54.8°F12.7°C 52.8°F11.6°C 93% 6.0 mph SE9.7 kmh SE 14.0 mph22.5 kmh 29.77 in1008.1 mb 0.00 in0.0 mm 0.00 in/hr0.0 mm/hr 0.00 in0.0 mm
06:52 AM 54.8°F12.7°C 52.8°F11.6°C 93% 6.0 mph SE9.7 kmh SE 14.0 mph22.5 kmh 29.77 in1008.1 mb 0.00 in0.0 mm 0.00 in/hr0.0 mm/hr 0.00 in0.0 mm
06:53 AM 54.8°F12.7°C 52.8°F11.6°C 93% 8.0 mph SE12.9 kmh SE 14.0 mph22.5 kmh 29.77 in1008.1 mb 0.00 in0.0 mm 0.00 in/hr0.0 mm/hr 0.00 in0.0 mm
06:54 AM 54.8°F12.7°C 52.8°F11.6°C 93% 8.0 mph SE12.9 kmh SE 14.0 mph22.5 kmh 29.77 in1008.1 mb 0.00 in0.0 mm 0.00 in/hr0.0 mm/hr 0.00 in0.0 mm
06:55 AM 54.8°F12.7°C 52.8°F11.6°C 93% 8.0 mph SE12.9 kmh SE 14.0 mph22.5 kmh 29.77 in1008.1 mb 0.00 in0.0 mm 0.00 in/hr0.0 mm/hr 0.00 in0.0 mm
06:56 AM 54.8°F12.7°C 52.8°F11.6°C 93% 11.0 mph SE17.7 kmh SE 14.0 mph22.5 kmh 29.77 in1008.1 mb 0.00 in0.0 mm 0.00 in/hr0.0 mm/hr 0.00 in0.0 mm
06:57 AM 54.7°F12.6°C 52.7°F11.5°C 93% 8.0 mph SE12.9 kmh SE 14.0 mph22.5 kmh 29.77 in1008.1 mb 0.00 in0.0 mm 0.00 in/hr0.0 mm/hr 0.00 in0.0 mm
06:58 AM 54.7°F12.6°C 52.7°F11.5°C 93% 9.0 mph SE14.5 kmh SE 14.0 mph22.5 kmh 29.77 in1008.1 mb 0.00 in0.0 mm 0.00 in/hr0.0 mm/hr 0.00 in0.0 mm
06:59 AM 54.6°F12.6°C 52.6°F11.4°C 93% 8.0 mph SSE12.9 kmh SSE 14.0 mph22.5 kmh 29.77 in1008.1 mb 0.00 in0.0 mm 0.00 in/hr0.0 mm/hr 0.00 in0.0 mm
07:00 AM 54.6°F12.6°C 52.6°F11.4°C 93% 10.0 mph SE16.1 kmh SE 14.0 mph22.5 kmh 29.77 in1008.1 mb 0.00 in0.0 mm 0.00 in/hr0.0 mm/hr 0.00 in0.0 mm
07:01 AM 54.6°F12.6°C 52.6°F11.4°C 93% 7.0 mph SE11.3 kmh SE 14.0 mph22.5 kmh 29.77 in1008.1 mb 0.00 in0.0 mm 0.00 in/hr0.0 mm/hr 0.00 in0.0 mm
07:02 AM 54.6°F12.6°C 52.6°F11.4°C 93% 8.0 mph SE12.9 kmh SE 10.0 mph16.1 kmh 29.77 in1008.1 mb 0.00 in0.0 mm 0.00 in/hr0.0 mm/hr 0.00 in0.0 mm
07:03 AM 54.6°F12.6°C 52.6°F11.4°C 93% 6.0 mph SSE9.7 kmh SSE 10.0 mph16.1 kmh 29.77 in1008.1 mb 0.00 in0.0 mm 0.00 in/hr0.0 mm/hr 0.00 in0.0 mm
07:04 AM 54.6°F12.6°C 52.6°F11.4°C 93% 8.0 mph SE12.9 kmh SE 10.0 mph16.1 kmh 29.77 in1008.1 mb 0.00 in0.0 mm 0.00 in/hr0.0 mm/hr 0.00 in0.0 mm
07:05 AM 54.6°F12.6°C 52.6°F11.4°C 93% 7.0 mph SE11.3 kmh SE 10.0 mph16.1 kmh 29.77 in1008.1 mb 0.00 in0.0 mm 0.00 in/hr0.0 mm/hr 0.00 in0.0 mm
07:06 AM 54.5°F12.5°C 52.5°F11.4°C 93% 6.0 mph SE9.7 kmh SE 10.0 mph16.1 kmh 29.77 in1008.1 mb 0.00 in0.0 mm 0.00 in/hr0.0 mm/hr 0.00 in0.0 mm
07:07 AM 54.5°F12.5°C 52.5°F11.4°C 93% 7.0 mph SE11.3 kmh SE 13.0 mph20.9 kmh 29.77 in1008.1 mb 0.00 in0.0 mm 0.00 in/hr0.0 mm/hr 0.00 in0.0 mm
07:08 AM 54.5°F12.5°C 52.5°F11.4°C 93% 7.0 mph SSE11.3 kmh SSE 13.0 mph20.9 kmh 29.77 in1008.1 mb 0.00 in0.0 mm 0.00 in/hr0.0 mm/hr 0.00 in0.0 mm
07:09 AM 54.5°F12.5°C 52.5°F11.4°C 93% 6.0 mph SE9.7 kmh SE 13.0 mph20.9 kmh 29.77 in1008.1 mb 0.00 in0.0 mm 0.00 in/hr0.0 mm/hr 0.00 in0.0 mm
07:10 AM 54.5°F12.5°C 52.8°F11.6°C 94% 7.0 mph ESE11.3 kmh ESE 13.0 mph20.9 kmh 29.77 in1008.1 mb 0.00 in0.0 mm 0.00 in/hr0.0 mm/hr 0.00 in0.0 mm
07:11 AM 54.5°F12.5°C 52.8°F11.6°C 94% 5.0 mph SE8.0 kmh SE 13.0 mph20.9 kmh 29.77 in1008.1 mb 0.00 in0.0 mm 0.00 in/hr0.0 mm/hr 0.00 in0.0 mm
07:12 AM 54.4°F12.4°C 52.7°F11.5°C 94% 6.0 mph SE9.7 kmh SE 13.0 mph20.9 kmh 29.78 in1008.5 mb 0.00 in0.0 mm 0.00 in/hr0.0 mm/hr 0.00 in0.0 mm
07:13 AM 54.4°F12.4°C 52.7°F11.5°C 94% 7.0 mph SSE11.3 kmh SSE 13.0 mph20.9 kmh 29.78 in1008.5 mb 0.00 in0.0 mm 0.00 in/hr0.0 mm/hr 0.00 in0.0 mm
07:14 AM 54.4°F12.4°C 52.7°F11.5°C 94% 4.0 mph SE6.4 kmh SE 13.0 mph20.9 kmh 29.78 in1008.5 mb 0.00 in0.0 mm 0.00 in/hr0.0 mm/hr 0.00 in0.0 mm
07:15 AM 54.4°F12.4°C 52.7°F11.5°C 94% 3.0 mph S4.8 kmh S 13.0 mph20.9 kmh 29.78 in1008.5 mb 0.00 in0.0 mm 0.00 in/hr0.0 mm/hr 0.00 in0.0 mm
07:16 AM 54.4°F12.4°C 52.7°F11.5°C 94% 5.0 mph S8.0 kmh S 13.0 mph20.9 kmh 29.78 in1008.5 mb 0.00 in0.0 mm 0.00 in/hr0.0 mm/hr 0.00 in0.0 mm
07:17 AM 54.4°F12.4°C 52.7°F11.5°C 94% 5.0 mph SSE8.0 kmh SSE 13.0 mph20.9 kmh 29.78 in1008.5 mb 0.00 in0.0 mm 0.00 in/hr0.0 mm/hr 0.00 in0.0 mm
07:18 AM 54.3°F12.4°C 52.6°F11.4°C 94% 8.0 mph SE12.9 kmh SE 13.0 mph20.9 kmh 29.78 in1008.5 mb 0.00 in0.0 mm 0.00 in/hr0.0 mm/hr 0.00 in0.0 mm
07:19 AM 54.3°F12.4°C 52.6°F11.4°C 94% 4.0 mph SSE6.4 kmh SSE 13.0 mph20.9 kmh 29.78 in1008.5 mb 0.00 in0.0 mm 0.00 in/hr0.0 mm/hr 0.00 in0.0 mm
07:20 AM 54.3°F12.4°C 52.6°F11.4°C 94% 6.0 mph S9.7 kmh S 13.0 mph20.9 kmh 29.78 in1008.5 mb 0.00 in0.0 mm 0.00 in/hr0.0 mm/hr 0.00 in0.0 mm
07:21 AM 54.3°F12.4°C 52.6°F11.4°C 94% 7.0 mph S11.3 kmh S 13.0 mph20.9 kmh 29.78 in1008.5 mb 0.00 in0.0 mm 0.00 in/hr0.0 mm/hr 0.00 in0.0 mm
07:22 AM 54.2°F12.3°C 52.5°F11.4°C 94% 6.0 mph SSE9.7 kmh SSE 13.0 mph20.9 kmh 29.78 in1008.5 mb 0.00 in0.0 mm 0.00 in/hr0.0 mm/hr 0.00 in0.0 mm
07:23 AM 54.2°F12.3°C 52.5°F11.4°C 94% 10.0 mph SSE16.1 kmh SSE 13.0 mph20.9 kmh 29.78 in1008.5 mb 0.00 in0.0 mm 0.00 in/hr0.0 mm/hr 0.00 in0.0 mm
07:24 AM 54.2°F12.3°C 52.5°F11.4°C 94% 9.0 mph S14.5 kmh S 13.0 mph20.9 kmh 29.78 in1008.5 mb 0.00 in0.0 mm 0.00 in/hr0.0 mm/hr 0.00 in0.0 mm
07:25 AM 54.2°F12.3°C 52.5°F11.4°C 94% 4.0 mph SSE6.4 kmh SSE 13.0 mph20.9 kmh 29.78 in1008.5 mb 0.00 in0.0 mm 0.00 in/hr0.0 mm/hr 0.00 in0.0 mm
07:26 AM 54.2°F12.3°C 52.5°F11.4°C 94% 6.0 mph S9.7 kmh S 13.0 mph20.9 kmh 29.78 in1008.5 mb 0.00 in0.0 mm 0.00 in/hr0.0 mm/hr 0.00 in0.0 mm
07:27 AM 54.2°F12.3°C 52.5°F11.4°C 94% 5.0 mph S8.0 kmh S 13.0 mph20.9 kmh 29.78 in1008.5 mb 0.00 in0.0 mm 0.00 in/hr0.0 mm/hr 0.00 in0.0 mm
07:28 AM 54.1°F12.3°C 52.4°F11.3°C 94% 3.0 mph S4.8 kmh S 13.0 mph20.9 kmh 29.78 in1008.5 mb 0.00 in0.0 mm 0.00 in/hr0.0 mm/hr 0.00 in0.0 mm
07:29 AM 54.1°F12.3°C 52.4°F11.3°C 94% 4.0 mph S6.4 kmh S 13.0 mph20.9 kmh 29.78 in1008.5 mb 0.00 in0.0 mm 0.00 in/hr0.0 mm/hr 0.00 in0.0 mm
07:30 AM 54.1°F12.3°C 52.4°F11.3°C 94% 5.0 mph ESE8.0 kmh ESE 13.0 mph20.9 kmh 29.78 in1008.5 mb 0.00 in0.0 mm 0.00 in/hr0.0 mm/hr 0.00 in0.0 mm
07:31 AM 54.1°F12.3°C 52.4°F11.3°C 94% 5.0 mph SE8.0 kmh SE 13.0 mph20.9 kmh 29.78 in1008.5 mb 0.00 in0.0 mm 0.00 in/hr0.0 mm/hr 0.00 in0.0 mm
07:32 AM 54.1°F12.3°C 52.4°F11.3°C 94% 6.0 mph SSE9.7 kmh SSE 6.0 mph9.7 kmh 29.78 in1008.5 mb 0.00 in0.0 mm 0.00 in/hr0.0 mm/hr 0.00 in0.0 mm
07:33 AM 54.0°F12.2°C 52.6°F11.4°C 95% 3.0 mph S4.8 kmh S 6.0 mph9.7 kmh 29.78 in1008.5 mb 0.00 in0.0 mm 0.00 in/hr0.0 mm/hr 0.00 in0.0 mm
07:34 AM 54.1°F12.3°C 52.7°F11.5°C 95% 3.0 mph SE4.8 kmh SE 6.0 mph9.7 kmh 29.78 in1008.5 mb 0.00 in0.0 mm 0.00 in/hr0.0 mm/hr 0.00 in0.0 mm
07:35 AM 54.1°F12.3°C 52.7°F11.5°C 95% 5.0 mph SSE8.0 kmh SSE 7.0 mph11.3 kmh 29.78 in1008.5 mb 0.00 in0.0 mm 0.00 in/hr0.0 mm/hr 0.00 in0.0 mm
07:36 AM 54.0°F12.2°C 52.6°F11.4°C 95% 5.0 mph SSE8.0 kmh SSE 8.0 mph12.9 kmh 29.78 in1008.5 mb 0.00 in0.0 mm 0.00 in/hr0.0 mm/hr 0.00 in0.0 mm
07:37 AM 54.0°F12.2°C 52.6°F11.4°C 95% 5.0 mph S8.0 kmh S 8.0 mph12.9 kmh 29.78 in1008.5 mb 0.00 in0.0 mm 0.00 in/hr0.0 mm/hr 0.00 in0.0 mm
07:38 AM 54.0°F12.2°C 52.6°F11.4°C 95% 6.0 mph SSE9.7 kmh SSE 8.0 mph12.9 kmh 29.78 in1008.5 mb 0.00 in0.0 mm 0.00 in/hr0.0 mm/hr 0.00 in0.0 mm
07:39 AM 54.0°F12.2°C 52.6°F11.4°C 95% 6.0 mph SE9.7 kmh SE 8.0 mph12.9 kmh 29.78 in1008.5 mb 0.00 in0.0 mm 0.00 in/hr0.0 mm/hr 0.00 in0.0 mm
07:40 AM 54.0°F12.2°C 52.6°F11.4°C 95% 6.0 mph SE9.7 kmh SE 9.0 mph14.5 kmh 29.78 in1008.5 mb 0.00 in0.0 mm 0.00 in/hr0.0 mm/hr 0.00 in0.0 mm
07:41 AM 54.0°F12.2°C 52.6°F11.4°C 95% 7.0 mph SE11.3 kmh SE 9.0 mph14.5 kmh 29.78 in1008.5 mb 0.00 in0.0 mm 0.00 in/hr0.0 mm/hr 0.00 in0.0 mm
07:42 AM 53.9°F12.2°C 52.5°F11.4°C 95% 7.0 mph SSE11.3 kmh SSE 9.0 mph14.5 kmh 29.78 in1008.5 mb 0.00 in0.0 mm 0.00 in/hr0.0 mm/hr 0.00 in0.0 mm
07:43 AM 54.0°F12.2°C 52.6°F11.4°C 95% 7.0 mph SSE11.3 kmh SSE 9.0 mph14.5 kmh 29.78 in1008.5 mb 0.00 in0.0 mm 0.00 in/hr0.0 mm/hr 0.00 in0.0 mm
07:44 AM 53.9°F12.2°C 52.5°F11.4°C 95% 6.0 mph S9.7 kmh S 9.0 mph14.5 kmh 29.78 in1008.5 mb 0.00 in0.0 mm 0.00 in/hr0.0 mm/hr 0.00 in0.0 mm
07:45 AM 53.9°F12.2°C 52.5°F11.4°C 95% 7.0 mph SE11.3 kmh SE 9.0 mph14.5 kmh 29.78 in1008.5 mb 0.00 in0.0 mm 0.00 in/hr0.0 mm/hr 0.00 in0.0 mm
07:46 AM 53.9°F12.2°C 52.5°F11.4°C 95% 5.0 mph SE8.0 kmh SE 9.0 mph14.5 kmh 29.78 in1008.5 mb 0.01 in0.3 mm 0.60 in/hr15.2 mm/hr 0.01 in0.3 mm
07:47 AM 53.9°F12.2°C 52.5°F11.4°C 95% 6.0 mph SE9.7 kmh SE 9.0 mph14.5 kmh 29.78 in1008.5 mb 0.01 in0.3 mm 0.00 in/hr0.0 mm/hr 0.01 in0.3 mm
07:48 AM 53.9°F12.2°C 52.5°F11.4°C 95% 5.0 mph SSE8.0 kmh SSE 9.0 mph14.5 kmh 29.78 in1008.5 mb 0.01 in0.3 mm 0.00 in/hr0.0 mm/hr 0.01 in0.3 mm
07:49 AM 53.9°F12.2°C 52.5°F11.4°C 95% 5.0 mph SSE8.0 kmh SSE 9.0 mph14.5 kmh 29.78 in1008.5 mb 0.01 in0.3 mm 0.00 in/hr0.0 mm/hr 0.01 in0.3 mm
07:50 AM 53.9°F12.2°C 52.5°F11.4°C 95% 8.0 mph SSE12.9 kmh SSE 9.0 mph14.5 kmh 29.78 in1008.5 mb 0.01 in0.3 mm 0.00 in/hr0.0 mm/hr 0.01 in0.3 mm
07:51 AM 53.9°F12.2°C 52.5°F11.4°C 95% 10.0 mph ESE16.1 kmh ESE 10.0 mph16.1 kmh 29.78 in1008.5 mb 0.01 in0.3 mm 0.00 in/hr0.0 mm/hr 0.01 in0.3 mm
07:52 AM 53.9°F12.2°C 52.5°F11.4°C 95% 5.0 mph SE8.0 kmh SE 10.0 mph16.1 kmh 29.78 in1008.5 mb 0.01 in0.3 mm 0.00 in/hr0.0 mm/hr 0.01 in0.3 mm
07:53 AM 53.9°F12.2°C 52.5°F11.4°C 95% 5.0 mph SE8.0 kmh SE 10.0 mph16.1 kmh 29.78 in1008.5 mb 0.01 in0.3 mm 0.00 in/hr0.0 mm/hr 0.01 in0.3 mm
07:54 AM 53.8°F12.1°C 52.4°F11.3°C 95% 4.0 mph SE6.4 kmh SE 10.0 mph16.1 kmh 29.78 in1008.5 mb 0.01 in0.3 mm 0.00 in/hr0.0 mm/hr 0.01 in0.3 mm
07:55 AM 53.8°F12.1°C 52.4°F11.3°C 95% 5.0 mph SE8.0 kmh SE 10.0 mph16.1 kmh 29.78 in1008.5 mb 0.01 in0.3 mm 0.00 in/hr0.0 mm/hr 0.01 in0.3 mm
07:56 AM 53.8°F12.1°C 52.4°F11.3°C 95% 8.0 mph ESE12.9 kmh ESE 10.0 mph16.1 kmh 29.78 in1008.5 mb 0.01 in0.3 mm 0.00 in/hr0.0 mm/hr 0.01 in0.3 mm
07:57 AM 53.8°F12.1°C 52.4°F11.3°C 95% 7.0 mph SE11.3 kmh SE 10.0 mph16.1 kmh 29.78 in1008.5 mb 0.01 in0.3 mm 0.00 in/hr0.0 mm/hr 0.01 in0.3 mm
07:58 AM 53.8°F12.1°C 52.4°F11.3°C 95% 7.0 mph SE11.3 kmh SE 10.0 mph16.1 kmh 29.78 in1008.5 mb 0.01 in0.3 mm 0.00 in/hr0.0 mm/hr 0.01 in0.3 mm
07:59 AM 53.8°F12.1°C 52.4°F11.3°C 95% 9.0 mph ESE14.5 kmh ESE 10.0 mph16.1 kmh 29.77 in1008.1 mb 0.01 in0.3 mm 0.00 in/hr0.0 mm/hr 0.01 in0.3 mm
08:00 AM 53.7°F12.1°C 52.3°F11.3°C 95% 6.0 mph SE9.7 kmh SE 10.0 mph16.1 kmh 29.77 in1008.1 mb 0.01 in0.3 mm 0.00 in/hr0.0 mm/hr 0.01 in0.3 mm
08:01 AM 53.7°F12.1°C 52.3°F11.3°C 95% 4.0 mph SSE6.4 kmh SSE 10.0 mph16.1 kmh 29.77 in1008.1 mb 0.01 in0.3 mm 0.00 in/hr0.0 mm/hr 0.01 in0.3 mm
08:02 AM 53.7°F12.1°C 52.3°F11.3°C 95% 5.0 mph SE8.0 kmh SE 8.0 mph12.9 kmh 29.77 in1008.1 mb 0.01 in0.3 mm 0.00 in/hr0.0 mm/hr 0.01 in0.3 mm
08:03 AM 53.7°F12.1°C 52.3°F11.3°C 95% 6.0 mph SE9.7 kmh SE 8.0 mph12.9 kmh 29.77 in1008.1 mb 0.01 in0.3 mm 0.00 in/hr0.0 mm/hr 0.01 in0.3 mm
08:04 AM 53.7°F12.1°C 52.3°F11.3°C 95% 4.0 mph SE6.4 kmh SE 8.0 mph12.9 kmh 29.77 in1008.1 mb 0.01 in0.3 mm 0.00 in/hr0.0 mm/hr 0.01 in0.3 mm
08:05 AM 53.7°F12.1°C 52.3°F11.3°C 95% 6.0 mph SE9.7 kmh SE 8.0 mph12.9 kmh 29.77 in1008.1 mb 0.01 in0.3 mm 0.00 in/hr0.0 mm/hr 0.01 in0.3 mm
08:06 AM 53.7°F12.1°C 52.3°F11.3°C 95% 8.0 mph SE12.9 kmh SE 9.0 mph14.5 kmh 29.77 in1008.1 mb 0.01 in0.3 mm 0.00 in/hr0.0 mm/hr 0.01 in0.3 mm
08:07 AM 53.7°F12.1°C 52.6°F11.4°C 96% 8.0 mph SE12.9 kmh SE 9.0 mph14.5 kmh 29.77 in1008.1 mb 0.01 in0.3 mm 0.00 in/hr0.0 mm/hr 0.01 in0.3 mm
08:08 AM 53.7°F12.1°C 52.6°F11.4°C 96% 6.0 mph SE9.7 kmh SE 9.0 mph14.5 kmh 29.77 in1008.1 mb 0.01 in0.3 mm 0.00 in/hr0.0 mm/hr 0.01 in0.3 mm
08:09 AM 53.7°F12.1°C 52.6°F11.4°C 96% 7.0 mph SE11.3 kmh SE 10.0 mph16.1 kmh 29.77 in1008.1 mb 0.01 in0.3 mm 0.00 in/hr0.0 mm/hr 0.01 in0.3 mm
08:10 AM 53.6°F12.0°C 52.5°F11.4°C 96% 7.0 mph SE11.3 kmh SE 10.0 mph16.1 kmh 29.77 in1008.1 mb 0.01 in0.3 mm 0.00 in/hr0.0 mm/hr 0.01 in0.3 mm
08:11 AM 53.6°F12.0°C 52.5°F11.4°C 96% 4.0 mph SE6.4 kmh SE 10.0 mph16.1 kmh 29.77 in1008.1 mb 0.01 in0.3 mm 0.00 in/hr0.0 mm/hr 0.01 in0.3 mm
08:12 AM 53.6°F12.0°C 52.5°F11.4°C 96% 6.0 mph SE9.7 kmh SE 10.0 mph16.1 kmh 29.77 in1008.1 mb 0.01 in0.3 mm 0.00 in/hr0.0 mm/hr 0.01 in0.3 mm
08:13 AM 53.6°F12.0°C 52.5°F11.4°C 96% 6.0 mph SSE9.7 kmh SSE 10.0 mph16.1 kmh 29.78 in1008.5 mb 0.01 in0.3 mm 0.00 in/hr0.0 mm/hr 0.01 in0.3 mm
08:14 AM 53.6°F12.0°C 52.5°F11.4°C 96% 6.0 mph SE9.7 kmh SE 10.0 mph16.1 kmh 29.78 in1008.5 mb 0.01 in0.3 mm 0.00 in/hr0.0 mm/hr 0.01 in0.3 mm
08:15 AM 53.6°F12.0°C 52.5°F11.4°C 96% 3.0 mph SSE4.8 kmh SSE 10.0 mph16.1 kmh 29.78 in1008.5 mb 0.01 in0.3 mm 0.00 in/hr0.0 mm/hr 0.01 in0.3 mm
08:16 AM 53.5°F11.9°C 52.4°F11.3°C 96% 7.0 mph SSE11.3 kmh SSE 10.0 mph16.1 kmh 29.78 in1008.5 mb 0.01 in0.3 mm 0.00 in/hr0.0 mm/hr 0.01 in0.3 mm
08:17 AM 53.5°F11.9°C 52.4°F11.3°C 96% 4.0 mph S6.4 kmh S 10.0 mph16.1 kmh 29.78 in1008.5 mb 0.01 in0.3 mm 0.00 in/hr0.0 mm/hr 0.01 in0.3 mm
08:18 AM 53.5°F11.9°C 52.4°F11.3°C 96% 6.0 mph SSE9.7 kmh SSE 10.0 mph16.1 kmh 29.79 in1008.8 mb 0.01 in0.3 mm 0.00 in/hr0.0 mm/hr 0.01 in0.3 mm
08:19 AM 53.5°F11.9°C 52.4°F11.3°C 96% 4.0 mph S6.4 kmh S 10.0 mph16.1 kmh 29.79 in1008.8 mb 0.01 in0.3 mm 0.00 in/hr0.0 mm/hr 0.01 in0.3 mm
08:20 AM 53.5°F11.9°C 52.4°F11.3°C 96% 3.0 mph SSE4.8 kmh SSE 10.0 mph16.1 kmh 29.79 in1008.8 mb 0.01 in0.3 mm 0.00 in/hr0.0 mm/hr 0.01 in0.3 mm
08:21 AM 53.5°F11.9°C 52.4°F11.3°C 96% 6.0 mph SSE9.7 kmh SSE 10.0 mph16.1 kmh 29.79 in1008.8 mb 0.01 in0.3 mm 0.00 in/hr0.0 mm/hr 0.01 in0.3 mm
08:22 AM 53.5°F11.9°C 52.4°F11.3°C 96% 5.0 mph S8.0 kmh S 10.0 mph16.1 kmh 29.79 in1008.8 mb 0.01 in0.3 mm 0.00 in/hr0.0 mm/hr 0.01 in0.3 mm
08:23 AM 53.5°F11.9°C 52.4°F11.3°C 96% 5.0 mph S8.0 kmh S 10.0 mph16.1 kmh 29.79 in1008.8 mb 0.01 in0.3 mm 0.00 in/hr0.0 mm/hr 0.01 in0.3 mm
08:24 AM 53.5°F11.9°C 52.4°F11.3°C 96% 6.0 mph S9.7 kmh S 10.0 mph16.1 kmh 29.79 in1008.8 mb 0.01 in0.3 mm 0.00 in/hr0.0 mm/hr 0.01 in0.3 mm
08:25 AM 53.5°F11.9°C 52.4°F11.3°C 96% 5.0 mph S8.0 kmh S 10.0 mph16.1 kmh 29.79 in1008.8 mb 0.01 in0.3 mm 0.00 in/hr0.0 mm/hr 0.01 in0.3 mm
08:26 AM 53.5°F11.9°C 52.4°F11.3°C 96% 7.0 mph SSE11.3 kmh SSE 10.0 mph16.1 kmh 29.79 in1008.8 mb 0.01 in0.3 mm 0.00 in/hr0.0 mm/hr 0.01 in0.3 mm
08:27 AM 53.5°F11.9°C 52.4°F11.3°C 96% 6.0 mph SSE9.7 kmh SSE 10.0 mph16.1 kmh 29.79 in1008.8 mb 0.01 in0.3 mm 0.00 in/hr0.0 mm/hr 0.01 in0.3 mm
08:28 AM 53.5°F11.9°C 52.4°F11.3°C 96% 5.0 mph S8.0 kmh S 10.0 mph16.1 kmh 29.79 in1008.8 mb 0.01 in0.3 mm 0.00 in/hr0.0 mm/hr 0.01 in0.3 mm
08:29 AM 53.5°F11.9°C 52.4°F11.3°C 96% 3.0 mph SSE4.8 kmh SSE 10.0 mph16.1 kmh 29.79 in1008.8 mb 0.01 in0.3 mm 0.00 in/hr0.0 mm/hr 0.01 in0.3 mm
08:30 AM 53.5°F11.9°C 52.4°F11.3°C 96% 3.0 mph S4.8 kmh S 10.0 mph16.1 kmh 29.79 in1008.8 mb 0.01 in0.3 mm 0.00 in/hr0.0 mm/hr 0.01 in0.3 mm
08:31 AM 53.5°F11.9°C 52.4°F11.3°C 96% 4.0 mph SE6.4 kmh SE 10.0 mph16.1 kmh 29.79 in1008.8 mb 0.01 in0.3 mm 0.00 in/hr0.0 mm/hr 0.01 in0.3 mm
08:32 AM 53.5°F11.9°C 52.4°F11.3°C 96% 6.0 mph S9.7 kmh S 7.0 mph11.3 kmh 29.79 in1008.8 mb 0.01 in0.3 mm 0.00 in/hr0.0 mm/hr 0.01 in0.3 mm
08:33 AM 53.5°F11.9°C 52.4°F11.3°C 96% 7.0 mph SSE11.3 kmh SSE 7.0 mph11.3 kmh 29.79 in1008.8 mb 0.01 in0.3 mm 0.00 in/hr0.0 mm/hr 0.01 in0.3 mm
08:34 AM 53.5°F11.9°C 52.4°F11.3°C 96% 4.0 mph S6.4 kmh S 7.0 mph11.3 kmh 29.79 in1008.8 mb 0.01 in0.3 mm 0.00 in/hr0.0 mm/hr 0.01 in0.3 mm
08:35 AM 53.5°F11.9°C 52.4°F11.3°C 96% 6.0 mph S9.7 kmh S 7.0 mph11.3 kmh 29.78 in1008.5 mb 0.01 in0.3 mm 0.00 in/hr0.0 mm/hr 0.01 in0.3 mm
08:36 AM 53.5°F11.9°C 52.4°F11.3°C 96% 3.0 mph SE4.8 kmh SE 7.0 mph11.3 kmh 29.78 in1008.5 mb 0.01 in0.3 mm 0.00 in/hr0.0 mm/hr 0.01 in0.3 mm
08:37 AM 53.5°F11.9°C 52.4°F11.3°C 96% 3.0 mph SE4.8 kmh SE 7.0 mph11.3 kmh 29.78 in1008.5 mb 0.01 in0.3 mm 0.00 in/hr0.0 mm/hr 0.01 in0.3 mm
08:38 AM 53.5°F11.9°C 52.4°F11.3°C 96% 3.0 mph SSE4.8 kmh SSE 7.0 mph11.3 kmh 29.78 in1008.5 mb 0.01 in0.3 mm 0.00 in/hr0.0 mm/hr 0.01 in0.3 mm
08:39 AM 53.5°F11.9°C 52.4°F11.3°C 96% 4.0 mph SE6.4 kmh SE 7.0 mph11.3 kmh 29.78 in1008.5 mb 0.01 in0.3 mm 0.00 in/hr0.0 mm/hr 0.01 in0.3 mm
08:40 AM 53.5°F11.9°C 52.4°F11.3°C 96% 5.0 mph S8.0 kmh S 7.0 mph11.3 kmh 29.78 in1008.5 mb 0.01 in0.3 mm 0.00 in/hr0.0 mm/hr 0.01 in0.3 mm
08:41 AM 53.6°F12.0°C 52.5°F11.4°C 96% 4.0 mph S6.4 kmh S 7.0 mph11.3 kmh 29.78 in1008.5 mb 0.01 in0.3 mm 0.00 in/hr0.0 mm/hr 0.01 in0.3 mm
08:42 AM 53.5°F11.9°C 52.4°F11.3°C 96% 4.0 mph SSE6.4 kmh SSE 7.0 mph11.3 kmh 29.78 in1008.5 mb 0.01 in0.3 mm 0.00 in/hr0.0 mm/hr 0.01 in0.3 mm
08:43 AM 53.5°F11.9°C 52.4°F11.3°C 96% 7.0 mph SSE11.3 kmh SSE 7.0 mph11.3 kmh 29.78 in1008.5 mb 0.01 in0.3 mm 0.00 in/hr0.0 mm/hr 0.01 in0.3 mm
08:44 AM 53.6°F12.0°C 52.5°F11.4°C 96% 6.0 mph SSE9.7 kmh SSE 7.0 mph11.3 kmh 29.78 in1008.5 mb 0.01 in0.3 mm 0.00 in/hr0.0 mm/hr 0.01 in0.3 mm
08:45 AM 53.6°F12.0°C 52.5°F11.4°C 96% 6.0 mph S9.7 kmh S 7.0 mph11.3 kmh 29.78 in1008.5 mb 0.01 in0.3 mm 0.00 in/hr0.0 mm/hr 0.01 in0.3 mm
08:46 AM 53.5°F11.9°C 52.4°F11.3°C 96% 4.0 mph SE6.4 kmh SE 7.0 mph11.3 kmh 29.78 in1008.5 mb 0.01 in0.3 mm 0.00 in/hr0.0 mm/hr 0.01 in0.3 mm
08:47 AM 53.5°F11.9°C 52.4°F11.3°C 96% 4.0 mph S6.4 kmh S 7.0 mph11.3 kmh 29.78 in1008.5 mb 0.01 in0.3 mm 0.00 in/hr0.0 mm/hr 0.01 in0.3 mm
08:48 AM 53.6°F12.0°C 52.5°F11.4°C 96% 4.0 mph SE6.4 kmh SE 7.0 mph11.3 kmh 29.78 in1008.5 mb 0.01 in0.3 mm 0.00 in/hr0.0 mm/hr 0.01 in0.3 mm
08:49 AM 53.6°F12.0°C 52.5°F11.4°C 96% 6.0 mph S9.7 kmh S 7.0 mph11.3 kmh 29.78 in1008.5 mb 0.01 in0.3 mm 0.00 in/hr0.0 mm/hr 0.01 in0.3 mm
08:50 AM 53.5°F11.9°C 52.4°F11.3°C 96% 4.0 mph SSE6.4 kmh SSE 8.0 mph12.9 kmh 29.78 in1008.5 mb 0.01 in0.3 mm 0.00 in/hr0.0 mm/hr 0.01 in0.3 mm
08:51 AM 53.6°F12.0°C 52.5°F11.4°C 96% 5.0 mph S8.0 kmh S 8.0 mph12.9 kmh 29.78 in1008.5 mb 0.01 in0.3 mm 0.00 in/hr0.0 mm/hr 0.01 in0.3 mm
08:52 AM 53.6°F12.0°C 52.5°F11.4°C 96% 3.0 mph S4.8 kmh S 8.0 mph12.9 kmh 29.78 in1008.5 mb 0.01 in0.3 mm 0.00 in/hr0.0 mm/hr 0.01 in0.3 mm
08:53 AM 53.6°F12.0°C 52.5°F11.4°C 96% 3.0 mph SSE4.8 kmh SSE 8.0 mph12.9 kmh 29.78 in1008.5 mb 0.01 in0.3 mm 0.00 in/hr0.0 mm/hr 0.01 in0.3 mm
08:54 AM 53.6°F12.0°C 52.5°F11.4°C 96% 5.0 mph S8.0 kmh S 8.0 mph12.9 kmh 29.78 in1008.5 mb 0.01 in0.3 mm 0.00 in/hr0.0 mm/hr 0.01 in0.3 mm
08:55 AM 53.6°F12.0°C 52.5°F11.4°C 96% 5.0 mph SSE8.0 kmh SSE 8.0 mph12.9 kmh 29.78 in1008.5 mb 0.01 in0.3 mm 0.00 in/hr0.0 mm/hr 0.01 in0.3 mm
08:56 AM 53.6°F12.0°C 52.5°F11.4°C 96% 2.0 mph SSE3.2 kmh SSE 8.0 mph12.9 kmh 29.78 in1008.5 mb 0.01 in0.3 mm 0.00 in/hr0.0 mm/hr 0.01 in0.3 mm
08:57 AM 53.6°F12.0°C 52.5°F11.4°C 96% 4.0 mph S6.4 kmh S 8.0 mph12.9 kmh 29.78 in1008.5 mb 0.01 in0.3 mm 0.00 in/hr0.0 mm/hr 0.01 in0.3 mm
08:58 AM 53.6°F12.0°C 52.5°F11.4°C 96% 4.0 mph S6.4 kmh S 8.0 mph12.9 kmh 29.78 in1008.5 mb 0.01 in0.3 mm 0.00 in/hr0.0 mm/hr 0.01 in0.3 mm
08:59 AM 53.6°F12.0°C 52.5°F11.4°C 96% 4.0 mph S6.4 kmh S 8.0 mph12.9 kmh 29.78 in1008.5 mb 0.01 in0.3 mm 0.00 in/hr0.0 mm/hr 0.01 in0.3 mm
09:00 AM 53.6°F12.0°C 52.5°F11.4°C 96% 3.0 mph SSE4.8 kmh SSE 8.0 mph12.9 kmh 29.78 in1008.5 mb 0.01 in0.3 mm 0.00 in/hr0.0 mm/hr 0.01 in0.3 mm
09:01 AM 53.6°F12.0°C 52.5°F11.4°C 96% 4.0 mph SSE6.4 kmh SSE 8.0 mph12.9 kmh 29.77 in1008.1 mb 0.01 in0.3 mm 0.00 in/hr0.0 mm/hr 0.01 in0.3 mm
09:02 AM 53.7°F12.1°C 52.6°F11.4°C 96% 2.0 mph S3.2 kmh S 3.0 mph4.8 kmh 29.78 in1008.5 mb 0.00 in0.0 mm 0.00 in/hr0.0 mm/hr 0.01 in0.3 mm
09:03 AM 53.7°F12.1°C 52.6°F11.4°C 96% 4.0 mph SSE6.4 kmh SSE 6.0 mph9.7 kmh 29.78 in1008.5 mb 0.00 in0.0 mm 0.00 in/hr0.0 mm/hr 0.01 in0.3 mm
09:04 AM 53.7°F12.1°C 52.6°F11.4°C 96% 3.0 mph SE4.8 kmh SE 6.0 mph9.7 kmh 29.77 in1008.1 mb 0.00 in0.0 mm 0.00 in/hr0.0 mm/hr 0.01 in0.3 mm
09:05 AM 53.7°F12.1°C 52.6°F11.4°C 96% 4.0 mph SE6.4 kmh SE 6.0 mph9.7 kmh 29.78 in1008.5 mb 0.00 in0.0 mm 0.00 in/hr0.0 mm/hr 0.01 in0.3 mm
09:06 AM 53.7°F12.1°C 52.6°F11.4°C 96% 3.0 mph SSE4.8 kmh SSE 7.0 mph11.3 kmh 29.78 in1008.5 mb 0.00 in0.0 mm 0.00 in/hr0.0 mm/hr 0.01 in0.3 mm
09:07 AM 53.7°F12.1°C 52.6°F11.4°C 96% 3.0 mph S4.8 kmh S 7.0 mph11.3 kmh 29.78 in1008.5 mb 0.00 in0.0 mm 0.00 in/hr0.0 mm/hr 0.01 in0.3 mm
09:08 AM 53.7°F12.1°C 52.6°F11.4°C 96% 4.0 mph S6.4 kmh S 7.0 mph11.3 kmh 29.78 in1008.5 mb 0.00 in0.0 mm 0.00 in/hr0.0 mm/hr 0.01 in0.3 mm
09:09 AM 53.7°F12.1°C 52.6°F11.4°C 96% 3.0 mph S4.8 kmh S 7.0 mph11.3 kmh 29.78 in1008.5 mb 0.00 in0.0 mm 0.00 in/hr0.0 mm/hr 0.01 in0.3 mm
09:10 AM 53.7°F12.1°C 52.6°F11.4°C 96% 3.0 mph S4.8 kmh S 7.0 mph11.3 kmh 29.78 in1008.5 mb 0.00 in0.0 mm 0.00 in/hr0.0 mm/hr 0.01 in0.3 mm
09:11 AM 53.7°F12.1°C 52.6°F11.4°C 96% 2.0 mph SSE3.2 kmh SSE 7.0 mph11.3 kmh 29.78 in1008.5 mb 0.00 in0.0 mm 0.00 in/hr0.0 mm/hr 0.01 in0.3 mm
09:12 AM 53.7°F12.1°C 52.6°F11.4°C 96% 3.0 mph SSE4.8 kmh SSE 7.0 mph11.3 kmh 29.78 in1008.5 mb 0.00 in0.0 mm 0.00 in/hr0.0 mm/hr 0.01 in0.3 mm
09:13 AM 53.7°F12.1°C 52.6°F11.4°C 96% 3.0 mph SSE4.8 kmh SSE 7.0 mph11.3 kmh 29.78 in1008.5 mb 0.00 in0.0 mm 0.00 in/hr0.0 mm/hr 0.01 in0.3 mm
09:14 AM 53.7°F12.1°C 52.6°F11.4°C 96% 3.0 mph SE4.8 kmh SE 7.0 mph11.3 kmh 29.78 in1008.5 mb 0.00 in0.0 mm 0.00 in/hr0.0 mm/hr 0.01 in0.3 mm
09:15 AM 53.8°F12.1°C 52.7°F11.5°C 96% 4.0 mph ESE6.4 kmh ESE 7.0 mph11.3 kmh 29.77 in1008.1 mb 0.00 in0.0 mm 0.00 in/hr0.0 mm/hr 0.01 in0.3 mm
09:16 AM 53.8°F12.1°C 52.7°F11.5°C 96% 5.0 mph SE8.0 kmh SE 7.0 mph11.3 kmh 29.77 in1008.1 mb 0.00 in0.0 mm 0.00 in/hr0.0 mm/hr 0.01 in0.3 mm
09:17 AM 53.8°F12.1°C 52.7°F11.5°C 96% 4.0 mph SE6.4 kmh SE 7.0 mph11.3 kmh 29.77 in1008.1 mb 0.00 in0.0 mm 0.00 in/hr0.0 mm/hr 0.01 in0.3 mm
09:18 AM 53.8°F12.1°C 52.7°F11.5°C 96% 4.0 mph SSE6.4 kmh SSE 7.0 mph11.3 kmh 29.77 in1008.1 mb 0.00 in0.0 mm 0.00 in/hr0.0 mm/hr 0.01 in0.3 mm
09:19 AM 53.8°F12.1°C 52.7°F11.5°C 96% 4.0 mph SE6.4 kmh SE 7.0 mph11.3 kmh 29.77 in1008.1 mb 0.00 in0.0 mm 0.00 in/hr0.0 mm/hr 0.01 in0.3 mm
09:20 AM 53.8°F12.1°C 52.7°F11.5°C 96% 4.0 mph SE6.4 kmh SE 7.0 mph11.3 kmh 29.77 in1008.1 mb 0.00 in0.0 mm 0.00 in/hr0.0 mm/hr 0.01 in0.3 mm
09:21 AM 53.8°F12.1°C 52.7°F11.5°C 96% 3.0 mph SE4.8 kmh SE 7.0 mph11.3 kmh 29.77 in1008.1 mb 0.00 in0.0 mm 0.00 in/hr0.0 mm/hr 0.01 in0.3 mm
09:22 AM 53.8°F12.1°C 52.7°F11.5°C 96% 5.0 mph ESE8.0 kmh ESE 7.0 mph11.3 kmh 29.77 in1008.1 mb 0.00 in0.0 mm 0.00 in/hr0.0 mm/hr 0.01 in0.3 mm
09:23 AM 53.8°F12.1°C 52.7°F11.5°C 96% 7.0 mph ESE11.3 kmh ESE 8.0 mph12.9 kmh 29.77 in1008.1 mb 0.00 in0.0 mm 0.00 in/hr0.0 mm/hr 0.01 in0.3 mm
09:24 AM 53.8°F12.1°C 52.7°F11.5°C 96% 6.0 mph SE9.7 kmh SE 8.0 mph12.9 kmh 29.77 in1008.1 mb 0.00 in0.0 mm 0.00 in/hr0.0 mm/hr 0.01 in0.3 mm
09:25 AM 53.8°F12.1°C 52.7°F11.5°C 96% 7.0 mph ESE11.3 kmh ESE 8.0 mph12.9 kmh 29.77 in1008.1 mb 0.00 in0.0 mm 0.00 in/hr0.0 mm/hr 0.01 in0.3 mm
09:26 AM 53.8°F12.1°C 52.7°F11.5°C 96% 6.0 mph SE9.7 kmh SE 9.0 mph14.5 kmh 29.78 in1008.5 mb 0.00 in0.0 mm 0.00 in/hr0.0 mm/hr 0.01 in0.3 mm
09:27 AM 53.8°F12.1°C 52.7°F11.5°C 96% 9.0 mph SE14.5 kmh SE 10.0 mph16.1 kmh 29.78 in1008.5 mb 0.00 in0.0 mm 0.00 in/hr0.0 mm/hr 0.01 in0.3 mm
09:28 AM 53.8°F12.1°C 52.7°F11.5°C 96% 5.0 mph SSE8.0 kmh SSE 10.0 mph16.1 kmh 29.78 in1008.5 mb 0.00 in0.0 mm 0.00 in/hr0.0 mm/hr 0.01 in0.3 mm
09:29 AM 53.8°F12.1°C 52.7°F11.5°C 96% 4.0 mph SSE6.4 kmh SSE 10.0 mph16.1 kmh 29.78 in1008.5 mb 0.00 in0.0 mm 0.00 in/hr0.0 mm/hr 0.01 in0.3 mm
09:30 AM 53.8°F12.1°C 52.7°F11.5°C 96% 4.0 mph SE6.4 kmh SE 10.0 mph16.1 kmh 29.78 in1008.5 mb 0.00 in0.0 mm 0.00 in/hr0.0 mm/hr 0.01 in0.3 mm
09:31 AM 53.8°F12.1°C 52.7°F11.5°C 96% 7.0 mph S11.3 kmh S 10.0 mph16.1 kmh 29.79 in1008.8 mb 0.00 in0.0 mm 0.00 in/hr0.0 mm/hr 0.01 in0.3 mm
09:32 AM 53.8°F12.1°C 52.7°F11.5°C 96% 4.0 mph S6.4 kmh S 5.0 mph8.0 kmh 29.79 in1008.8 mb 0.00 in0.0 mm 0.00 in/hr0.0 mm/hr 0.01 in0.3 mm
09:33 AM 53.7°F12.1°C 52.6°F11.4°C 96% 5.0 mph S8.0 kmh S 6.0 mph9.7 kmh 29.79 in1008.8 mb 0.00 in0.0 mm 0.00 in/hr0.0 mm/hr 0.01 in0.3 mm
09:34 AM 53.8°F12.1°C 52.7°F11.5°C 96% 6.0 mph SSE9.7 kmh SSE 6.0 mph9.7 kmh 29.79 in1008.8 mb 0.00 in0.0 mm 0.00 in/hr0.0 mm/hr 0.01 in0.3 mm
09:35 AM 53.8°F12.1°C 52.7°F11.5°C 96% 6.0 mph S9.7 kmh S 8.0 mph12.9 kmh 29.79 in1008.8 mb 0.00 in0.0 mm 0.00 in/hr0.0 mm/hr 0.01 in0.3 mm
09:36 AM 53.8°F12.1°C 52.7°F11.5°C 96% 6.0 mph S9.7 kmh S 8.0 mph12.9 kmh 29.79 in1008.8 mb 0.00 in0.0 mm 0.00 in/hr0.0 mm/hr 0.01 in0.3 mm
09:37 AM 53.7°F12.1°C 52.6°F11.4°C 96% 6.0 mph SSE9.7 kmh SSE 8.0 mph12.9 kmh 29.79 in1008.8 mb 0.00 in0.0 mm 0.00 in/hr0.0 mm/hr 0.01 in0.3 mm
09:38 AM 53.7°F12.1°C 52.6°F11.4°C 96% 3.0 mph S4.8 kmh S 8.0 mph12.9 kmh 29.79 in1008.8 mb 0.00 in0.0 mm 0.00 in/hr0.0 mm/hr 0.01 in0.3 mm
09:39 AM 53.7°F12.1°C 52.6°F11.4°C 96% 4.0 mph SSE6.4 kmh SSE 8.0 mph12.9 kmh 29.79 in1008.8 mb 0.00 in0.0 mm 0.00 in/hr0.0 mm/hr 0.01 in0.3 mm
09:40 AM 53.7°F12.1°C 52.6°F11.4°C 96% 2.0 mph SSE3.2 kmh SSE 8.0 mph12.9 kmh 29.79 in1008.8 mb 0.00 in0.0 mm 0.00 in/hr0.0 mm/hr 0.01 in0.3 mm
09:41 AM 53.7°F12.1°C 52.6°F11.4°C 96% 4.0 mph S6.4 kmh S 8.0 mph12.9 kmh 29.79 in1008.8 mb 0.00 in0.0 mm 0.00 in/hr0.0 mm/hr 0.01 in0.3 mm
09:42 AM 53.7°F12.1°C 52.6°F11.4°C 96% 5.0 mph S8.0 kmh S 8.0 mph12.9 kmh 29.79 in1008.8 mb 0.00 in0.0 mm 0.00 in/hr0.0 mm/hr 0.01 in0.3 mm
09:43 AM 53.7°F12.1°C 52.6°F11.4°C 96% 3.0 mph S4.8 kmh S 8.0 mph12.9 kmh 29.79 in1008.8 mb 0.00 in0.0 mm 0.00 in/hr0.0 mm/hr 0.01 in0.3 mm
09:44 AM 53.7°F12.1°C 52.6°F11.4°C 96% 4.0 mph SE6.4 kmh SE 8.0 mph12.9 kmh 29.79 in1008.8 mb 0.00 in0.0 mm 0.00 in/hr0.0 mm/hr 0.01 in0.3 mm
09:45 AM 53.7°F12.1°C 52.6°F11.4°C 96% 3.0 mph S4.8 kmh S 8.0 mph12.9 kmh 29.79 in1008.8 mb 0.00 in0.0 mm 0.00 in/hr0.0 mm/hr 0.01 in0.3 mm
09:46 AM 53.8°F12.1°C 52.7°F11.5°C 96% 3.0 mph SSE4.8 kmh SSE 8.0 mph12.9 kmh 29.79 in1008.8 mb 0.00 in0.0 mm 0.00 in/hr0.0 mm/hr 0.01 in0.3 mm
09:47 AM 53.8°F12.1°C 52.7°F11.5°C 96% 4.0 mph SE6.4 kmh SE 8.0 mph12.9 kmh 29.79 in1008.8 mb 0.00 in0.0 mm 0.00 in/hr0.0 mm/hr 0.01 in0.3 mm
09:48 AM 53.8°F12.1°C 52.7°F11.5°C 96% 3.0 mph S4.8 kmh S 8.0 mph12.9 kmh 29.79 in1008.8 mb 0.00 in0.0 mm 0.00 in/hr0.0 mm/hr 0.01 in0.3 mm
09:49 AM 53.8°F12.1°C 52.7°F11.5°C 96% 5.0 mph S8.0 kmh S 8.0 mph12.9 kmh 29.79 in1008.8 mb 0.00 in0.0 mm 0.00 in/hr0.0 mm/hr 0.01 in0.3 mm
09:50 AM 53.8°F12.1°C 52.7°F11.5°C 96% 4.0 mph SSE6.4 kmh SSE 8.0 mph12.9 kmh 29.79 in1008.8 mb 0.00 in0.0 mm 0.00 in/hr0.0 mm/hr 0.01 in0.3 mm
09:51 AM 53.8°F12.1°C 52.7°F11.5°C 96% 2.0 mph SSE3.2 kmh SSE 8.0 mph12.9 kmh 29.78 in1008.5 mb 0.00 in0.0 mm 0.00 in/hr0.0 mm/hr 0.01 in0.3 mm
09:52 AM 53.8°F12.1°C 52.7°F11.5°C 96% 5.0 mph S8.0 kmh S 8.0 mph12.9 kmh 29.78 in1008.5 mb 0.00 in0.0 mm 0.00 in/hr0.0 mm/hr 0.01 in0.3 mm
09:53 AM 53.8°F12.1°C 52.7°F11.5°C 96% 4.0 mph SSE6.4 kmh SSE 8.0 mph12.9 kmh 29.78 in1008.5 mb 0.00 in0.0 mm 0.00 in/hr0.0 mm/hr 0.01 in0.3 mm
09:54 AM 53.8°F12.1°C 52.7°F11.5°C 96% 3.0 mph SSE4.8 kmh SSE 8.0 mph12.9 kmh 29.78 in1008.5 mb 0.00 in0.0 mm 0.00 in/hr0.0 mm/hr 0.01 in0.3 mm
09:55 AM 53.8°F12.1°C 52.7°F11.5°C 96% 6.0 mph SE9.7 kmh SE 8.0 mph12.9 kmh 29.78 in1008.5 mb 0.00 in0.0 mm 0.00 in/hr0.0 mm/hr 0.01 in0.3 mm
09:56 AM 53.8°F12.1°C 52.7°F11.5°C 96% 6.0 mph SE9.7 kmh SE 8.0 mph12.9 kmh 29.79 in1008.8 mb 0.00 in0.0 mm 0.00 in/hr0.0 mm/hr 0.01 in0.3 mm
09:57 AM 53.8°F12.1°C 52.7°F11.5°C 96% 6.0 mph SE9.7 kmh SE 8.0 mph12.9 kmh 29.79 in1008.8 mb 0.00 in0.0 mm 0.00 in/hr0.0 mm/hr 0.01 in0.3 mm
09:58 AM 53.8°F12.1°C 52.7°F11.5°C 96% 5.0 mph SSE8.0 kmh SSE 8.0 mph12.9 kmh 29.78 in1008.5 mb 0.00 in0.0 mm 0.00 in/hr0.0 mm/hr 0.01 in0.3 mm
09:59 AM 53.8°F12.1°C 52.7°F11.5°C 96% 4.0 mph SE6.4 kmh SE 8.0 mph12.9 kmh 29.78 in1008.5 mb 0.00 in0.0 mm 0.00 in/hr0.0 mm/hr 0.01 in0.3 mm
10:00 AM 53.8°F12.1°C 52.7°F11.5°C 96% 5.0 mph S8.0 kmh S 8.0 mph12.9 kmh 29.78 in1008.5 mb 0.00 in0.0 mm 0.00 in/hr0.0 mm/hr 0.01 in0.3 mm
10:01 AM 53.8°F12.1°C 52.7°F11.5°C 96% 7.0 mph SSE11.3 kmh SSE 8.0 mph12.9 kmh 29.78 in1008.5 mb 0.00 in0.0 mm 0.00 in/hr0.0 mm/hr 0.01 in0.3 mm
10:02 AM 53.9°F12.2°C 52.8°F11.6°C 96% 5.0 mph SSE8.0 kmh SSE 7.0 mph11.3 kmh 29.78 in1008.5 mb 0.00 in0.0 mm 0.00 in/hr0.0 mm/hr 0.01 in0.3 mm
10:03 AM 53.8°F12.1°C 52.7°F11.5°C 96% 6.0 mph SE9.7 kmh SE 8.0 mph12.9 kmh 29.78 in1008.5 mb 0.00 in0.0 mm 0.00 in/hr0.0 mm/hr 0.01 in0.3 mm
10:04 AM 53.9°F12.2°C 52.8°F11.6°C 96% 5.0 mph SSE8.0 kmh SSE 8.0 mph12.9 kmh 29.78 in1008.5 mb 0.00 in0.0 mm 0.00 in/hr0.0 mm/hr 0.01 in0.3 mm
10:05 AM 53.9°F12.2°C 52.8°F11.6°C 96% 4.0 mph SE6.4 kmh SE 8.0 mph12.9 kmh 29.78 in1008.5 mb 0.00 in0.0 mm 0.00 in/hr0.0 mm/hr 0.01 in0.3 mm
10:06 AM 53.9°F12.2°C 52.8°F11.6°C 96% 5.0 mph SE8.0 kmh SE 8.0 mph12.9 kmh 29.78 in1008.5 mb 0.00 in0.0 mm 0.00 in/hr0.0 mm/hr 0.01 in0.3 mm
10:07 AM 53.9°F12.2°C 52.8°F11.6°C 96% 4.0 mph SE6.4 kmh SE 8.0 mph12.9 kmh 29.78 in1008.5 mb 0.00 in0.0 mm 0.00 in/hr0.0 mm/hr 0.01 in0.3 mm
10:08 AM 53.9°F12.2°C 52.8°F11.6°C 96% 5.0 mph ESE8.0 kmh ESE 8.0 mph12.9 kmh 29.78 in1008.5 mb 0.00 in0.0 mm 0.00 in/hr0.0 mm/hr 0.01 in0.3 mm
10:09 AM 53.9°F12.2°C 52.8°F11.6°C 96% 5.0 mph SE8.0 kmh SE 9.0 mph14.5 kmh 29.78 in1008.5 mb 0.00 in0.0 mm 0.00 in/hr0.0 mm/hr 0.01 in0.3 mm
10:10 AM 53.9°F12.2°C 52.8°F11.6°C 96% 4.0 mph SE6.4 kmh SE 9.0 mph14.5 kmh 29.78 in1008.5 mb 0.00 in0.0 mm 0.00 in/hr0.0 mm/hr 0.01 in0.3 mm
10:11 AM 53.9°F12.2°C 52.8°F11.6°C 96% 5.0 mph SE8.0 kmh SE 9.0 mph14.5 kmh 29.78 in1008.5 mb 0.00 in0.0 mm 0.00 in/hr0.0 mm/hr 0.01 in0.3 mm
10:12 AM 53.9°F12.2°C 52.8°F11.6°C 96% 7.0 mph SE11.3 kmh SE 9.0 mph14.5 kmh 29.78 in1008.5 mb 0.00 in0.0 mm 0.00 in/hr0.0 mm/hr 0.01 in0.3 mm
10:13 AM 53.9°F12.2°C 52.8°F11.6°C 96% 6.0 mph SE9.7 kmh SE 9.0 mph14.5 kmh 29.78 in1008.5 mb 0.00 in0.0 mm 0.00 in/hr0.0 mm/hr 0.01 in0.3 mm
10:14 AM 53.9°F12.2°C 52.8°F11.6°C 96% 4.0 mph SE6.4 kmh SE 9.0 mph14.5 kmh 29.78 in1008.5 mb 0.00 in0.0 mm 0.00 in/hr0.0 mm/hr 0.01 in0.3 mm
10:15 AM 53.9°F12.2°C 52.8°F11.6°C 96% 4.0 mph SE6.4 kmh SE 9.0 mph14.5 kmh 29.78 in1008.5 mb 0.00 in0.0 mm 0.00 in/hr0.0 mm/hr 0.01 in0.3 mm
10:16 AM 53.9°F12.2°C 52.8°F11.6°C 96% 5.0 mph SE8.0 kmh SE 9.0 mph14.5 kmh 29.78 in1008.5 mb 0.00 in0.0 mm 0.00 in/hr0.0 mm/hr 0.01 in0.3 mm
10:17 AM 54.0°F12.2°C 52.9°F11.6°C 96% 4.0 mph SE6.4 kmh SE 9.0 mph14.5 kmh 29.78 in1008.5 mb 0.00 in0.0 mm 0.00 in/hr0.0 mm/hr 0.01 in0.3 mm
10:18 AM 53.9°F12.2°C 52.8°F11.6°C 96% 5.0 mph ESE8.0 kmh ESE 9.0 mph14.5 kmh 29.78 in1008.5 mb 0.00 in0.0 mm 0.00 in/hr0.0 mm/hr 0.01 in0.3 mm
10:19 AM 54.0°F12.2°C 52.9°F11.6°C 96% 5.0 mph SE8.0 kmh SE 9.0 mph14.5 kmh 29.78 in1008.5 mb 0.00 in0.0 mm 0.00 in/hr0.0 mm/hr 0.01 in0.3 mm
10:20 AM 54.0°F12.2°C 52.9°F11.6°C 96% 2.0 mph SE3.2 kmh SE 9.0 mph14.5 kmh 29.78 in1008.5 mb 0.00 in0.0 mm 0.00 in/hr0.0 mm/hr 0.01 in0.3 mm
10:21 AM 54.0°F12.2°C 52.9°F11.6°C 96% 4.0 mph S6.4 kmh S 9.0 mph14.5 kmh 29.79 in1008.8 mb 0.00 in0.0 mm 0.00 in/hr0.0 mm/hr 0.01 in0.3 mm
10:22 AM 54.0°F12.2°C 52.9°F11.6°C 96% 7.0 mph SSE11.3 kmh SSE 9.0 mph14.5 kmh 29.79 in1008.8 mb 0.00 in0.0 mm 0.00 in/hr0.0 mm/hr 0.01 in0.3 mm
10:23 AM 54.0°F12.2°C 52.9°F11.6°C 96% 4.0 mph S6.4 kmh S 9.0 mph14.5 kmh 29.79 in1008.8 mb 0.00 in0.0 mm 0.00 in/hr0.0 mm/hr 0.01 in0.3 mm
10:24 AM 54.0°F12.2°C 52.9°F11.6°C 96% 5.0 mph SE8.0 kmh SE 9.0 mph14.5 kmh 29.79 in1008.8 mb 0.00 in0.0 mm 0.00 in/hr0.0 mm/hr 0.01 in0.3 mm
10:25 AM 53.9°F12.2°C 52.8°F11.6°C 96% 3.0 mph SE4.8 kmh SE 9.0 mph14.5 kmh 29.79 in1008.8 mb 0.00 in0.0 mm 0.00 in/hr0.0 mm/hr 0.01 in0.3 mm
10:26 AM 53.9°F12.2°C 52.8°F11.6°C 96% 5.0 mph SE8.0 kmh SE 9.0 mph14.5 kmh 29.79 in1008.8 mb 0.00 in0.0 mm 0.00 in/hr0.0 mm/hr 0.01 in0.3 mm
10:27 AM 53.9°F12.2°C 52.8°F11.6°C 96% 3.0 mph SSE4.8 kmh SSE 9.0 mph14.5 kmh 29.79 in1008.8 mb 0.00 in0.0 mm 0.00 in/hr0.0 mm/hr 0.01 in0.3 mm
10:28 AM 53.9°F12.2°C 52.8°F11.6°C 96% 5.0 mph SSE8.0 kmh SSE 9.0 mph14.5 kmh 29.79 in1008.8 mb 0.00 in0.0 mm 0.00 in/hr0.0 mm/hr 0.01 in0.3 mm
10:29 AM 53.9°F12.2°C 52.8°F11.6°C 96% 2.0 mph SE3.2 kmh SE 9.0 mph14.5 kmh 29.79 in1008.8 mb 0.00 in0.0 mm 0.00 in/hr0.0 mm/hr 0.01 in0.3 mm
10:30 AM 53.9°F12.2°C 52.8°F11.6°C 96% 5.0 mph SSE8.0 kmh SSE 9.0 mph14.5 kmh 29.79 in1008.8 mb 0.00 in0.0 mm 0.00 in/hr0.0 mm/hr 0.01 in0.3 mm
10:31 AM 53.9°F12.2°C 52.8°F11.6°C 96% 4.0 mph S6.4 kmh S 9.0 mph14.5 kmh 29.79 in1008.8 mb 0.00 in0.0 mm 0.00 in/hr0.0 mm/hr 0.01 in0.3 mm
10:32 AM 53.9°F12.2°C 52.8°F11.6°C 96% 5.0 mph SE8.0 kmh SE 5.0 mph8.0 kmh 29.79 in1008.8 mb 0.01 in0.3 mm 0.60 in/hr15.2 mm/hr 0.02 in0.5 mm
10:33 AM 53.9°F12.2°C 52.8°F11.6°C 96% 5.0 mph SSE8.0 kmh SSE 7.0 mph11.3 kmh 29.79 in1008.8 mb 0.01 in0.3 mm 0.00 in/hr0.0 mm/hr 0.02 in0.5 mm
10:34 AM 53.9°F12.2°C 52.8°F11.6°C 96% 4.0 mph SE6.4 kmh SE 7.0 mph11.3 kmh 29.79 in1008.8 mb 0.01 in0.3 mm 0.00 in/hr0.0 mm/hr 0.02 in0.5 mm
10:35 AM 53.9°F12.2°C 52.8°F11.6°C 96% 2.0 mph SE3.2 kmh SE 7.0 mph11.3 kmh 29.79 in1008.8 mb 0.01 in0.3 mm 0.00 in/hr0.0 mm/hr 0.02 in0.5 mm
10:36 AM 53.9°F12.2°C 52.8°F11.6°C 96% 3.0 mph SE4.8 kmh SE 7.0 mph11.3 kmh 29.79 in1008.8 mb 0.01 in0.3 mm 0.00 in/hr0.0 mm/hr 0.02 in0.5 mm
10:37 AM 53.9°F12.2°C 52.8°F11.6°C 96% 3.0 mph SE4.8 kmh SE 7.0 mph11.3 kmh 29.79 in1008.8 mb 0.01 in0.3 mm 0.00 in/hr0.0 mm/hr 0.02 in0.5 mm
10:38 AM 53.9°F12.2°C 52.8°F11.6°C 96% 3.0 mph SE4.8 kmh SE 7.0 mph11.3 kmh 29.78 in1008.5 mb 0.01 in0.3 mm 0.00 in/hr0.0 mm/hr 0.02 in0.5 mm
10:39 AM 53.9°F12.2°C 52.8°F11.6°C 96% 6.0 mph SSE9.7 kmh SSE 7.0 mph11.3 kmh 29.78 in1008.5 mb 0.01 in0.3 mm 0.00 in/hr0.0 mm/hr 0.02 in0.5 mm
10:40 AM 53.9°F12.2°C 52.8°F11.6°C 96% 5.0 mph SE8.0 kmh SE 8.0 mph12.9 kmh 29.78 in1008.5 mb 0.01 in0.3 mm 0.00 in/hr0.0 mm/hr 0.02 in0.5 mm
10:41 AM 53.9°F12.2°C 52.8°F11.6°C 96% 7.0 mph SSE11.3 kmh SSE 8.0 mph12.9 kmh 29.78 in1008.5 mb 0.01 in0.3 mm 0.00 in/hr0.0 mm/hr 0.02 in0.5 mm
10:42 AM 53.9°F12.2°C 52.8°F11.6°C 96% 4.0 mph SE6.4 kmh SE 8.0 mph12.9 kmh 29.78 in1008.5 mb 0.01 in0.3 mm 0.00 in/hr0.0 mm/hr 0.02 in0.5 mm
10:43 AM 53.9°F12.2°C 52.8°F11.6°C 96% 4.0 mph SE6.4 kmh SE 8.0 mph12.9 kmh 29.78 in1008.5 mb 0.01 in0.3 mm 0.00 in/hr0.0 mm/hr 0.02 in0.5 mm
10:44 AM 53.9°F12.2°C 52.8°F11.6°C 96% 3.0 mph SE4.8 kmh SE 8.0 mph12.9 kmh 29.79 in1008.8 mb 0.01 in0.3 mm 0.00 in/hr0.0 mm/hr 0.02 in0.5 mm
10:45 AM 53.9°F12.2°C 52.8°F11.6°C 96% 6.0 mph SE9.7 kmh SE 8.0 mph12.9 kmh 29.79 in1008.8 mb 0.01 in0.3 mm 0.00 in/hr0.0 mm/hr 0.02 in0.5 mm
10:46 AM 53.9°F12.2°C 52.8°F11.6°C 96% 4.0 mph SE6.4 kmh SE 8.0 mph12.9 kmh 29.78 in1008.5 mb 0.01 in0.3 mm 0.00 in/hr0.0 mm/hr 0.02 in0.5 mm
10:47 AM 53.8°F12.1°C 52.7°F11.5°C 96% 3.0 mph SE4.8 kmh SE 8.0 mph12.9 kmh 29.78 in1008.5 mb 0.01 in0.3 mm 0.00 in/hr0.0 mm/hr 0.02 in0.5 mm
10:48 AM 53.8°F12.1°C 52.7°F11.5°C 96% 5.0 mph E8.0 kmh E 8.0 mph12.9 kmh 29.78 in1008.5 mb 0.01 in0.3 mm 0.00 in/hr0.0 mm/hr 0.02 in0.5 mm
10:49 AM 53.8°F12.1°C 52.7°F11.5°C 96% 4.0 mph S6.4 kmh S 8.0 mph12.9 kmh 29.78 in1008.5 mb 0.01 in0.3 mm 0.00 in/hr0.0 mm/hr 0.02 in0.5 mm
10:50 AM 53.8°F12.1°C 52.7°F11.5°C 96% 6.0 mph SE9.7 kmh SE 8.0 mph12.9 kmh 29.78 in1008.5 mb 0.01 in0.3 mm 0.00 in/hr0.0 mm/hr 0.02 in0.5 mm
10:51 AM 53.8°F12.1°C 52.7°F11.5°C 96% 6.0 mph SSE9.7 kmh SSE 8.0 mph12.9 kmh 29.78 in1008.5 mb 0.01 in0.3 mm 0.00 in/hr0.0 mm/hr 0.02 in0.5 mm
10:52 AM 53.8°F12.1°C 52.7°F11.5°C 96% 5.0 mph SE8.0 kmh SE 8.0 mph12.9 kmh 29.78 in1008.5 mb 0.01 in0.3 mm 0.00 in/hr0.0 mm/hr 0.02 in0.5 mm
10:53 AM 53.8°F12.1°C 52.7°F11.5°C 96% 5.0 mph SSE8.0 kmh SSE 8.0 mph12.9 kmh 29.78 in1008.5 mb 0.01 in0.3 mm 0.00 in/hr0.0 mm/hr 0.02 in0.5 mm
10:54 AM 53.8°F12.1°C 52.7°F11.5°C 96% 7.0 mph SE11.3 kmh SE 8.0 mph12.9 kmh 29.78 in1008.5 mb 0.01 in0.3 mm 0.00 in/hr0.0 mm/hr 0.02 in0.5 mm
10:55 AM 53.8°F12.1°C 52.7°F11.5°C 96% 4.0 mph SE6.4 kmh SE 8.0 mph12.9 kmh 29.78 in1008.5 mb 0.01 in0.3 mm 0.00 in/hr0.0 mm/hr 0.02 in0.5 mm
10:56 AM 53.8°F12.1°C 52.7°F11.5°C 96% 6.0 mph SE9.7 kmh SE 8.0 mph12.9 kmh 29.78 in1008.5 mb 0.01 in0.3 mm 0.00 in/hr0.0 mm/hr 0.02 in0.5 mm
10:57 AM 53.8°F12.1°C 52.7°F11.5°C 96% 5.0 mph SE8.0 kmh SE 8.0 mph12.9 kmh 29.78 in1008.5 mb 0.01 in0.3 mm 0.00 in/hr0.0 mm/hr 0.02 in0.5 mm
10:58 AM 53.8°F12.1°C 52.7°F11.5°C 96% 4.0 mph SE6.4 kmh SE 8.0 mph12.9 kmh 29.78 in1008.5 mb 0.01 in0.3 mm 0.00 in/hr0.0 mm/hr 0.02 in0.5 mm
10:59 AM 53.8°F12.1°C 52.7°F11.5°C 96% 4.0 mph SE6.4 kmh SE 8.0 mph12.9 kmh 29.78 in1008.5 mb 0.01 in0.3 mm 0.00 in/hr0.0 mm/hr 0.02 in0.5 mm
11:00 AM 53.8°F12.1°C 52.7°F11.5°C 96% 4.0 mph SE6.4 kmh SE 8.0 mph12.9 kmh 29.78 in1008.5 mb 0.01 in0.3 mm 0.00 in/hr0.0 mm/hr 0.02 in0.5 mm
11:01 AM 53.8°F12.1°C 53.0°F11.7°C 97% 3.0 mph S4.8 kmh S 8.0 mph12.9 kmh 29.78 in1008.5 mb 0.01 in0.3 mm 0.00 in/hr0.0 mm/hr 0.02 in0.5 mm
11:02 AM 53.8°F12.1°C 53.0°F11.7°C 97% 2.0 mph SE3.2 kmh SE 3.0 mph4.8 kmh 29.77 in1008.1 mb 0.01 in0.3 mm 0.00 in/hr0.0 mm/hr 0.02 in0.5 mm
11:03 AM 53.9°F12.2°C 53.1°F11.7°C 97% 5.0 mph SE8.0 kmh SE 7.0 mph11.3 kmh 29.77 in1008.1 mb 0.01 in0.3 mm 0.00 in/hr0.0 mm/hr 0.02 in0.5 mm
11:04 AM 53.9°F12.2°C 53.1°F11.7°C 97% 5.0 mph SE8.0 kmh SE 7.0 mph11.3 kmh 29.77 in1008.1 mb 0.01 in0.3 mm 0.00 in/hr0.0 mm/hr 0.02 in0.5 mm
11:05 AM 53.9°F12.2°C 53.1°F11.7°C 97% 3.0 mph SE4.8 kmh SE 7.0 mph11.3 kmh 29.77 in1008.1 mb 0.01 in0.3 mm 0.00 in/hr0.0 mm/hr 0.02 in0.5 mm
11:06 AM 54.0°F12.2°C 53.2°F11.8°C 97% 4.0 mph SE6.4 kmh SE 7.0 mph11.3 kmh 29.78 in1008.5 mb 0.01 in0.3 mm 0.00 in/hr0.0 mm/hr 0.02 in0.5 mm
11:07 AM 54.0°F12.2°C 53.2°F11.8°C 97% 4.0 mph SE6.4 kmh SE 7.0 mph11.3 kmh 29.78 in1008.5 mb 0.01 in0.3 mm 0.00 in/hr0.0 mm/hr 0.02 in0.5 mm
11:08 AM 54.0°F12.2°C 53.2°F11.8°C 97% 2.0 mph SE3.2 kmh SE 7.0 mph11.3 kmh 29.78 in1008.5 mb 0.01 in0.3 mm 0.00 in/hr0.0 mm/hr 0.02 in0.5 mm
11:09 AM 54.0°F12.2°C 53.2°F11.8°C 97% 3.0 mph SE4.8 kmh SE 7.0 mph11.3 kmh 29.78 in1008.5 mb 0.01 in0.3 mm 0.00 in/hr0.0 mm/hr 0.02 in0.5 mm
11:10 AM 54.0°F12.2°C 53.2°F11.8°C 97% 4.0 mph SSE6.4 kmh SSE 7.0 mph11.3 kmh 29.78 in1008.5 mb 0.01 in0.3 mm 0.00 in/hr0.0 mm/hr 0.02 in0.5 mm
11:11 AM 54.0°F12.2°C 53.2°F11.8°C 97% 4.0 mph SE6.4 kmh SE 7.0 mph11.3 kmh 29.78 in1008.5 mb 0.01 in0.3 mm 0.00 in/hr0.0 mm/hr 0.02 in0.5 mm
11:12 AM 54.0°F12.2°C 53.2°F11.8°C 97% 5.0 mph SE8.0 kmh SE 7.0 mph11.3 kmh 29.78 in1008.5 mb 0.01 in0.3 mm 0.00 in/hr0.0 mm/hr 0.02 in0.5 mm
11:13 AM 54.0°F12.2°C 53.2°F11.8°C 97% 4.0 mph SE6.4 kmh SE 7.0 mph11.3 kmh 29.78 in1008.5 mb 0.01 in0.3 mm 0.00 in/hr0.0 mm/hr 0.02 in0.5 mm
11:14 AM 54.0°F12.2°C 53.2°F11.8°C 97% 2.0 mph SSE3.2 kmh SSE 7.0 mph11.3 kmh 29.78 in1008.5 mb 0.01 in0.3 mm 0.00 in/hr0.0 mm/hr 0.02 in0.5 mm
11:15 AM 54.0°F12.2°C 53.2°F11.8°C 97% 3.0 mph SE4.8 kmh SE 7.0 mph11.3 kmh 29.78 in1008.5 mb 0.01 in0.3 mm 0.00 in/hr0.0 mm/hr 0.02 in0.5 mm
11:16 AM 54.0°F12.2°C 53.2°F11.8°C 97% 3.0 mph SE4.8 kmh SE 7.0 mph11.3 kmh 29.78 in1008.5 mb 0.01 in0.3 mm 0.00 in/hr0.0 mm/hr 0.02 in0.5 mm
11:17 AM 54.0°F12.2°C 53.2°F11.8°C 97% 2.0 mph SSE3.2 kmh SSE 7.0 mph11.3 kmh 29.78 in1008.5 mb 0.01 in0.3 mm 0.00 in/hr0.0 mm/hr 0.02 in0.5 mm
11:18 AM 54.0°F12.2°C 53.2°F11.8°C 97% 3.0 mph SE4.8 kmh SE 7.0 mph11.3 kmh 29.77 in1008.1 mb 0.02 in0.5 mm 0.60 in/hr15.2 mm/hr 0.03 in0.8 mm
11:19 AM 54.1°F12.3°C 53.3°F11.8°C 97% 3.0 mph SE4.8 kmh SE 7.0 mph11.3 kmh 29.77 in1008.1 mb 0.02 in0.5 mm 0.00 in/hr0.0 mm/hr 0.03 in0.8 mm
11:20 AM 54.1°F12.3°C 53.3°F11.8°C 97% 3.0 mph SSE4.8 kmh SSE 7.0 mph11.3 kmh 29.77 in1008.1 mb 0.02 in0.5 mm 0.00 in/hr0.0 mm/hr 0.03 in0.8 mm
11:21 AM 54.1°F12.3°C 53.3°F11.8°C 97% 3.0 mph SSE4.8 kmh SSE 7.0 mph11.3 kmh 29.77 in1008.1 mb 0.02 in0.5 mm 0.00 in/hr0.0 mm/hr 0.03 in0.8 mm
11:22 AM 54.2°F12.3°C 53.4°F11.9°C 97% 5.0 mph SE8.0 kmh SE 7.0 mph11.3 kmh 29.77 in1008.1 mb 0.02 in0.5 mm 0.00 in/hr0.0 mm/hr 0.03 in0.8 mm
11:23 AM 54.2°F12.3°C 53.4°F11.9°C 97% 5.0 mph SSE8.0 kmh SSE 7.0 mph11.3 kmh 29.77 in1008.1 mb 0.02 in0.5 mm 0.00 in/hr0.0 mm/hr 0.03 in0.8 mm
11:24 AM 54.2°F12.3°C 53.4°F11.9°C 97% 3.0 mph S4.8 kmh S 7.0 mph11.3 kmh 29.77 in1008.1 mb 0.02 in0.5 mm 0.00 in/hr0.0 mm/hr 0.03 in0.8 mm
11:26 AM 54.2°F12.3°C 53.4°F11.9°C 97% 4.0 mph SSE6.4 kmh SSE 7.0 mph11.3 kmh 29.77 in1008.1 mb 0.02 in0.5 mm 0.00 in/hr0.0 mm/hr 0.03 in0.8 mm
11:28 AM 54.2°F12.3°C 53.4°F11.9°C 97% 4.0 mph SE6.4 kmh SE 7.0 mph11.3 kmh 29.77 in1008.1 mb 0.02 in0.5 mm 0.00 in/hr0.0 mm/hr 0.03 in0.8 mm
11:29 AM 54.2°F12.3°C 53.4°F11.9°C 97% 6.0 mph SE9.7 kmh SE 8.0 mph12.9 kmh 29.77 in1008.1 mb 0.02 in0.5 mm 0.00 in/hr0.0 mm/hr 0.03 in0.8 mm
11:30 AM 54.3°F12.4°C 53.5°F11.9°C 97% 7.0 mph SE11.3 kmh SE 8.0 mph12.9 kmh 29.77 in1008.1 mb 0.02 in0.5 mm 0.00 in/hr0.0 mm/hr 0.03 in0.8 mm
11:31 AM 54.3°F12.4°C 53.5°F11.9°C 97% 4.0 mph SE6.4 kmh SE 8.0 mph12.9 kmh 29.77 in1008.1 mb 0.02 in0.5 mm 0.00 in/hr0.0 mm/hr 0.03 in0.8 mm
11:32 AM 54.3°F12.4°C 53.5°F11.9°C 97% 5.0 mph SSE8.0 kmh SSE 5.0 mph8.0 kmh 29.77 in1008.1 mb 0.02 in0.5 mm 0.00 in/hr0.0 mm/hr 0.03 in0.8 mm
11:33 AM 54.3°F12.4°C 53.5°F11.9°C 97% 4.0 mph SSE6.4 kmh SSE 6.0 mph9.7 kmh 29.77 in1008.1 mb 0.02 in0.5 mm 0.00 in/hr0.0 mm/hr 0.03 in0.8 mm
11:34 AM 54.3°F12.4°C 53.5°F11.9°C 97% 2.0 mph SSE3.2 kmh SSE 6.0 mph9.7 kmh 29.77 in1008.1 mb 0.02 in0.5 mm 0.00 in/hr0.0 mm/hr 0.03 in0.8 mm
11:35 AM 54.3°F12.4°C 53.5°F11.9°C 97% 3.0 mph SE4.8 kmh SE 6.0 mph9.7 kmh 29.77 in1008.1 mb 0.02 in0.5 mm 0.00 in/hr0.0 mm/hr 0.03 in0.8 mm
11:36 AM 54.3°F12.4°C 53.5°F11.9°C 97% 5.0 mph SE8.0 kmh SE 6.0 mph9.7 kmh 29.77 in1008.1 mb 0.03 in0.8 mm 0.60 in/hr15.2 mm/hr 0.04 in1.0 mm
11:37 AM 54.3°F12.4°C 53.5°F11.9°C 97% 5.0 mph SE8.0 kmh SE 6.0 mph9.7 kmh 29.77 in1008.1 mb 0.03 in0.8 mm 0.00 in/hr0.0 mm/hr 0.04 in1.0 mm
11:38 AM 54.4°F12.4°C 53.6°F12.0°C 97% 4.0 mph SE6.4 kmh SE 6.0 mph9.7 kmh 29.77 in1008.1 mb 0.03 in0.8 mm 0.00 in/hr0.0 mm/hr 0.04 in1.0 mm
11:39 AM 54.4°F12.4°C 53.6°F12.0°C 97% 7.0 mph SE11.3 kmh SE 7.0 mph11.3 kmh 29.77 in1008.1 mb 0.03 in0.8 mm 0.00 in/hr0.0 mm/hr 0.04 in1.0 mm
11:40 AM 54.4°F12.4°C 53.6°F12.0°C 97% 4.0 mph SE6.4 kmh SE 8.0 mph12.9 kmh 29.77 in1008.1 mb 0.03 in0.8 mm 0.00 in/hr0.0 mm/hr 0.04 in1.0 mm
11:41 AM 54.4°F12.4°C 53.6°F12.0°C 97% 3.0 mph S4.8 kmh S 8.0 mph12.9 kmh 29.77 in1008.1 mb 0.03 in0.8 mm 0.00 in/hr0.0 mm/hr 0.04 in1.0 mm
11:42 AM 54.4°F12.4°C 53.6°F12.0°C 97% 3.0 mph SE4.8 kmh SE 8.0 mph12.9 kmh 29.77 in1008.1 mb 0.03 in0.8 mm 0.00 in/hr0.0 mm/hr 0.04 in1.0 mm
11:43 AM 54.5°F12.5°C 53.7°F12.1°C 97% 6.0 mph SE9.7 kmh SE 8.0 mph12.9 kmh 29.77 in1008.1 mb 0.03 in0.8 mm 0.00 in/hr0.0 mm/hr 0.04 in1.0 mm
11:44 AM 54.5°F12.5°C 53.7°F12.1°C 97% 5.0 mph SE8.0 kmh SE 8.0 mph12.9 kmh 29.77 in1008.1 mb 0.03 in0.8 mm 0.00 in/hr0.0 mm/hr 0.04 in1.0 mm
11:45 AM 54.5°F12.5°C 53.7°F12.1°C 97% 4.0 mph SE6.4 kmh SE 8.0 mph12.9 kmh 29.77 in1008.1 mb 0.04 in1.0 mm 0.60 in/hr15.2 mm/hr 0.05 in1.3 mm
11:46 AM 54.6°F12.6°C 53.8°F12.1°C 97% 5.0 mph E8.0 kmh E 8.0 mph12.9 kmh 29.77 in1008.1 mb 0.04 in1.0 mm 0.00 in/hr0.0 mm/hr 0.05 in1.3 mm
11:47 AM 54.5°F12.5°C 53.7°F12.1°C 97% 3.0 mph SSE4.8 kmh SSE 8.0 mph12.9 kmh 29.77 in1008.1 mb 0.04 in1.0 mm 0.00 in/hr0.0 mm/hr 0.05 in1.3 mm
11:48 AM 54.5°F12.5°C 53.7°F12.1°C 97% 2.0 mph SSE3.2 kmh SSE 8.0 mph12.9 kmh 29.77 in1008.1 mb 0.04 in1.0 mm 0.00 in/hr0.0 mm/hr 0.05 in1.3 mm
11:49 AM 54.6°F12.6°C 53.8°F12.1°C 97% 3.0 mph SSE4.8 kmh SSE 8.0 mph12.9 kmh 29.77 in1008.1 mb 0.04 in1.0 mm 0.00 in/hr0.0 mm/hr 0.05 in1.3 mm
11:50 AM 54.6°F12.6°C 53.8°F12.1°C 97% 3.0 mph SSE4.8 kmh SSE 8.0 mph12.9 kmh 29.77 in1008.1 mb 0.04 in1.0 mm 0.00 in/hr0.0 mm/hr 0.05 in1.3 mm
11:51 AM 54.6°F12.6°C 53.8°F12.1°C 97% 3.0 mph SE4.8 kmh SE 8.0 mph12.9 kmh 29.77 in1008.1 mb 0.04 in1.0 mm 0.00 in/hr0.0 mm/hr 0.05 in1.3 mm
11:52 AM 54.6°F12.6°C 53.8°F12.1°C 97% 4.0 mph SSE6.4 kmh SSE 8.0 mph12.9 kmh 29.77 in1008.1 mb 0.04 in1.0 mm 0.00 in/hr0.0 mm/hr 0.05 in1.3 mm
11:53 AM 54.6°F12.6°C 53.8°F12.1°C 97% 5.0 mph SE8.0 kmh SE 8.0 mph12.9 kmh 29.77 in1008.1 mb 0.04 in1.0 mm 0.00 in/hr0.0 mm/hr 0.05 in1.3 mm
11:54 AM 54.6°F12.6°C 53.8°F12.1°C 97% 2.0 mph SE3.2 kmh SE 8.0 mph12.9 kmh 29.77 in1008.1 mb 0.04 in1.0 mm 0.00 in/hr0.0 mm/hr 0.05 in1.3 mm
11:55 AM 54.6°F12.6°C 53.8°F12.1°C 97% 3.0 mph SE4.8 kmh SE 8.0 mph12.9 kmh 29.77 in1008.1 mb 0.04 in1.0 mm 0.00 in/hr0.0 mm/hr 0.05 in1.3 mm
11:56 AM 54.7°F12.6°C 53.9°F12.2°C 97% 2.0 mph SE3.2 kmh SE 8.0 mph12.9 kmh 29.77 in1008.1 mb 0.04 in1.0 mm 0.00 in/hr0.0 mm/hr 0.05 in1.3 mm
11:57 AM 54.7°F12.6°C 53.9°F12.2°C 97% 3.0 mph S4.8 kmh S 8.0 mph12.9 kmh 29.77 in1008.1 mb 0.04 in1.0 mm 0.00 in/hr0.0 mm/hr 0.05 in1.3 mm
11:58 AM 54.8°F12.7°C 54.0°F12.2°C 97% 2.0 mph S3.2 kmh S 8.0 mph12.9 kmh 29.77 in1008.1 mb 0.04 in1.0 mm 0.00 in/hr0.0 mm/hr 0.05 in1.3 mm
11:59 AM 54.8°F12.7°C 54.0°F12.2°C 97% 2.0 mph SE3.2 kmh SE 8.0 mph12.9 kmh 29.76 in1007.8 mb 0.04 in1.0 mm 0.00 in/hr0.0 mm/hr 0.05 in1.3 mm
12:00 PM 54.8°F12.7°C 54.0°F12.2°C 97% 3.0 mph SE4.8 kmh SE 8.0 mph12.9 kmh 29.76 in1007.8 mb 0.04 in1.0 mm 0.00 in/hr0.0 mm/hr 0.05 in1.3 mm
12:01 PM 54.9°F12.7°C 54.1°F12.3°C 97% 3.0 mph SE4.8 kmh SE 8.0 mph12.9 kmh 29.77 in1008.1 mb 0.04 in1.0 mm 0.00 in/hr0.0 mm/hr 0.05 in1.3 mm
12:02 PM 54.9°F12.7°C 54.1°F12.3°C 97% 4.0 mph SE6.4 kmh SE 4.0 mph6.4 kmh 29.77 in1008.1 mb 0.03 in0.8 mm 0.00 in/hr0.0 mm/hr 0.05 in1.3 mm
12:03 PM 55.0°F12.8°C 54.2°F12.3°C 97% 6.0 mph SE9.7 kmh SE 7.0 mph11.3 kmh 29.77 in1008.1 mb 0.03 in0.8 mm 0.00 in/hr0.0 mm/hr 0.05 in1.3 mm
12:04 PM 55.0°F12.8°C 54.2°F12.3°C 97% 3.0 mph SE4.8 kmh SE 7.0 mph11.3 kmh 29.77 in1008.1 mb 0.03 in0.8 mm 0.00 in/hr0.0 mm/hr 0.05 in1.3 mm
12:05 PM 55.0°F12.8°C 54.2°F12.3°C 97% 4.0 mph SE6.4 kmh SE 7.0 mph11.3 kmh 29.77 in1008.1 mb 0.03 in0.8 mm 0.00 in/hr0.0 mm/hr 0.05 in1.3 mm
12:06 PM 55.0°F12.8°C 54.2°F12.3°C 97% 6.0 mph SE9.7 kmh SE 8.0 mph12.9 kmh 29.77 in1008.1 mb 0.04 in1.0 mm 0.60 in/hr15.2 mm/hr 0.06 in1.5 mm
12:07 PM 55.0°F12.8°C 54.2°F12.3°C 97% 4.0 mph SE6.4 kmh SE 8.0 mph12.9 kmh 29.77 in1008.1 mb 0.04 in1.0 mm 0.00 in/hr0.0 mm/hr 0.06 in1.5 mm
12:08 PM 55.0°F12.8°C 54.2°F12.3°C 97% 6.0 mph SSE9.7 kmh SSE 8.0 mph12.9 kmh 29.77 in1008.1 mb 0.04 in1.0 mm 0.00 in/hr0.0 mm/hr 0.06 in1.5 mm
12:09 PM 55.0°F12.8°C 54.2°F12.3°C 97% 5.0 mph SE8.0 kmh SE 8.0 mph12.9 kmh 29.77 in1008.1 mb 0.04 in1.0 mm 0.00 in/hr0.0 mm/hr 0.06 in1.5 mm
12:10 PM 55.0°F12.8°C 54.2°F12.3°C 97% 7.0 mph SSE11.3 kmh SSE 8.0 mph12.9 kmh 29.77 in1008.1 mb 0.04 in1.0 mm 0.00 in/hr0.0 mm/hr 0.06 in1.5 mm
12:11 PM 55.0°F12.8°C 54.2°F12.3°C 97% 4.0 mph SSE6.4 kmh SSE 8.0 mph12.9 kmh 29.77 in1008.1 mb 0.04 in1.0 mm 0.00 in/hr0.0 mm/hr 0.06 in1.5 mm
12:12 PM 54.9°F12.7°C 54.1°F12.3°C 97% 4.0 mph SSE6.4 kmh SSE 10.0 mph16.1 kmh 29.77 in1008.1 mb 0.04 in1.0 mm 0.00 in/hr0.0 mm/hr 0.06 in1.5 mm
12:13 PM 54.9°F12.7°C 54.1°F12.3°C 97% 4.0 mph S6.4 kmh S 10.0 mph16.1 kmh 29.77 in1008.1 mb 0.04 in1.0 mm 0.00 in/hr0.0 mm/hr 0.06 in1.5 mm
12:14 PM 54.9°F12.7°C 54.1°F12.3°C 97% 4.0 mph SSE6.4 kmh SSE 10.0 mph16.1 kmh 29.77 in1008.1 mb 0.04 in1.0 mm 0.00 in/hr0.0 mm/hr 0.06 in1.5 mm
12:15 PM 54.9°F12.7°C 54.1°F12.3°C 97% 4.0 mph SE6.4 kmh SE 10.0 mph16.1 kmh 29.77 in1008.1 mb 0.04 in1.0 mm 0.00 in/hr0.0 mm/hr 0.06 in1.5 mm
12:16 PM 54.9°F12.7°C 54.1°F12.3°C 97% 4.0 mph SE6.4 kmh SE 10.0 mph16.1 kmh 29.77 in1008.1 mb 0.04 in1.0 mm 0.00 in/hr0.0 mm/hr 0.06 in1.5 mm
12:17 PM 54.9°F12.7°C 54.1°F12.3°C 97% 6.0 mph SE9.7 kmh SE 10.0 mph16.1 kmh 29.77 in1008.1 mb 0.04 in1.0 mm 0.00 in/hr0.0 mm/hr 0.06 in1.5 mm
12:18 PM 54.9°F12.7°C 54.1°F12.3°C 97% 6.0 mph SE9.7 kmh SE 10.0 mph16.1 kmh 29.77 in1008.1 mb 0.04 in1.0 mm 0.00 in/hr0.0 mm/hr 0.06 in1.5 mm
12:19 PM 54.9°F12.7°C 54.1°F12.3°C 97% 6.0 mph SSE9.7 kmh SSE 10.0 mph16.1 kmh 29.77 in1008.1 mb 0.04 in1.0 mm 0.00 in/hr0.0 mm/hr 0.06 in1.5 mm
12:20 PM 54.9°F12.7°C 54.1°F12.3°C 97% 8.0 mph SSE12.9 kmh SSE 10.0 mph16.1 kmh 29.77 in1008.1 mb 0.04 in1.0 mm 0.00 in/hr0.0 mm/hr 0.06 in1.5 mm
12:21 PM 54.9°F12.7°C 54.1°F12.3°C 97% 4.0 mph SE6.4 kmh SE 10.0 mph16.1 kmh 29.77 in1008.1 mb 0.04 in1.0 mm 0.00 in/hr0.0 mm/hr 0.06 in1.5 mm
12:22 PM 54.9°F12.7°C 54.1°F12.3°C 97% 5.0 mph S8.0 kmh S 10.0 mph16.1 kmh 29.77 in1008.1 mb 0.04 in1.0 mm 0.00 in/hr0.0 mm/hr 0.06 in1.5 mm
12:23 PM 54.9°F12.7°C 54.1°F12.3°C 97% 5.0 mph SSE8.0 kmh SSE 10.0 mph16.1 kmh 29.77 in1008.1 mb 0.04 in1.0 mm 0.00 in/hr0.0 mm/hr 0.06 in1.5 mm
12:24 PM 54.9°F12.7°C 54.1°F12.3°C 97% 5.0 mph SSE8.0 kmh SSE 10.0 mph16.1 kmh 29.77 in1008.1 mb 0.04 in1.0 mm 0.00 in/hr0.0 mm/hr 0.06 in1.5 mm
12:25 PM 54.9°F12.7°C 54.1°F12.3°C 97% 3.0 mph SSE4.8 kmh SSE 10.0 mph16.1 kmh 29.77 in1008.1 mb 0.04 in1.0 mm 0.00 in/hr0.0 mm/hr 0.06 in1.5 mm
12:26 PM 54.9°F12.7°C 54.1°F12.3°C 97% 4.0 mph SSE6.4 kmh SSE 10.0 mph16.1 kmh 29.77 in1008.1 mb 0.04 in1.0 mm 0.00 in/hr0.0 mm/hr 0.06 in1.5 mm
12:27 PM 54.9°F12.7°C 54.1°F12.3°C 97% 6.0 mph SSE9.7 kmh SSE 10.0 mph16.1 kmh 29.77 in1008.1 mb 0.04 in1.0 mm 0.00 in/hr0.0 mm/hr 0.06 in1.5 mm
12:28 PM 55.0°F12.8°C 54.2°F12.3°C 97% 7.0 mph SE11.3 kmh SE 10.0 mph16.1 kmh 29.77 in1008.1 mb 0.04 in1.0 mm 0.00 in/hr0.0 mm/hr 0.06 in1.5 mm
12:29 PM 55.0°F12.8°C 54.2°F12.3°C 97% 4.0 mph SSE6.4 kmh SSE 10.0 mph16.1 kmh 29.76 in1007.8 mb 0.04 in1.0 mm 0.00 in/hr0.0 mm/hr 0.06 in1.5 mm
12:30 PM 55.0°F12.8°C 54.2°F12.3°C 97% 8.0 mph SSE12.9 kmh SSE 10.0 mph16.1 kmh 29.76 in1007.8 mb 0.04 in1.0 mm 0.00 in/hr0.0 mm/hr 0.06 in1.5 mm
12:31 PM 55.0°F12.8°C 54.2°F12.3°C 97% 4.0 mph SE6.4 kmh SE 10.0 mph16.1 kmh 29.76 in1007.8 mb 0.04 in1.0 mm 0.00 in/hr0.0 mm/hr 0.06 in1.5 mm
12:32 PM 55.1°F12.8°C 54.3°F12.4°C 97% 4.0 mph SSE6.4 kmh SSE 8.0 mph12.9 kmh 29.76 in1007.8 mb 0.03 in0.8 mm 0.00 in/hr0.0 mm/hr 0.06 in1.5 mm
12:33 PM 55.1°F12.8°C 54.3°F12.4°C 97% 8.0 mph SSE12.9 kmh SSE 9.0 mph14.5 kmh 29.76 in1007.8 mb 0.03 in0.8 mm 0.00 in/hr0.0 mm/hr 0.06 in1.5 mm
12:34 PM 55.2°F12.9°C 54.4°F12.4°C 97% 5.0 mph SSE8.0 kmh SSE 9.0 mph14.5 kmh 29.76 in1007.8 mb 0.03 in0.8 mm 0.00 in/hr0.0 mm/hr 0.06 in1.5 mm
12:35 PM 55.3°F12.9°C 54.5°F12.5°C 97% 5.0 mph SE8.0 kmh SE 9.0 mph14.5 kmh 29.76 in1007.8 mb 0.03 in0.8 mm 0.00 in/hr0.0 mm/hr 0.06 in1.5 mm
12:36 PM 55.4°F13.0°C 54.6°F12.6°C 97% 7.0 mph S11.3 kmh S 9.0 mph14.5 kmh 29.76 in1007.8 mb 0.03 in0.8 mm 0.00 in/hr0.0 mm/hr 0.06 in1.5 mm
12:37 PM 55.5°F13.1°C 54.7°F12.6°C 97% 3.0 mph SE4.8 kmh SE 9.0 mph14.5 kmh 29.76 in1007.8 mb 0.03 in0.8 mm 0.00 in/hr0.0 mm/hr 0.06 in1.5 mm
12:38 PM 55.6°F13.1°C 54.8°F12.7°C 97% 7.0 mph SE11.3 kmh SE 9.0 mph14.5 kmh 29.75 in1007.5 mb 0.03 in0.8 mm 0.00 in/hr0.0 mm/hr 0.06 in1.5 mm
12:39 PM 55.7°F13.2°C 54.9°F12.7°C 97% 9.0 mph SSE14.5 kmh SSE 10.0 mph16.1 kmh 29.75 in1007.5 mb 0.03 in0.8 mm 0.00 in/hr0.0 mm/hr 0.06 in1.5 mm
12:40 PM 55.8°F13.2°C 55.0°F12.8°C 97% 6.0 mph SSE9.7 kmh SSE 10.0 mph16.1 kmh 29.75 in1007.5 mb 0.03 in0.8 mm 0.00 in/hr0.0 mm/hr 0.06 in1.5 mm
12:41 PM 55.9°F13.3°C 55.1°F12.8°C 97% 6.0 mph SE9.7 kmh SE 10.0 mph16.1 kmh 29.75 in1007.5 mb 0.03 in0.8 mm 0.00 in/hr0.0 mm/hr 0.06 in1.5 mm
12:42 PM 56.0°F13.3°C 55.2°F12.9°C 97% 5.0 mph SE8.0 kmh SE 10.0 mph16.1 kmh 29.75 in1007.5 mb 0.03 in0.8 mm 0.00 in/hr0.0 mm/hr 0.06 in1.5 mm
12:43 PM 56.0°F13.3°C 55.2°F12.9°C 97% 7.0 mph SSE11.3 kmh SSE 10.0 mph16.1 kmh 29.75 in1007.5 mb 0.03 in0.8 mm 0.00 in/hr0.0 mm/hr 0.06 in1.5 mm
12:44 PM 56.1°F13.4°C 55.3°F12.9°C 97% 9.0 mph SE14.5 kmh SE 10.0 mph16.1 kmh 29.75 in1007.5 mb 0.03 in0.8 mm 0.00 in/hr0.0 mm/hr 0.06 in1.5 mm
12:45 PM 56.3°F13.5°C 55.5°F13.1°C 97% 4.0 mph SE6.4 kmh SE 10.0 mph16.1 kmh 29.75 in1007.5 mb 0.03 in0.8 mm 0.00 in/hr0.0 mm/hr 0.06 in1.5 mm
12:46 PM 56.4°F13.6°C 55.6°F13.1°C 97% 9.0 mph SE14.5 kmh SE 10.0 mph16.1 kmh 29.75 in1007.5 mb 0.03 in0.8 mm 0.00 in/hr0.0 mm/hr 0.06 in1.5 mm
12:47 PM 56.5°F13.6°C 55.7°F13.2°C 97% 7.0 mph SE11.3 kmh SE 11.0 mph17.7 kmh 29.75 in1007.5 mb 0.03 in0.8 mm 0.00 in/hr0.0 mm/hr 0.06 in1.5 mm
12:48 PM 56.6°F13.7°C 56.0°F13.3°C 98% 7.0 mph SE11.3 kmh SE 11.0 mph17.7 kmh 29.75 in1007.5 mb 0.03 in0.8 mm 0.00 in/hr0.0 mm/hr 0.06 in1.5 mm
12:49 PM 56.8°F13.8°C 56.2°F13.4°C 98% 10.0 mph ESE16.1 kmh ESE 11.0 mph17.7 kmh 29.75 in1007.5 mb 0.03 in0.8 mm 0.00 in/hr0.0 mm/hr 0.06 in1.5 mm
12:50 PM 56.8°F13.8°C 56.0°F13.3°C 97% 4.0 mph SE6.4 kmh SE 11.0 mph17.7 kmh 29.75 in1007.5 mb 0.03 in0.8 mm 0.00 in/hr0.0 mm/hr 0.06 in1.5 mm
12:51 PM 56.9°F13.8°C 56.1°F13.4°C 97% 7.0 mph SSE11.3 kmh SSE 11.0 mph17.7 kmh 29.75 in1007.5 mb 0.03 in0.8 mm 0.00 in/hr0.0 mm/hr 0.06 in1.5 mm
12:52 PM 57.0°F13.9°C 56.4°F13.6°C 98% 5.0 mph SSE8.0 kmh SSE 11.0 mph17.7 kmh 29.75 in1007.5 mb 0.03 in0.8 mm 0.00 in/hr0.0 mm/hr 0.06 in1.5 mm
12:53 PM 57.1°F13.9°C 56.5°F13.6°C 98% 5.0 mph SE8.0 kmh SE 11.0 mph17.7 kmh 29.75 in1007.5 mb 0.03 in0.8 mm 0.00 in/hr0.0 mm/hr 0.06 in1.5 mm
12:54 PM 57.2°F14.0°C 56.4°F13.6°C 97% 5.0 mph SE8.0 kmh SE 12.0 mph19.3 kmh 29.75 in1007.5 mb 0.03 in0.8 mm 0.00 in/hr0.0 mm/hr 0.06 in1.5 mm
12:55 PM 57.2°F14.0°C 56.4°F13.6°C 97% 8.0 mph S12.9 kmh S 12.0 mph19.3 kmh 29.74 in1007.1 mb 0.03 in0.8 mm 0.00 in/hr0.0 mm/hr 0.06 in1.5 mm
12:56 PM 57.2°F14.0°C 56.4°F13.6°C 97% 6.0 mph SSE9.7 kmh SSE 12.0 mph19.3 kmh 29.75 in1007.5 mb 0.03 in0.8 mm 0.00 in/hr0.0 mm/hr 0.06 in1.5 mm
12:57 PM 57.1°F13.9°C 56.3°F13.5°C 97% 7.0 mph SSE11.3 kmh SSE 12.0 mph19.3 kmh 29.75 in1007.5 mb 0.03 in0.8 mm 0.00 in/hr0.0 mm/hr 0.06 in1.5 mm
12:58 PM 57.1°F13.9°C 56.3°F13.5°C 97% 4.0 mph SE6.4 kmh SE 12.0 mph19.3 kmh 29.74 in1007.1 mb 0.03 in0.8 mm 0.00 in/hr0.0 mm/hr 0.06 in1.5 mm
12:59 PM 57.1°F13.9°C 56.0°F13.3°C 96% 7.0 mph SE11.3 kmh SE 12.0 mph19.3 kmh 29.74 in1007.1 mb 0.03 in0.8 mm 0.00 in/hr0.0 mm/hr 0.06 in1.5 mm
01:00 PM 57.1°F13.9°C 56.0°F13.3°C 96% 8.0 mph SSE12.9 kmh SSE 12.0 mph19.3 kmh 29.74 in1007.1 mb 0.03 in0.8 mm 0.00 in/hr0.0 mm/hr 0.06 in1.5 mm
01:01 PM 57.2°F14.0°C 56.1°F13.4°C 96% 9.0 mph ESE14.5 kmh ESE 12.0 mph19.3 kmh 29.74 in1007.1 mb 0.03 in0.8 mm 0.00 in/hr0.0 mm/hr 0.06 in1.5 mm
01:02 PM 57.2°F14.0°C 56.1°F13.4°C 96% 8.0 mph SE12.9 kmh SE 10.0 mph16.1 kmh 29.74 in1007.1 mb 0.01 in0.3 mm 0.00 in/hr0.0 mm/hr 0.06 in1.5 mm
01:03 PM 57.2°F14.0°C 56.1°F13.4°C 96% 7.0 mph SE11.3 kmh SE 13.0 mph20.9 kmh 29.74 in1007.1 mb 0.01 in0.3 mm 0.00 in/hr0.0 mm/hr 0.06 in1.5 mm
01:04 PM 57.2°F14.0°C 56.1°F13.4°C 96% 5.0 mph SE8.0 kmh SE 13.0 mph20.9 kmh 29.74 in1007.1 mb 0.01 in0.3 mm 0.00 in/hr0.0 mm/hr 0.06 in1.5 mm
01:05 PM 57.2°F14.0°C 56.1°F13.4°C 96% 9.0 mph E14.5 kmh E 13.0 mph20.9 kmh 29.74 in1007.1 mb 0.01 in0.3 mm 0.00 in/hr0.0 mm/hr 0.06 in1.5 mm
01:06 PM 57.2°F14.0°C 56.1°F13.4°C 96% 7.0 mph SE11.3 kmh SE 14.0 mph22.5 kmh 29.74 in1007.1 mb 0.01 in0.3 mm 0.00 in/hr0.0 mm/hr 0.06 in1.5 mm
01:07 PM 57.2°F14.0°C 56.1°F13.4°C 96% 7.0 mph SE11.3 kmh SE 14.0 mph22.5 kmh 29.74 in1007.1 mb 0.01 in0.3 mm 0.00 in/hr0.0 mm/hr 0.06 in1.5 mm
01:08 PM 57.2°F14.0°C 56.1°F13.4°C 96% 9.0 mph SSE14.5 kmh SSE 14.0 mph22.5 kmh 29.74 in1007.1 mb 0.01 in0.3 mm 0.00 in/hr0.0 mm/hr 0.06 in1.5 mm
01:09 PM 57.2°F14.0°C 56.1°F13.4°C 96% 6.0 mph SSE9.7 kmh SSE 14.0 mph22.5 kmh 29.74 in1007.1 mb 0.01 in0.3 mm 0.00 in/hr0.0 mm/hr 0.06 in1.5 mm
01:10 PM 57.3°F14.1°C 56.2°F13.4°C 96% 5.0 mph SE8.0 kmh SE 14.0 mph22.5 kmh 29.74 in1007.1 mb 0.01 in0.3 mm 0.00 in/hr0.0 mm/hr 0.06 in1.5 mm
01:11 PM 57.3°F14.1°C 56.2°F13.4°C 96% 4.0 mph S6.4 kmh S 14.0 mph22.5 kmh 29.74 in1007.1 mb 0.01 in0.3 mm 0.00 in/hr0.0 mm/hr 0.06 in1.5 mm
01:12 PM 57.5°F14.2°C 56.4°F13.6°C 96% 5.0 mph SE8.0 kmh SE 14.0 mph22.5 kmh 29.75 in1007.5 mb 0.01 in0.3 mm 0.00 in/hr0.0 mm/hr 0.06 in1.5 mm
01:13 PM 57.5°F14.2°C 56.4°F13.6°C 96% 8.0 mph SE12.9 kmh SE 14.0 mph22.5 kmh 29.74 in1007.1 mb 0.01 in0.3 mm 0.00 in/hr0.0 mm/hr 0.06 in1.5 mm
01:14 PM 57.6°F14.2°C 56.5°F13.6°C 96% 6.0 mph SE9.7 kmh SE 14.0 mph22.5 kmh 29.75 in1007.5 mb 0.01 in0.3 mm 0.00 in/hr0.0 mm/hr 0.06 in1.5 mm
01:15 PM 57.7°F14.3°C 56.6°F13.7°C 96% 7.0 mph SSE11.3 kmh SSE 14.0 mph22.5 kmh 29.75 in1007.5 mb 0.01 in0.3 mm 0.00 in/hr0.0 mm/hr 0.06 in1.5 mm
01:16 PM 57.7°F14.3°C 56.3°F13.5°C 95% 7.0 mph S11.3 kmh S 14.0 mph22.5 kmh 29.75 in1007.5 mb 0.01 in0.3 mm 0.00 in/hr0.0 mm/hr 0.06 in1.5 mm
01:17 PM 57.8°F14.3°C 56.4°F13.6°C 95% 7.0 mph S11.3 kmh S 14.0 mph22.5 kmh 29.75 in1007.5 mb 0.01 in0.3 mm 0.00 in/hr0.0 mm/hr 0.06 in1.5 mm
01:18 PM 57.8°F14.3°C 56.4°F13.6°C 95% 6.0 mph S9.7 kmh S 14.0 mph22.5 kmh 29.75 in1007.5 mb 0.01 in0.3 mm 0.00 in/hr0.0 mm/hr 0.06 in1.5 mm
01:19 PM 57.8°F14.3°C 56.4°F13.6°C 95% 9.0 mph S14.5 kmh S 14.0 mph22.5 kmh 29.75 in1007.5 mb 0.01 in0.3 mm 0.00 in/hr0.0 mm/hr 0.06 in1.5 mm
01:20 PM 57.9°F14.4°C 56.5°F13.6°C 95% 5.0 mph ESE8.0 kmh ESE 14.0 mph22.5 kmh 29.75 in1007.5 mb 0.01 in0.3 mm 0.00 in/hr0.0 mm/hr 0.06 in1.5 mm
01:21 PM 57.9°F14.4°C 56.5°F13.6°C 95% 7.0 mph S11.3 kmh S 14.0 mph22.5 kmh 29.74 in1007.1 mb 0.01 in0.3 mm 0.00 in/hr0.0 mm/hr 0.06 in1.5 mm
01:22 PM 58.0°F14.4°C 56.6°F13.7°C 95% 8.0 mph SE12.9 kmh SE 14.0 mph22.5 kmh 29.75 in1007.5 mb 0.01 in0.3 mm 0.00 in/hr0.0 mm/hr 0.06 in1.5 mm
01:23 PM 58.0°F14.4°C 56.6°F13.7°C 95% 7.0 mph ESE11.3 kmh ESE 14.0 mph22.5 kmh 29.75 in1007.5 mb 0.01 in0.3 mm 0.00 in/hr0.0 mm/hr 0.06 in1.5 mm
01:24 PM 58.1°F14.5°C 56.7°F13.7°C 95% 7.0 mph S11.3 kmh S 14.0 mph22.5 kmh 29.75 in1007.5 mb 0.01 in0.3 mm 0.00 in/hr0.0 mm/hr 0.06 in1.5 mm
01:25 PM 58.1°F14.5°C 56.4°F13.6°C 94% 10.0 mph SE16.1 kmh SE 14.0 mph22.5 kmh 29.75 in1007.5 mb 0.01 in0.3 mm 0.00 in/hr0.0 mm/hr 0.06 in1.5 mm
01:26 PM 58.1°F14.5°C 56.4°F13.6°C 94% 8.0 mph SSE12.9 kmh SSE 14.0 mph22.5 kmh 29.75 in1007.5 mb 0.01 in0.3 mm 0.00 in/hr0.0 mm/hr 0.06 in1.5 mm
01:27 PM 58.1°F14.5°C 56.4°F13.6°C 94% 5.0 mph SSE8.0 kmh SSE 14.0 mph22.5 kmh 29.75 in1007.5 mb 0.01 in0.3 mm 0.00 in/hr0.0 mm/hr 0.06 in1.5 mm
01:28 PM 58.0°F14.4°C 56.3°F13.5°C 94% 6.0 mph SSE9.7 kmh SSE 14.0 mph22.5 kmh 29.75 in1007.5 mb 0.01 in0.3 mm 0.00 in/hr0.0 mm/hr 0.06 in1.5 mm
01:29 PM 58.1°F14.5°C 56.4°F13.6°C 94% 9.0 mph SSE14.5 kmh SSE 14.0 mph22.5 kmh 29.75 in1007.5 mb 0.01 in0.3 mm 0.00 in/hr0.0 mm/hr 0.06 in1.5 mm
01:30 PM 58.0°F14.4°C 56.0°F13.3°C 93% 5.0 mph SSE8.0 kmh SSE 14.0 mph22.5 kmh 29.75 in1007.5 mb 0.01 in0.3 mm 0.00 in/hr0.0 mm/hr 0.06 in1.5 mm
01:31 PM 58.0°F14.4°C 56.0°F13.3°C 93% 7.0 mph SE11.3 kmh SE 14.0 mph22.5 kmh 29.75 in1007.5 mb 0.01 in0.3 mm 0.00 in/hr0.0 mm/hr 0.06 in1.5 mm
01:32 PM 58.0°F14.4°C 56.0°F13.3°C 93% 5.0 mph SSE8.0 kmh SSE 9.0 mph14.5 kmh 29.75 in1007.5 mb 0.00 in0.0 mm 0.00 in/hr0.0 mm/hr 0.06 in1.5 mm
01:33 PM 58.1°F14.5°C 56.1°F13.4°C 93% 5.0 mph SE8.0 kmh SE 9.0 mph14.5 kmh 29.75 in1007.5 mb 0.00 in0.0 mm 0.00 in/hr0.0 mm/hr 0.06 in1.5 mm
01:34 PM 58.0°F14.4°C 56.0°F13.3°C 93% 5.0 mph SE8.0 kmh SE 9.0 mph14.5 kmh 29.75 in1007.5 mb 0.00 in0.0 mm 0.00 in/hr0.0 mm/hr 0.06 in1.5 mm
01:35 PM 58.1°F14.5°C 56.1°F13.4°C 93% 6.0 mph SSE9.7 kmh SSE 9.0 mph14.5 kmh 29.75 in1007.5 mb 0.00 in0.0 mm 0.00 in/hr0.0 mm/hr 0.06 in1.5 mm
01:36 PM 58.1°F14.5°C 56.1°F13.4°C 93% 10.0 mph ESE16.1 kmh ESE 12.0 mph19.3 kmh 29.75 in1007.5 mb 0.00 in0.0 mm 0.00 in/hr0.0 mm/hr 0.06 in1.5 mm
01:37 PM 58.1°F14.5°C 56.1°F13.4°C 93% 9.0 mph SSE14.5 kmh SSE 12.0 mph19.3 kmh 29.75 in1007.5 mb 0.00 in0.0 mm 0.00 in/hr0.0 mm/hr 0.06 in1.5 mm
01:38 PM 58.1°F14.5°C 56.1°F13.4°C 93% 6.0 mph SSE9.7 kmh SSE 12.0 mph19.3 kmh 29.75 in1007.5 mb 0.00 in0.0 mm 0.00 in/hr0.0 mm/hr 0.06 in1.5 mm
01:39 PM 58.1°F14.5°C 56.1°F13.4°C 93% 4.0 mph ESE6.4 kmh ESE 12.0 mph19.3 kmh 29.75 in1007.5 mb 0.00 in0.0 mm 0.00 in/hr0.0 mm/hr 0.06 in1.5 mm
01:40 PM 58.1°F14.5°C 56.1°F13.4°C 93% 9.0 mph SSE14.5 kmh SSE 12.0 mph19.3 kmh 29.75 in1007.5 mb 0.00 in0.0 mm 0.00 in/hr0.0 mm/hr 0.06 in1.5 mm
01:41 PM 58.1°F14.5°C 55.8°F13.2°C 92% 12.0 mph SE19.3 kmh SE 12.0 mph19.3 kmh 29.74 in1007.1 mb 0.00 in0.0 mm 0.00 in/hr0.0 mm/hr 0.06 in1.5 mm
01:42 PM 58.1°F14.5°C 55.8°F13.2°C 92% 6.0 mph SSE9.7 kmh SSE 13.0 mph20.9 kmh 29.75 in1007.5 mb 0.00 in0.0 mm 0.00 in/hr0.0 mm/hr 0.06 in1.5 mm
01:43 PM 58.1°F14.5°C 55.8°F13.2°C 92% 9.0 mph SE14.5 kmh SE 13.0 mph20.9 kmh 29.74 in1007.1 mb 0.00 in0.0 mm 0.00 in/hr0.0 mm/hr 0.06 in1.5 mm
01:44 PM 58.1°F14.5°C 55.8°F13.2°C 92% 6.0 mph SSE9.7 kmh SSE 13.0 mph20.9 kmh 29.74 in1007.1 mb 0.00 in0.0 mm 0.00 in/hr0.0 mm/hr 0.06 in1.5 mm
01:45 PM 58.1°F14.5°C 55.8°F13.2°C 92% 5.0 mph SE8.0 kmh SE 13.0 mph20.9 kmh 29.74 in1007.1 mb 0.00 in0.0 mm 0.00 in/hr0.0 mm/hr 0.06 in1.5 mm
01:46 PM 58.1°F14.5°C 55.8°F13.2°C 92% 8.0 mph SE12.9 kmh SE 13.0 mph20.9 kmh 29.74 in1007.1 mb 0.00 in0.0 mm 0.00 in/hr0.0 mm/hr 0.06 in1.5 mm
01:47 PM 58.1°F14.5°C 55.8°F13.2°C 92% 6.0 mph SSE9.7 kmh SSE 13.0 mph20.9 kmh 29.74 in1007.1 mb 0.00 in0.0 mm 0.00 in/hr0.0 mm/hr 0.06 in1.5 mm
01:48 PM 58.2°F14.6°C 55.9°F13.3°C 92% 5.0 mph SE8.0 kmh SE 13.0 mph20.9 kmh 29.74 in1007.1 mb 0.00 in0.0 mm 0.00 in/hr0.0 mm/hr 0.06 in1.5 mm
01:49 PM 58.2°F14.6°C 55.9°F13.3°C 92% 10.0 mph SE16.1 kmh SE 13.0 mph20.9 kmh 29.74 in1007.1 mb 0.00 in0.0 mm 0.00 in/hr0.0 mm/hr 0.06 in1.5 mm
01:50 PM 58.2°F14.6°C 55.9°F13.3°C 92% 11.0 mph SSE17.7 kmh SSE 13.0 mph20.9 kmh 29.74 in1007.1 mb 0.00 in0.0 mm 0.00 in/hr0.0 mm/hr 0.06 in1.5 mm
01:51 PM 58.2°F14.6°C 55.9°F13.3°C 92% 11.0 mph S17.7 kmh S 13.0 mph20.9 kmh 29.74 in1007.1 mb 0.00 in0.0 mm 0.00 in/hr0.0 mm/hr 0.06 in1.5 mm
01:52 PM 58.2°F14.6°C 55.9°F13.3°C 92% 6.0 mph S9.7 kmh S 13.0 mph20.9 kmh 29.74 in1007.1 mb 0.00 in0.0 mm 0.00 in/hr0.0 mm/hr 0.06 in1.5 mm
01:53 PM 58.2°F14.6°C 55.9°F13.3°C 92% 4.0 mph SSE6.4 kmh SSE 13.0 mph20.9 kmh 29.74 in1007.1 mb 0.00 in0.0 mm 0.00 in/hr0.0 mm/hr 0.06 in1.5 mm
01:54 PM 58.2°F14.6°C 55.9°F13.3°C 92% 7.0 mph SE11.3 kmh SE 13.0 mph20.9 kmh 29.74 in1007.1 mb 0.00 in0.0 mm 0.00 in/hr0.0 mm/hr 0.06 in1.5 mm
01:55 PM 58.3°F14.6°C 56.0°F13.3°C 92% 5.0 mph SSE8.0 kmh SSE 13.0 mph20.9 kmh 29.74 in1007.1 mb 0.00 in0.0 mm 0.00 in/hr0.0 mm/hr 0.06 in1.5 mm
01:56 PM 58.3°F14.6°C 56.0°F13.3°C 92% 7.0 mph SE11.3 kmh SE 13.0 mph20.9 kmh 29.74 in1007.1 mb 0.00 in0.0 mm 0.00 in/hr0.0 mm/hr 0.06 in1.5 mm
01:57 PM 58.3°F14.6°C 56.3°F13.5°C 93% 6.0 mph SSE9.7 kmh SSE 13.0 mph20.9 kmh 29.74 in1007.1 mb 0.00 in0.0 mm 0.00 in/hr0.0 mm/hr 0.06 in1.5 mm
01:58 PM 58.4°F14.7°C 56.1°F13.4°C 92% 7.0 mph SE11.3 kmh SE 13.0 mph20.9 kmh 29.74 in1007.1 mb 0.00 in0.0 mm 0.00 in/hr0.0 mm/hr 0.06 in1.5 mm
01:59 PM 58.4°F14.7°C 56.1°F13.4°C 92% 7.0 mph SE11.3 kmh SE 13.0 mph20.9 kmh 29.74 in1007.1 mb 0.00 in0.0 mm 0.00 in/hr0.0 mm/hr 0.06 in1.5 mm
02:00 PM 58.4°F14.7°C 56.1°F13.4°C 92% 12.0 mph SE19.3 kmh SE 13.0 mph20.9 kmh 29.74 in1007.1 mb 0.00 in0.0 mm 0.00 in/hr0.0 mm/hr 0.06 in1.5 mm
02:01 PM 58.3°F14.6°C 56.0°F13.3°C 92% 5.0 mph S8.0 kmh S 13.0 mph20.9 kmh 29.74 in1007.1 mb 0.00 in0.0 mm 0.00 in/hr0.0 mm/hr 0.06 in1.5 mm
02:02 PM 58.4°F14.7°C 56.1°F13.4°C 92% 10.0 mph SE16.1 kmh SE 12.0 mph19.3 kmh 29.74 in1007.1 mb 0.00 in0.0 mm 0.00 in/hr0.0 mm/hr 0.06 in1.5 mm
02:03 PM 58.4°F14.7°C 56.1°F13.4°C 92% 7.0 mph SE11.3 kmh SE 12.0 mph19.3 kmh 29.74 in1007.1 mb 0.00 in0.0 mm 0.00 in/hr0.0 mm/hr 0.06 in1.5 mm
02:04 PM 58.4°F14.7°C 56.1°F13.4°C 92% 7.0 mph SE11.3 kmh SE 12.0 mph19.3 kmh 29.74 in1007.1 mb 0.00 in0.0 mm 0.00 in/hr0.0 mm/hr 0.06 in1.5 mm
02:05 PM 58.4°F14.7°C 56.1°F13.4°C 92% 8.0 mph SSE12.9 kmh SSE 12.0 mph19.3 kmh 29.74 in1007.1 mb 0.00 in0.0 mm 0.00 in/hr0.0 mm/hr 0.06 in1.5 mm
02:06 PM 58.4°F14.7°C 56.1°F13.4°C 92% 7.0 mph S11.3 kmh S 12.0 mph19.3 kmh 29.74 in1007.1 mb 0.00 in0.0 mm 0.00 in/hr0.0 mm/hr 0.06 in1.5 mm
02:07 PM 58.4°F14.7°C 56.1°F13.4°C 92% 6.0 mph SSE9.7 kmh SSE 12.0 mph19.3 kmh 29.74 in1007.1 mb 0.00 in0.0 mm 0.00 in/hr0.0 mm/hr 0.06 in1.5 mm
02:08 PM 58.4°F14.7°C 56.1°F13.4°C 92% 8.0 mph S12.9 kmh S 12.0 mph19.3 kmh 29.74 in1007.1 mb 0.00 in0.0 mm 0.00 in/hr0.0 mm/hr 0.06 in1.5 mm
02:09 PM 58.4°F14.7°C 56.1°F13.4°C 92% 5.0 mph SSE8.0 kmh SSE 12.0 mph19.3 kmh 29.74 in1007.1 mb 0.00 in0.0 mm 0.00 in/hr0.0 mm/hr 0.06 in1.5 mm
02:10 PM 58.4°F14.7°C 56.1°F13.4°C 92% 4.0 mph SSE6.4 kmh SSE 12.0 mph19.3 kmh 29.74 in1007.1 mb 0.00 in0.0 mm 0.00 in/hr0.0 mm/hr 0.06 in1.5 mm
02:11 PM 58.5°F14.7°C 56.2°F13.4°C 92% 6.0 mph S9.7 kmh S 12.0 mph19.3 kmh 29.74 in1007.1 mb 0.00 in0.0 mm 0.00 in/hr0.0 mm/hr 0.06 in1.5 mm
02:12 PM 58.5°F14.7°C 56.2°F13.4°C 92% 7.0 mph SSE11.3 kmh SSE 12.0 mph19.3 kmh 29.74 in1007.1 mb 0.00 in0.0 mm 0.00 in/hr0.0 mm/hr 0.06 in1.5 mm
02:13 PM 58.5°F14.7°C 56.2°F13.4°C 92% 6.0 mph S9.7 kmh S 12.0 mph19.3 kmh 29.74 in1007.1 mb 0.00 in0.0 mm 0.00 in/hr0.0 mm/hr 0.06 in1.5 mm
02:14 PM 58.6°F14.8°C 56.3°F13.5°C 92% 7.0 mph S11.3 kmh S 12.0 mph19.3 kmh 29.74 in1007.1 mb 0.00 in0.0 mm 0.00 in/hr0.0 mm/hr 0.06 in1.5 mm
02:15 PM 58.6°F14.8°C 56.3°F13.5°C 92% 6.0 mph S9.7 kmh S 12.0 mph19.3 kmh 29.74 in1007.1 mb 0.00 in0.0 mm 0.00 in/hr0.0 mm/hr 0.06 in1.5 mm
02:16 PM 58.7°F14.8°C 56.4°F13.6°C 92% 5.0 mph SE8.0 kmh SE 12.0 mph19.3 kmh 29.74 in1007.1 mb 0.00 in0.0 mm 0.00 in/hr0.0 mm/hr 0.06 in1.5 mm
02:17 PM 58.7°F14.8°C 56.4°F13.6°C 92% 7.0 mph S11.3 kmh S 12.0 mph19.3 kmh 29.74 in1007.1 mb 0.00 in0.0 mm 0.00 in/hr0.0 mm/hr 0.06 in1.5 mm
02:18 PM 58.8°F14.9°C 56.5°F13.6°C 92% 7.0 mph S11.3 kmh S 12.0 mph19.3 kmh 29.74 in1007.1 mb 0.00 in0.0 mm 0.00 in/hr0.0 mm/hr 0.06 in1.5 mm
02:19 PM 58.8°F14.9°C 56.5°F13.6°C 92% 7.0 mph SSE11.3 kmh SSE 12.0 mph19.3 kmh 29.74 in1007.1 mb 0.00 in0.0 mm 0.00 in/hr0.0 mm/hr 0.06 in1.5 mm
02:20 PM 58.9°F14.9°C 56.6°F13.7°C 92% 9.0 mph S14.5 kmh S 12.0 mph19.3 kmh 29.74 in1007.1 mb 0.00 in0.0 mm 0.00 in/hr0.0 mm/hr 0.06 in1.5 mm
02:21 PM 59.0°F15.0°C 57.0°F13.9°C 93% 8.0 mph S12.9 kmh S 12.0 mph19.3 kmh 29.74 in1007.1 mb 0.00 in0.0 mm 0.00 in/hr0.0 mm/hr 0.06 in1.5 mm
02:22 PM 59.0°F15.0°C 56.7°F13.7°C 92% 4.0 mph SE6.4 kmh SE 12.0 mph19.3 kmh 29.73 in1006.8 mb 0.00 in0.0 mm 0.00 in/hr0.0 mm/hr 0.06 in1.5 mm
02:23 PM 59.1°F15.1°C 56.8°F13.8°C 92% 5.0 mph SE8.0 kmh SE 12.0 mph19.3 kmh 29.73 in1006.8 mb 0.00 in0.0 mm 0.00 in/hr0.0 mm/hr 0.06 in1.5 mm
02:24 PM 59.1°F15.1°C 56.8°F13.8°C 92% 8.0 mph SE12.9 kmh SE 12.0 mph19.3 kmh 29.73 in1006.8 mb 0.00 in0.0 mm 0.00 in/hr0.0 mm/hr 0.06 in1.5 mm
02:25 PM 59.3°F15.2°C 57.0°F13.9°C 92% 4.0 mph SSE6.4 kmh SSE 12.0 mph19.3 kmh 29.73 in1006.8 mb 0.00 in0.0 mm 0.00 in/hr0.0 mm/hr 0.06 in1.5 mm
02:26 PM 59.4°F15.2°C 57.4°F14.1°C 93% 5.0 mph SE8.0 kmh SE 12.0 mph19.3 kmh 29.73 in1006.8 mb 0.00 in0.0 mm 0.00 in/hr0.0 mm/hr 0.06 in1.5 mm
02:27 PM 59.5°F15.3°C 57.5°F14.2°C 93% 5.0 mph SSE8.0 kmh SSE 12.0 mph19.3 kmh 29.73 in1006.8 mb 0.00 in0.0 mm 0.00 in/hr0.0 mm/hr 0.06 in1.5 mm
02:28 PM 59.7°F15.4°C 57.7°F14.3°C 93% 8.0 mph SSE12.9 kmh SSE 12.0 mph19.3 kmh 29.73 in1006.8 mb 0.00 in0.0 mm 0.00 in/hr0.0 mm/hr 0.06 in1.5 mm
02:29 PM 59.8°F15.4°C 57.5°F14.2°C 92% 8.0 mph SE12.9 kmh SE 12.0 mph19.3 kmh 29.73 in1006.8 mb 0.00 in0.0 mm 0.00 in/hr0.0 mm/hr 0.06 in1.5 mm
02:30 PM 59.9°F15.5°C 57.6°F14.2°C 92% 9.0 mph SSE14.5 kmh SSE 12.0 mph19.3 kmh 29.73 in1006.8 mb 0.00 in0.0 mm 0.00 in/hr0.0 mm/hr 0.06 in1.5 mm
02:31 PM 60.0°F15.6°C 57.7°F14.3°C 92% 7.0 mph SE11.3 kmh SE 12.0 mph19.3 kmh 29.73 in1006.8 mb 0.00 in0.0 mm 0.00 in/hr0.0 mm/hr 0.06 in1.5 mm
02:32 PM 60.1°F15.6°C 57.8°F14.3°C 92% 8.0 mph SSE12.9 kmh SSE 10.0 mph16.1 kmh 29.73 in1006.8 mb 0.00 in0.0 mm 0.00 in/hr0.0 mm/hr 0.06 in1.5 mm
02:33 PM 60.2°F15.7°C 57.6°F14.2°C 91% 10.0 mph SE16.1 kmh SE 11.0 mph17.7 kmh 29.73 in1006.8 mb 0.00 in0.0 mm 0.00 in/hr0.0 mm/hr 0.06 in1.5 mm
02:34 PM 60.2°F15.7°C 57.6°F14.2°C 91% 8.0 mph SSE12.9 kmh SSE 13.0 mph20.9 kmh 29.73 in1006.8 mb 0.00 in0.0 mm 0.00 in/hr0.0 mm/hr 0.06 in1.5 mm
02:35 PM 60.3°F15.7°C 57.7°F14.3°C 91% 5.0 mph S8.0 kmh S 13.0 mph20.9 kmh 29.73 in1006.8 mb 0.00 in0.0 mm 0.00 in/hr0.0 mm/hr 0.06 in1.5 mm
02:36 PM 60.4°F15.8°C 57.8°F14.3°C 91% 9.0 mph S14.5 kmh S 13.0 mph20.9 kmh 29.73 in1006.8 mb 0.00 in0.0 mm 0.00 in/hr0.0 mm/hr 0.06 in1.5 mm
02:37 PM 60.4°F15.8°C 57.8°F14.3°C 91% 6.0 mph S9.7 kmh S 13.0 mph20.9 kmh 29.73 in1006.8 mb 0.00 in0.0 mm 0.00 in/hr0.0 mm/hr 0.06 in1.5 mm
02:38 PM 60.4°F15.8°C 57.5°F14.2°C 90% 9.0 mph SE14.5 kmh SE 13.0 mph20.9 kmh 29.73 in1006.8 mb 0.00 in0.0 mm 0.00 in/hr0.0 mm/hr 0.06 in1.5 mm
02:39 PM 60.4°F15.8°C 57.5°F14.2°C 90% 7.0 mph SE11.3 kmh SE 13.0 mph20.9 kmh 29.73 in1006.8 mb 0.00 in0.0 mm 0.00 in/hr0.0 mm/hr 0.06 in1.5 mm
02:40 PM 60.4°F15.8°C 57.5°F14.2°C 90% 6.0 mph SSE9.7 kmh SSE 13.0 mph20.9 kmh 29.73 in1006.8 mb 0.00 in0.0 mm 0.00 in/hr0.0 mm/hr 0.06 in1.5 mm
02:41 PM 60.4°F15.8°C 57.5°F14.2°C 90% 7.0 mph S11.3 kmh S 13.0 mph20.9 kmh 29.73 in1006.8 mb 0.00 in0.0 mm 0.00 in/hr0.0 mm/hr 0.06 in1.5 mm
02:42 PM 60.4°F15.8°C 57.5°F14.2°C 90% 12.0 mph S19.3 kmh S 13.0 mph20.9 kmh 29.73 in1006.8 mb 0.00 in0.0 mm 0.00 in/hr0.0 mm/hr 0.06 in1.5 mm
02:43 PM 60.4°F15.8°C 57.5°F14.2°C 90% 6.0 mph S9.7 kmh S 13.0 mph20.9 kmh 29.73 in1006.8 mb 0.00 in0.0 mm 0.00 in/hr0.0 mm/hr 0.06 in1.5 mm
02:44 PM 60.4°F15.8°C 57.5°F14.2°C 90% 13.0 mph S20.9 kmh S 14.0 mph22.5 kmh 29.73 in1006.8 mb 0.00 in0.0 mm 0.00 in/hr0.0 mm/hr 0.06 in1.5 mm
02:45 PM 60.3°F15.7°C 57.1°F13.9°C 89% 8.0 mph S12.9 kmh S 14.0 mph22.5 kmh 29.73 in1006.8 mb 0.00 in0.0 mm 0.00 in/hr0.0 mm/hr 0.06 in1.5 mm
02:46 PM 60.3°F15.7°C 57.1°F13.9°C 89% 8.0 mph S12.9 kmh S 14.0 mph22.5 kmh 29.73 in1006.8 mb 0.00 in0.0 mm 0.00 in/hr0.0 mm/hr 0.06 in1.5 mm
02:47 PM 60.2°F15.7°C 57.3°F14.1°C 90% 8.0 mph S12.9 kmh S 14.0 mph22.5 kmh 29.73 in1006.8 mb 0.00 in0.0 mm 0.00 in/hr0.0 mm/hr 0.06 in1.5 mm
02:48 PM 60.2°F15.7°C 57.3°F14.1°C 90% 6.0 mph SSE9.7 kmh SSE 14.0 mph22.5 kmh 29.73 in1006.8 mb 0.00 in0.0 mm 0.00 in/hr0.0 mm/hr 0.06 in1.5 mm
02:49 PM 60.2°F15.7°C 57.3°F14.1°C 90% 7.0 mph S11.3 kmh S 14.0 mph22.5 kmh 29.73 in1006.8 mb 0.00 in0.0 mm 0.00 in/hr0.0 mm/hr 0.06 in1.5 mm
02:50 PM 60.2°F15.7°C 57.3°F14.1°C 90% 7.0 mph SSE11.3 kmh SSE 14.0 mph22.5 kmh 29.73 in1006.8 mb 0.00 in0.0 mm 0.00 in/hr0.0 mm/hr 0.06 in1.5 mm
02:51 PM 60.3°F15.7°C 57.4°F14.1°C 90% 7.0 mph S11.3 kmh S 14.0 mph22.5 kmh 29.73 in1006.8 mb 0.00 in0.0 mm 0.00 in/hr0.0 mm/hr 0.06 in1.5 mm
02:52 PM 60.3°F15.7°C 57.4°F14.1°C 90% 6.0 mph S9.7 kmh S 14.0 mph22.5 kmh 29.73 in1006.8 mb 0.00 in0.0 mm 0.00 in/hr0.0 mm/hr 0.06 in1.5 mm
02:53 PM 60.3°F15.7°C 57.4°F14.1°C 90% 6.0 mph SSE9.7 kmh SSE 14.0 mph22.5 kmh 29.73 in1006.8 mb 0.00 in0.0 mm 0.00 in/hr0.0 mm/hr 0.06 in1.5 mm
02:54 PM 60.4°F15.8°C 57.5°F14.2°C 90% 7.0 mph S11.3 kmh S 14.0 mph22.5 kmh 29.73 in1006.8 mb 0.00 in0.0 mm 0.00 in/hr0.0 mm/hr 0.06 in1.5 mm
02:55 PM 60.4°F15.8°C 57.8°F14.3°C 91% 5.0 mph SE8.0 kmh SE 14.0 mph22.5 kmh 29.73 in1006.8 mb 0.00 in0.0 mm 0.00 in/hr0.0 mm/hr 0.06 in1.5 mm
02:56 PM 60.5°F15.8°C 57.6°F14.2°C 90% 9.0 mph S14.5 kmh S 14.0 mph22.5 kmh 29.73 in1006.8 mb 0.00 in0.0 mm 0.00 in/hr0.0 mm/hr 0.06 in1.5 mm
02:57 PM 60.5°F15.8°C 57.9°F14.4°C 91% 7.0 mph S11.3 kmh S 14.0 mph22.5 kmh 29.73 in1006.8 mb 0.00 in0.0 mm 0.00 in/hr0.0 mm/hr 0.06 in1.5 mm
02:58 PM 60.6°F15.9°C 58.0°F14.4°C 91% 9.0 mph S14.5 kmh S 14.0 mph22.5 kmh 29.73 in1006.8 mb 0.00 in0.0 mm 0.00 in/hr0.0 mm/hr 0.06 in1.5 mm
03:00 PM 60.7°F15.9°C 58.1°F14.5°C 91% 9.0 mph SSW14.5 kmh SSW 14.0 mph22.5 kmh 29.73 in1006.8 mb 0.00 in0.0 mm 0.00 in/hr0.0 mm/hr 0.06 in1.5 mm
03:01 PM 60.7°F15.9°C 58.1°F14.5°C 91% 6.0 mph SSW9.7 kmh SSW 14.0 mph22.5 kmh 29.73 in1006.8 mb 0.00 in0.0 mm 0.00 in/hr0.0 mm/hr 0.06 in1.5 mm
03:02 PM 60.8°F16.0°C 57.9°F14.4°C 90% 9.0 mph S14.5 kmh S 10.0 mph16.1 kmh 29.74 in1007.1 mb 0.00 in0.0 mm 0.00 in/hr0.0 mm/hr 0.06 in1.5 mm
03:03 PM 60.8°F16.0°C 57.9°F14.4°C 90% 9.0 mph S14.5 kmh S 13.0 mph20.9 kmh 29.74 in1007.1 mb 0.00 in0.0 mm 0.00 in/hr0.0 mm/hr 0.06 in1.5 mm
03:05 PM 60.9°F16.1°C 58.0°F14.4°C 90% 6.0 mph S9.7 kmh S 13.0 mph20.9 kmh 29.74 in1007.1 mb 0.00 in0.0 mm 0.00 in/hr0.0 mm/hr 0.06 in1.5 mm
03:06 PM 60.9°F16.1°C 58.0°F14.4°C 90% 7.0 mph S11.3 kmh S 13.0 mph20.9 kmh 29.74 in1007.1 mb 0.00 in0.0 mm 0.00 in/hr0.0 mm/hr 0.06 in1.5 mm
03:07 PM 60.9°F16.1°C 58.0°F14.4°C 90% 9.0 mph S14.5 kmh S 13.0 mph20.9 kmh 29.74 in1007.1 mb 0.00 in0.0 mm 0.00 in/hr0.0 mm/hr 0.06 in1.5 mm
03:08 PM 60.9°F16.1°C 58.0°F14.4°C 90% 8.0 mph S12.9 kmh S 13.0 mph20.9 kmh 29.74 in1007.1 mb 0.00 in0.0 mm 0.00 in/hr0.0 mm/hr 0.06 in1.5 mm
03:09 PM 60.9°F16.1°C 58.0°F14.4°C 90% 8.0 mph S12.9 kmh S 13.0 mph20.9 kmh 29.74 in1007.1 mb 0.00 in0.0 mm 0.00 in/hr0.0 mm/hr 0.06 in1.5 mm
03:10 PM 60.9°F16.1°C 58.0°F14.4°C 90% 7.0 mph SSW11.3 kmh SSW 13.0 mph20.9 kmh 29.74 in1007.1 mb 0.00 in0.0 mm 0.00 in/hr0.0 mm/hr 0.06 in1.5 mm
03:11 PM 60.9°F16.1°C 58.0°F14.4°C 90% 7.0 mph S11.3 kmh S 13.0 mph20.9 kmh 29.74 in1007.1 mb 0.00 in0.0 mm 0.00 in/hr0.0 mm/hr 0.06 in1.5 mm
03:12 PM 60.9°F16.1°C 58.0°F14.4°C 90% 9.0 mph S14.5 kmh S 13.0 mph20.9 kmh 29.74 in1007.1 mb 0.00 in0.0 mm 0.00 in/hr0.0 mm/hr 0.06 in1.5 mm
03:13 PM 60.9°F16.1°C 58.0°F14.4°C 90% 9.0 mph S14.5 kmh S 13.0 mph20.9 kmh 29.74 in1007.1 mb 0.00 in0.0 mm 0.00 in/hr0.0 mm/hr 0.06 in1.5 mm
03:14 PM 60.9°F16.1°C 58.0°F14.4°C 90% 5.0 mph S8.0 kmh S 13.0 mph20.9 kmh 29.74 in1007.1 mb 0.00 in0.0 mm 0.00 in/hr0.0 mm/hr 0.06 in1.5 mm
03:15 PM 60.9°F16.1°C 58.0°F14.4°C 90% 9.0 mph SSW14.5 kmh SSW 13.0 mph20.9 kmh 29.74 in1007.1 mb 0.00 in0.0 mm 0.00 in/hr0.0 mm/hr 0.06 in1.5 mm
03:16 PM 60.9°F16.1°C 58.0°F14.4°C 90% 6.0 mph S9.7 kmh S 13.0 mph20.9 kmh 29.74 in1007.1 mb 0.00 in0.0 mm 0.00 in/hr0.0 mm/hr 0.06 in1.5 mm
03:17 PM 61.0°F16.1°C 58.1°F14.5°C 90% 4.0 mph S6.4 kmh S 13.0 mph20.9 kmh 29.74 in1007.1 mb 0.00 in0.0 mm 0.00 in/hr0.0 mm/hr 0.06 in1.5 mm
03:18 PM 61.0°F16.1°C 58.1°F14.5°C 90% 7.0 mph SSW11.3 kmh SSW 13.0 mph20.9 kmh 29.73 in1006.8 mb 0.00 in0.0 mm 0.00 in/hr0.0 mm/hr 0.06 in1.5 mm
03:19 PM 61.0°F16.1°C 58.1°F14.5°C 90% 12.0 mph S19.3 kmh S 13.0 mph20.9 kmh 29.73 in1006.8 mb 0.00 in0.0 mm 0.00 in/hr0.0 mm/hr 0.06 in1.5 mm
03:20 PM 61.1°F16.2°C 58.2°F14.6°C 90% 6.0 mph S9.7 kmh S 13.0 mph20.9 kmh 29.74 in1007.1 mb 0.00 in0.0 mm 0.00 in/hr0.0 mm/hr 0.06 in1.5 mm
03:21 PM 61.1°F16.2°C 58.2°F14.6°C 90% 7.0 mph S11.3 kmh S 13.0 mph20.9 kmh 29.74 in1007.1 mb 0.00 in0.0 mm 0.00 in/hr0.0 mm/hr 0.06 in1.5 mm
03:22 PM 61.1°F16.2°C 58.2°F14.6°C 90% 8.0 mph S12.9 kmh S 13.0 mph20.9 kmh 29.74 in1007.1 mb 0.00 in0.0 mm 0.00 in/hr0.0 mm/hr 0.06 in1.5 mm
03:23 PM 61.1°F16.2°C 58.2°F14.6°C 90% 9.0 mph S14.5 kmh S 13.0 mph20.9 kmh 29.74 in1007.1 mb 0.00 in0.0 mm 0.00 in/hr0.0 mm/hr 0.06 in1.5 mm
03:24 PM 61.1°F16.2°C 58.2°F14.6°C 90% 7.0 mph SSW11.3 kmh SSW 13.0 mph20.9 kmh 29.74 in1007.1 mb 0.00 in0.0 mm 0.00 in/hr0.0 mm/hr 0.06 in1.5 mm
03:25 PM 61.1°F16.2°C 58.2°F14.6°C 90% 7.0 mph S11.3 kmh S 13.0 mph20.9 kmh 29.74 in1007.1 mb 0.00 in0.0 mm 0.00 in/hr0.0 mm/hr 0.06 in1.5 mm
03:26 PM 61.1°F16.2°C 58.2°F14.6°C 90% 10.0 mph S16.1 kmh S 13.0 mph20.9 kmh 29.74 in1007.1 mb 0.00 in0.0 mm 0.00 in/hr0.0 mm/hr 0.06 in1.5 mm
03:27 PM 61.2°F16.2°C 58.3°F14.6°C 90% 6.0 mph SSE9.7 kmh SSE 13.0 mph20.9 kmh 29.74 in1007.1 mb 0.00 in0.0 mm 0.00 in/hr0.0 mm/hr 0.06 in1.5 mm
03:28 PM 61.2°F16.2°C 58.3°F14.6°C 90% 9.0 mph SSE14.5 kmh SSE 13.0 mph20.9 kmh 29.74 in1007.1 mb 0.00 in0.0 mm 0.00 in/hr0.0 mm/hr 0.06 in1.5 mm
03:29 PM 61.2°F16.2°C 58.3°F14.6°C 90% 6.0 mph S9.7 kmh S 13.0 mph20.9 kmh 29.74 in1007.1 mb 0.00 in0.0 mm 0.00 in/hr0.0 mm/hr 0.06 in1.5 mm
03:30 PM 61.3°F16.3°C 58.4°F14.7°C 90% 7.0 mph S11.3 kmh S 13.0 mph20.9 kmh 29.74 in1007.1 mb 0.00 in0.0 mm 0.00 in/hr0.0 mm/hr 0.06 in1.5 mm
03:31 PM 61.3°F16.3°C 58.7°F14.8°C 91% 6.0 mph S9.7 kmh S 13.0 mph20.9 kmh 29.74 in1007.1 mb 0.00 in0.0 mm 0.00 in/hr0.0 mm/hr 0.06 in1.5 mm
03:32 PM 61.3°F16.3°C 58.4°F14.7°C 90% 6.0 mph S9.7 kmh S 9.0 mph14.5 kmh 29.74 in1007.1 mb 0.00 in0.0 mm 0.00 in/hr0.0 mm/hr 0.06 in1.5 mm
03:33 PM 61.4°F16.3°C 58.5°F14.7°C 90% 7.0 mph S11.3 kmh S 9.0 mph14.5 kmh 29.74 in1007.1 mb 0.00 in0.0 mm 0.00 in/hr0.0 mm/hr 0.06 in1.5 mm
03:34 PM 61.4°F16.3°C 58.5°F14.7°C 90% 7.0 mph SSW11.3 kmh SSW 9.0 mph14.5 kmh 29.74 in1007.1 mb 0.00 in0.0 mm 0.00 in/hr0.0 mm/hr 0.06 in1.5 mm
03:35 PM 61.4°F16.3°C 58.5°F14.7°C 90% 10.0 mph S16.1 kmh S 11.0 mph17.7 kmh 29.74 in1007.1 mb 0.00 in0.0 mm 0.00 in/hr0.0 mm/hr 0.06 in1.5 mm
03:36 PM 61.4°F16.3°C 58.5°F14.7°C 90% 5.0 mph S8.0 kmh S 11.0 mph17.7 kmh 29.74 in1007.1 mb 0.00 in0.0 mm 0.00 in/hr0.0 mm/hr 0.06 in1.5 mm
03:37 PM 61.4°F16.3°C 58.5°F14.7°C 90% 7.0 mph SW11.3 kmh SW 11.0 mph17.7 kmh 29.74 in1007.1 mb 0.00 in0.0 mm 0.00 in/hr0.0 mm/hr 0.06 in1.5 mm
03:38 PM 61.5°F16.4°C 58.5°F14.7°C 90% 6.0 mph S9.7 kmh S 11.0 mph17.7 kmh 29.74 in1007.1 mb 0.00 in0.0 mm 0.00 in/hr0.0 mm/hr 0.06 in1.5 mm
03:39 PM 61.5°F16.4°C 58.5°F14.7°C 90% 6.0 mph S9.7 kmh S 11.0 mph17.7 kmh 29.73 in1006.8 mb 0.00 in0.0 mm 0.00 in/hr0.0 mm/hr 0.06 in1.5 mm
03:40 PM 61.5°F16.4°C 58.5°F14.7°C 90% 9.0 mph SSW14.5 kmh SSW 11.0 mph17.7 kmh 29.73 in1006.8 mb 0.00 in0.0 mm 0.00 in/hr0.0 mm/hr 0.06 in1.5 mm
03:41 PM 61.5°F16.4°C 58.5°F14.7°C 90% 7.0 mph S11.3 kmh S 11.0 mph17.7 kmh 29.74 in1007.1 mb 0.00 in0.0 mm 0.00 in/hr0.0 mm/hr 0.06 in1.5 mm
03:42 PM 61.6°F16.4°C 58.6°F14.8°C 90% 6.0 mph S9.7 kmh S 11.0 mph17.7 kmh 29.74 in1007.1 mb 0.00 in0.0 mm 0.00 in/hr0.0 mm/hr 0.06 in1.5 mm
03:43 PM 61.6°F16.4°C 58.6°F14.8°C 90% 7.0 mph S11.3 kmh S 11.0 mph17.7 kmh 29.74 in1007.1 mb 0.00 in0.0 mm 0.00 in/hr0.0 mm/hr 0.06 in1.5 mm
03:44 PM 61.6°F16.4°C 58.6°F14.8°C 90% 9.0 mph S14.5 kmh S 11.0 mph17.7 kmh 29.73 in1006.8 mb 0.00 in0.0 mm 0.00 in/hr0.0 mm/hr 0.06 in1.5 mm
03:45 PM 61.6°F16.4°C 58.6°F14.8°C 90% 6.0 mph SE9.7 kmh SE 11.0 mph17.7 kmh 29.73 in1006.8 mb 0.00 in0.0 mm 0.00 in/hr0.0 mm/hr 0.06 in1.5 mm
03:46 PM 61.6°F16.4°C 58.6°F14.8°C 90% 4.0 mph S6.4 kmh S 11.0 mph17.7 kmh 29.73 in1006.8 mb 0.00 in0.0 mm 0.00 in/hr0.0 mm/hr 0.06 in1.5 mm
03:47 PM 61.7°F16.5°C 58.7°F14.8°C 90% 7.0 mph SSE11.3 kmh SSE 11.0 mph17.7 kmh 29.73 in1006.8 mb 0.00 in0.0 mm 0.00 in/hr0.0 mm/hr 0.06 in1.5 mm
03:48 PM 61.7°F16.5°C 58.7°F14.8°C 90% 9.0 mph S14.5 kmh S 11.0 mph17.7 kmh 29.73 in1006.8 mb 0.00 in0.0 mm 0.00 in/hr0.0 mm/hr 0.06 in1.5 mm
03:49 PM 61.7°F16.5°C 58.7°F14.8°C 90% 8.0 mph S12.9 kmh S 11.0 mph17.7 kmh 29.73 in1006.8 mb 0.00 in0.0 mm 0.00 in/hr0.0 mm/hr 0.06 in1.5 mm
03:50 PM 61.7°F16.5°C 58.7°F14.8°C 90% 8.0 mph SSE12.9 kmh SSE 11.0 mph17.7 kmh 29.73 in1006.8 mb 0.00 in0.0 mm 0.00 in/hr0.0 mm/hr 0.06 in1.5 mm
03:51 PM 61.7°F16.5°C 58.4°F14.7°C 89% 8.0 mph S12.9 kmh S 11.0 mph17.7 kmh 29.73 in1006.8 mb 0.00 in0.0 mm 0.00 in/hr0.0 mm/hr 0.06 in1.5 mm
03:52 PM 61.7°F16.5°C 58.7°F14.8°C 90% 9.0 mph S14.5 kmh S 11.0 mph17.7 kmh 29.73 in1006.8 mb 0.00 in0.0 mm 0.00 in/hr0.0 mm/hr 0.06 in1.5 mm
03:53 PM 61.7°F16.5°C 58.7°F14.8°C 90% 7.0 mph SSE11.3 kmh SSE 11.0 mph17.7 kmh 29.73 in1006.8 mb 0.00 in0.0 mm 0.00 in/hr0.0 mm/hr 0.06 in1.5 mm
03:54 PM 61.7°F16.5°C 58.7°F14.8°C 90% 5.0 mph S8.0 kmh S 11.0 mph17.7 kmh 29.73 in1006.8 mb 0.00 in0.0 mm 0.00 in/hr0.0 mm/hr 0.06 in1.5 mm
03:55 PM 61.7°F16.5°C 58.7°F14.8°C 90% 5.0 mph S8.0 kmh S 11.0 mph17.7 kmh 29.73 in1006.8 mb 0.00 in0.0 mm 0.00 in/hr0.0 mm/hr 0.06 in1.5 mm
03:56 PM 61.7°F16.5°C 58.7°F14.8°C 90% 6.0 mph S9.7 kmh S 11.0 mph17.7 kmh 29.73 in1006.8 mb 0.00 in0.0 mm 0.00 in/hr0.0 mm/hr 0.06 in1.5 mm
03:57 PM 61.7°F16.5°C 58.4°F14.7°C 89% 5.0 mph S8.0 kmh S 11.0 mph17.7 kmh 29.73 in1006.8 mb 0.00 in0.0 mm 0.00 in/hr0.0 mm/hr 0.06 in1.5 mm
03:58 PM 61.7°F16.5°C 58.7°F14.8°C 90% 4.0 mph S6.4 kmh S 11.0 mph17.7 kmh 29.73 in1006.8 mb 0.00 in0.0 mm 0.00 in/hr0.0 mm/hr 0.06 in1.5 mm
03:59 PM 61.7°F16.5°C 58.7°F14.8°C 90% 6.0 mph S9.7 kmh S 11.0 mph17.7 kmh 29.73 in1006.8 mb 0.00 in0.0 mm 0.00 in/hr0.0 mm/hr 0.06 in1.5 mm
04:00 PM 61.8°F16.6°C 58.8°F14.9°C 90% 9.0 mph S14.5 kmh S 12.0 mph19.3 kmh 29.73 in1006.8 mb 0.00 in0.0 mm 0.00 in/hr0.0 mm/hr 0.06 in1.5 mm
04:01 PM 61.8°F16.6°C 58.8°F14.9°C 90% 5.0 mph S8.0 kmh S 12.0 mph19.3 kmh 29.72 in1006.4 mb 0.00 in0.0 mm 0.00 in/hr0.0 mm/hr 0.06 in1.5 mm
04:02 PM 61.8°F16.6°C 58.8°F14.9°C 90% 7.0 mph SW11.3 kmh SW 7.0 mph11.3 kmh 29.73 in1006.8 mb 0.00 in0.0 mm 0.00 in/hr0.0 mm/hr 0.06 in1.5 mm
04:03 PM 61.8°F16.6°C 58.8°F14.9°C 90% 7.0 mph S11.3 kmh S 9.0 mph14.5 kmh 29.72 in1006.4 mb 0.00 in0.0 mm 0.00 in/hr0.0 mm/hr 0.06 in1.5 mm
04:04 PM 61.7°F16.5°C 58.7°F14.8°C 90% 6.0 mph SSE9.7 kmh SSE 9.0 mph14.5 kmh 29.72 in1006.4 mb 0.00 in0.0 mm 0.00 in/hr0.0 mm/hr 0.06 in1.5 mm
04:05 PM 61.8°F16.6°C 58.8°F14.9°C 90% 5.0 mph S8.0 kmh S 9.0 mph14.5 kmh 29.72 in1006.4 mb 0.00 in0.0 mm 0.00 in/hr0.0 mm/hr 0.06 in1.5 mm
04:06 PM 61.8°F16.6°C 58.8°F14.9°C 90% 4.0 mph SSE6.4 kmh SSE 9.0 mph14.5 kmh 29.72 in1006.4 mb 0.00 in0.0 mm 0.00 in/hr0.0 mm/hr 0.06 in1.5 mm
04:07 PM 61.9°F16.6°C 58.9°F14.9°C 90% 6.0 mph SE9.7 kmh SE 9.0 mph14.5 kmh 29.72 in1006.4 mb 0.00 in0.0 mm 0.00 in/hr0.0 mm/hr 0.06 in1.5 mm
04:08 PM 62.0°F16.7°C 59.0°F15.0°C 90% 6.0 mph SSE9.7 kmh SSE 9.0 mph14.5 kmh 29.72 in1006.4 mb 0.00 in0.0 mm 0.00 in/hr0.0 mm/hr 0.06 in1.5 mm
04:09 PM 62.0°F16.7°C 59.0°F15.0°C 90% 7.0 mph SE11.3 kmh SE 9.0 mph14.5 kmh 29.72 in1006.4 mb 0.00 in0.0 mm 0.00 in/hr0.0 mm/hr 0.06 in1.5 mm
04:10 PM 62.0°F16.7°C 59.0°F15.0°C 90% 5.0 mph S8.0 kmh S 10.0 mph16.1 kmh 29.72 in1006.4 mb 0.00 in0.0 mm 0.00 in/hr0.0 mm/hr 0.06 in1.5 mm
04:11 PM 62.1°F16.7°C 59.1°F15.1°C 90% 6.0 mph SE9.7 kmh SE 10.0 mph16.1 kmh 29.72 in1006.4 mb 0.00 in0.0 mm 0.00 in/hr0.0 mm/hr 0.06 in1.5 mm
04:12 PM 62.2°F16.8°C 59.2°F15.1°C 90% 9.0 mph S14.5 kmh S 10.0 mph16.1 kmh 29.72 in1006.4 mb 0.00 in0.0 mm 0.00 in/hr0.0 mm/hr 0.06 in1.5 mm
04:13 PM 62.2°F16.8°C 58.9°F14.9°C 89% 8.0 mph S12.9 kmh S 10.0 mph16.1 kmh 29.72 in1006.4 mb 0.00 in0.0 mm 0.00 in/hr0.0 mm/hr 0.06 in1.5 mm
04:14 PM 62.3°F16.8°C 59.0°F15.0°C 89% 6.0 mph S9.7 kmh S 10.0 mph16.1 kmh 29.72 in1006.4 mb 0.00 in0.0 mm 0.00 in/hr0.0 mm/hr 0.06 in1.5 mm
04:15 PM 62.3°F16.8°C 59.0°F15.0°C 89% 4.0 mph SSE6.4 kmh SSE 10.0 mph16.1 kmh 29.72 in1006.4 mb 0.00 in0.0 mm 0.00 in/hr0.0 mm/hr 0.06 in1.5 mm
04:16 PM 62.3°F16.8°C 59.0°F15.0°C 89% 7.0 mph S11.3 kmh S 10.0 mph16.1 kmh 29.72 in1006.4 mb 0.00 in0.0 mm 0.00 in/hr0.0 mm/hr 0.06 in1.5 mm
04:17 PM 62.3°F16.8°C 59.0°F15.0°C 89% 6.0 mph S9.7 kmh S 10.0 mph16.1 kmh 29.72 in1006.4 mb 0.00 in0.0 mm 0.00 in/hr0.0 mm/hr 0.06 in1.5 mm
04:18 PM 62.3°F16.8°C 59.0°F15.0°C 89% 7.0 mph S11.3 kmh S 10.0 mph16.1 kmh 29.72 in1006.4 mb 0.00 in0.0 mm 0.00 in/hr0.0 mm/hr 0.06 in1.5 mm
04:19 PM 62.3°F16.8°C 59.0°F15.0°C 89% 8.0 mph SSE12.9 kmh SSE 10.0 mph16.1 kmh 29.72 in1006.4 mb 0.00 in0.0 mm 0.00 in/hr0.0 mm/hr 0.06 in1.5 mm
04:20 PM 62.3°F16.8°C 59.0°F15.0°C 89% 5.0 mph SSE8.0 kmh SSE 10.0 mph16.1 kmh 29.72 in1006.4 mb 0.00 in0.0 mm 0.00 in/hr0.0 mm/hr 0.06 in1.5 mm
04:21 PM 62.3°F16.8°C 59.0°F15.0°C 89% 6.0 mph SSW9.7 kmh SSW 10.0 mph16.1 kmh 29.72 in1006.4 mb 0.00 in0.0 mm 0.00 in/hr0.0 mm/hr 0.06 in1.5 mm
04:22 PM 62.3°F16.8°C 59.0°F15.0°C 89% 6.0 mph S9.7 kmh S 10.0 mph16.1 kmh 29.73 in1006.8 mb 0.00 in0.0 mm 0.00 in/hr0.0 mm/hr 0.06 in1.5 mm
04:23 PM 62.3°F16.8°C 59.0°F15.0°C 89% 6.0 mph S9.7 kmh S 10.0 mph16.1 kmh 29.73 in1006.8 mb 0.00 in0.0 mm 0.00 in/hr0.0 mm/hr 0.06 in1.5 mm
04:24 PM 62.3°F16.8°C 59.0°F15.0°C 89% 8.0 mph S12.9 kmh S 10.0 mph16.1 kmh 29.73 in1006.8 mb 0.00 in0.0 mm 0.00 in/hr0.0 mm/hr 0.06 in1.5 mm
04:25 PM 62.3°F16.8°C 59.0°F15.0°C 89% 5.0 mph S8.0 kmh S 10.0 mph16.1 kmh 29.73 in1006.8 mb 0.00 in0.0 mm 0.00 in/hr0.0 mm/hr 0.06 in1.5 mm
04:26 PM 62.3°F16.8°C 59.0°F15.0°C 89% 8.0 mph S12.9 kmh S 10.0 mph16.1 kmh 29.73 in1006.8 mb 0.00 in0.0 mm 0.00 in/hr0.0 mm/hr 0.06 in1.5 mm
04:27 PM 62.3°F16.8°C 59.0°F15.0°C 89% 8.0 mph S12.9 kmh S 10.0 mph16.1 kmh 29.73 in1006.8 mb 0.00 in0.0 mm 0.00 in/hr0.0 mm/hr 0.06 in1.5 mm
04:28 PM 62.4°F16.9°C 59.1°F15.1°C 89% 7.0 mph SSW11.3 kmh SSW 10.0 mph16.1 kmh 29.73 in1006.8 mb 0.00 in0.0 mm 0.00 in/hr0.0 mm/hr 0.06 in1.5 mm
04:29 PM 62.3°F16.8°C 59.0°F15.0°C 89% 9.0 mph S14.5 kmh S 11.0 mph17.7 kmh 29.73 in1006.8 mb 0.00 in0.0 mm 0.00 in/hr0.0 mm/hr 0.06 in1.5 mm
04:30 PM 62.3°F16.8°C 59.0°F15.0°C 89% 9.0 mph S14.5 kmh S 11.0 mph17.7 kmh 29.73 in1006.8 mb 0.00 in0.0 mm 0.00 in/hr0.0 mm/hr 0.06 in1.5 mm
04:31 PM 62.3°F16.8°C 59.0°F15.0°C 89% 10.0 mph S16.1 kmh S 11.0 mph17.7 kmh 29.73 in1006.8 mb 0.00 in0.0 mm 0.00 in/hr0.0 mm/hr 0.06 in1.5 mm
04:32 PM 62.3°F16.8°C 59.0°F15.0°C 89% 7.0 mph S11.3 kmh S 10.0 mph16.1 kmh 29.73 in1006.8 mb 0.00 in0.0 mm 0.00 in/hr0.0 mm/hr 0.06 in1.5 mm
04:33 PM 62.2°F16.8°C 58.9°F14.9°C 89% 9.0 mph S14.5 kmh S 13.0 mph20.9 kmh 29.73 in1006.8 mb 0.00 in0.0 mm 0.00 in/hr0.0 mm/hr 0.06 in1.5 mm
04:34 PM 62.2°F16.8°C 58.9°F14.9°C 89% 7.0 mph SSW11.3 kmh SSW 13.0 mph20.9 kmh 29.73 in1006.8 mb 0.00 in0.0 mm 0.00 in/hr0.0 mm/hr 0.06 in1.5 mm
04:35 PM 62.1°F16.7°C 58.8°F14.9°C 89% 10.0 mph S16.1 kmh S 13.0 mph20.9 kmh 29.73 in1006.8 mb 0.00 in0.0 mm 0.00 in/hr0.0 mm/hr 0.06 in1.5 mm
04:36 PM 62.1°F16.7°C 58.8°F14.9°C 89% 8.0 mph S12.9 kmh S 13.0 mph20.9 kmh 29.73 in1006.8 mb 0.00 in0.0 mm 0.00 in/hr0.0 mm/hr 0.06 in1.5 mm
04:37 PM 62.1°F16.7°C 58.8°F14.9°C 89% 11.0 mph S17.7 kmh S 13.0 mph20.9 kmh 29.73 in1006.8 mb 0.00 in0.0 mm 0.00 in/hr0.0 mm/hr 0.06 in1.5 mm
04:38 PM 62.0°F16.7°C 58.7°F14.8°C 89% 7.0 mph S11.3 kmh S 13.0 mph20.9 kmh 29.73 in1006.8 mb 0.00 in0.0 mm 0.00 in/hr0.0 mm/hr 0.06 in1.5 mm
04:39 PM 62.0°F16.7°C 58.7°F14.8°C 89% 7.0 mph S11.3 kmh S 13.0 mph20.9 kmh 29.73 in1006.8 mb 0.00 in0.0 mm 0.00 in/hr0.0 mm/hr 0.06 in1.5 mm
04:40 PM 62.0°F16.7°C 58.7°F14.8°C 89% 7.0 mph S11.3 kmh S 13.0 mph20.9 kmh 29.73 in1006.8 mb 0.00 in0.0 mm 0.00 in/hr0.0 mm/hr 0.06 in1.5 mm
04:41 PM 62.0°F16.7°C 59.0°F15.0°C 90% 7.0 mph S11.3 kmh S 13.0 mph20.9 kmh 29.73 in1006.8 mb 0.00 in0.0 mm 0.00 in/hr0.0 mm/hr 0.06 in1.5 mm
04:42 PM 61.9°F16.6°C 58.9°F14.9°C 90% 5.0 mph SSE8.0 kmh SSE 13.0 mph20.9 kmh 29.73 in1006.8 mb 0.00 in0.0 mm 0.00 in/hr0.0 mm/hr 0.06 in1.5 mm
04:43 PM 62.0°F16.7°C 59.0°F15.0°C 90% 4.0 mph S6.4 kmh S 13.0 mph20.9 kmh 29.73 in1006.8 mb 0.00 in0.0 mm 0.00 in/hr0.0 mm/hr 0.06 in1.5 mm
04:44 PM 62.0°F16.7°C 59.0°F15.0°C 90% 3.0 mph S4.8 kmh S 13.0 mph20.9 kmh 29.73 in1006.8 mb 0.00 in0.0 mm 0.00 in/hr0.0 mm/hr 0.06 in1.5 mm
04:45 PM 62.0°F16.7°C 59.0°F15.0°C 90% 5.0 mph S8.0 kmh S 13.0 mph20.9 kmh 29.73 in1006.8 mb 0.00 in0.0 mm 0.00 in/hr0.0 mm/hr 0.06 in1.5 mm
04:46 PM 62.0°F16.7°C 59.0°F15.0°C 90% 5.0 mph SSE8.0 kmh SSE 13.0 mph20.9 kmh 29.73 in1006.8 mb 0.00 in0.0 mm 0.00 in/hr0.0 mm/hr 0.06 in1.5 mm
04:47 PM 62.1°F16.7°C 59.5°F15.3°C 91% 8.0 mph SE12.9 kmh SE 13.0 mph20.9 kmh 29.73 in1006.8 mb 0.00 in0.0 mm 0.00 in/hr0.0 mm/hr 0.06 in1.5 mm
04:48 PM 62.2°F16.8°C 59.6°F15.3°C 91% 8.0 mph S12.9 kmh S 13.0 mph20.9 kmh 29.73 in1006.8 mb 0.00 in0.0 mm 0.00 in/hr0.0 mm/hr 0.06 in1.5 mm
04:49 PM 62.3°F16.8°C 59.6°F15.3°C 91% 4.0 mph SE6.4 kmh SE 13.0 mph20.9 kmh 29.73 in1006.8 mb 0.00 in0.0 mm 0.00 in/hr0.0 mm/hr 0.06 in1.5 mm
04:50 PM 62.3°F16.8°C 59.6°F15.3°C 91% 5.0 mph S8.0 kmh S 13.0 mph20.9 kmh 29.73 in1006.8 mb 0.00 in0.0 mm 0.00 in/hr0.0 mm/hr 0.06 in1.5 mm
04:51 PM 62.4°F16.9°C 59.7°F15.4°C 91% 6.0 mph S9.7 kmh S 13.0 mph20.9 kmh 29.73 in1006.8 mb 0.00 in0.0 mm 0.00 in/hr0.0 mm/hr 0.06 in1.5 mm
04:52 PM 62.5°F16.9°C 59.8°F15.4°C 91% 8.0 mph S12.9 kmh S 13.0 mph20.9 kmh 29.73 in1006.8 mb 0.00 in0.0 mm 0.00 in/hr0.0 mm/hr 0.06 in1.5 mm
04:53 PM 62.6°F17.0°C 59.9°F15.5°C 91% 8.0 mph S12.9 kmh S 13.0 mph20.9 kmh 29.73 in1006.8 mb 0.00 in0.0 mm 0.00 in/hr0.0 mm/hr 0.06 in1.5 mm
04:54 PM 62.6°F17.0°C 59.6°F15.3°C 90% 7.0 mph SSW11.3 kmh SSW 13.0 mph20.9 kmh 29.73 in1006.8 mb 0.00 in0.0 mm 0.00 in/hr0.0 mm/hr 0.06 in1.5 mm
04:55 PM 62.7°F17.1°C 59.7°F15.4°C 90% 6.0 mph S9.7 kmh S 13.0 mph20.9 kmh 29.73 in1006.8 mb 0.00 in0.0 mm 0.00 in/hr0.0 mm/hr 0.06 in1.5 mm
04:56 PM 62.7°F17.1°C 59.7°F15.4°C 90% 6.0 mph S9.7 kmh S 13.0 mph20.9 kmh 29.73 in1006.8 mb 0.00 in0.0 mm 0.00 in/hr0.0 mm/hr 0.06 in1.5 mm
04:57 PM 62.7°F17.1°C 59.7°F15.4°C 90% 6.0 mph S9.7 kmh S 13.0 mph20.9 kmh 29.73 in1006.8 mb 0.00 in0.0 mm 0.00 in/hr0.0 mm/hr 0.06 in1.5 mm
04:58 PM 62.8°F17.1°C 59.8°F15.4°C 90% 6.0 mph SSW9.7 kmh SSW 13.0 mph20.9 kmh 29.73 in1006.8 mb 0.00 in0.0 mm 0.00 in/hr0.0 mm/hr 0.06 in1.5 mm
04:59 PM 62.8°F17.1°C 59.8°F15.4°C 90% 7.0 mph S11.3 kmh S 13.0 mph20.9 kmh 29.72 in1006.4 mb 0.00 in0.0 mm 0.00 in/hr0.0 mm/hr 0.06 in1.5 mm
05:00 PM 62.9°F17.2°C 59.9°F15.5°C 90% 5.0 mph S8.0 kmh S 13.0 mph20.9 kmh 29.73 in1006.8 mb 0.00 in0.0 mm 0.00 in/hr0.0 mm/hr 0.06 in1.5 mm
05:01 PM 63.0°F17.2°C 59.7°F15.4°C 89% 4.0 mph S6.4 kmh S 13.0 mph20.9 kmh 29.72 in1006.4 mb 0.00 in0.0 mm 0.00 in/hr0.0 mm/hr 0.06 in1.5 mm
05:02 PM 63.0°F17.2°C 59.7°F15.4°C 89% 6.0 mph S9.7 kmh S 7.0 mph11.3 kmh 29.72 in1006.4 mb 0.00 in0.0 mm 0.00 in/hr0.0 mm/hr 0.06 in1.5 mm
05:03 PM 63.1°F17.3°C 59.8°F15.4°C 89% 4.0 mph S6.4 kmh S 7.0 mph11.3 kmh 29.72 in1006.4 mb 0.00 in0.0 mm 0.00 in/hr0.0 mm/hr 0.06 in1.5 mm
05:04 PM 63.1°F17.3°C 59.8°F15.4°C 89% 7.0 mph ESE11.3 kmh ESE 7.0 mph11.3 kmh 29.72 in1006.4 mb 0.00 in0.0 mm 0.00 in/hr0.0 mm/hr 0.06 in1.5 mm
05:05 PM 63.2°F17.3°C 59.9°F15.5°C 89% 8.0 mph S12.9 kmh S 8.0 mph12.9 kmh 29.72 in1006.4 mb 0.00 in0.0 mm 0.00 in/hr0.0 mm/hr 0.06 in1.5 mm
05:06 PM 63.3°F17.4°C 60.0°F15.6°C 89% 6.0 mph SSE9.7 kmh SSE 8.0 mph12.9 kmh 29.72 in1006.4 mb 0.00 in0.0 mm 0.00 in/hr0.0 mm/hr 0.06 in1.5 mm
05:07 PM 63.4°F17.4°C 60.1°F15.6°C 89% 3.0 mph SE4.8 kmh SE 9.0 mph14.5 kmh 29.72 in1006.4 mb 0.00 in0.0 mm 0.00 in/hr0.0 mm/hr 0.06 in1.5 mm
05:08 PM 63.5°F17.5°C 60.2°F15.7°C 89% 4.0 mph SSE6.4 kmh SSE 9.0 mph14.5 kmh 29.72 in1006.4 mb 0.00 in0.0 mm 0.00 in/hr0.0 mm/hr 0.06 in1.5 mm
05:09 PM 63.6°F17.6°C 60.3°F15.7°C 89% 4.0 mph SE6.4 kmh SE 9.0 mph14.5 kmh 29.72 in1006.4 mb 0.00 in0.0 mm 0.00 in/hr0.0 mm/hr 0.06 in1.5 mm
05:10 PM 63.6°F17.6°C 60.3°F15.7°C 89% 5.0 mph SE8.0 kmh SE 9.0 mph14.5 kmh 29.72 in1006.4 mb 0.00 in0.0 mm 0.00 in/hr0.0 mm/hr 0.06 in1.5 mm
05:11 PM 63.7°F17.6°C 60.1°F15.6°C 88% 7.0 mph SE11.3 kmh SE 9.0 mph14.5 kmh 29.72 in1006.4 mb 0.00 in0.0 mm 0.00 in/hr0.0 mm/hr 0.06 in1.5 mm
05:12 PM 63.8°F17.7°C 60.2°F15.7°C 88% 4.0 mph S6.4 kmh S 9.0 mph14.5 kmh 29.72 in1006.4 mb 0.00 in0.0 mm 0.00 in/hr0.0 mm/hr 0.06 in1.5 mm
05:13 PM 63.8°F17.7°C 60.2°F15.7°C 88% 7.0 mph ESE11.3 kmh ESE 9.0 mph14.5 kmh 29.72 in1006.4 mb 0.00 in0.0 mm 0.00 in/hr0.0 mm/hr 0.06 in1.5 mm
05:14 PM 63.8°F17.7°C 60.2°F15.7°C 88% 8.0 mph SE12.9 kmh SE 9.0 mph14.5 kmh 29.72 in1006.4 mb 0.00 in0.0 mm 0.00 in/hr0.0 mm/hr 0.06 in1.5 mm
05:15 PM 63.9°F17.7°C 60.3°F15.7°C 88% 5.0 mph SE8.0 kmh SE 9.0 mph14.5 kmh 29.72 in1006.4 mb 0.00 in0.0 mm 0.00 in/hr0.0 mm/hr 0.06 in1.5 mm
05:16 PM 63.9°F17.7°C 60.3°F15.7°C 88% 5.0 mph SSE8.0 kmh SSE 9.0 mph14.5 kmh 29.72 in1006.4 mb 0.00 in0.0 mm 0.00 in/hr0.0 mm/hr 0.06 in1.5 mm
05:17 PM 64.0°F17.8°C 60.1°F15.6°C 87% 6.0 mph S9.7 kmh S 9.0 mph14.5 kmh 29.72 in1006.4 mb 0.00 in0.0 mm 0.00 in/hr0.0 mm/hr 0.06 in1.5 mm
05:18 PM 64.0°F17.8°C 60.1°F15.6°C 87% 5.0 mph S8.0 kmh S 9.0 mph14.5 kmh 29.72 in1006.4 mb 0.00 in0.0 mm 0.00 in/hr0.0 mm/hr 0.06 in1.5 mm
05:19 PM 64.0°F17.8°C 60.1°F15.6°C 87% 5.0 mph S8.0 kmh S 9.0 mph14.5 kmh 29.73 in1006.8 mb 0.00 in0.0 mm 0.00 in/hr0.0 mm/hr 0.06 in1.5 mm
05:20 PM 64.0°F17.8°C 60.1°F15.6°C 87% 5.0 mph S8.0 kmh S 9.0 mph14.5 kmh 29.73 in1006.8 mb 0.00 in0.0 mm 0.00 in/hr0.0 mm/hr 0.06 in1.5 mm
05:21 PM 64.0°F17.8°C 60.1°F15.6°C 87% 4.0 mph ESE6.4 kmh ESE 9.0 mph14.5 kmh 29.73 in1006.8 mb 0.00 in0.0 mm 0.00 in/hr0.0 mm/hr 0.06 in1.5 mm
05:22 PM 64.0°F17.8°C 60.1°F15.6°C 87% 6.0 mph SSE9.7 kmh SSE 9.0 mph14.5 kmh 29.73 in1006.8 mb 0.00 in0.0 mm 0.00 in/hr0.0 mm/hr 0.06 in1.5 mm
05:23 PM 64.0°F17.8°C 60.1°F15.6°C 87% 6.0 mph SSE9.7 kmh SSE 9.0 mph14.5 kmh 29.73 in1006.8 mb 0.00 in0.0 mm 0.00 in/hr0.0 mm/hr 0.06 in1.5 mm
05:24 PM 64.0°F17.8°C 60.1°F15.6°C 87% 7.0 mph SE11.3 kmh SE 9.0 mph14.5 kmh 29.73 in1006.8 mb 0.00 in0.0 mm 0.00 in/hr0.0 mm/hr 0.06 in1.5 mm
05:25 PM 64.0°F17.8°C 60.1°F15.6°C 87% 3.0 mph SSE4.8 kmh SSE 9.0 mph14.5 kmh 29.73 in1006.8 mb 0.00 in0.0 mm 0.00 in/hr0.0 mm/hr 0.06 in1.5 mm
05:26 PM 63.9°F17.7°C 60.0°F15.6°C 87% 4.0 mph SSE6.4 kmh SSE 9.0 mph14.5 kmh 29.73 in1006.8 mb 0.00 in0.0 mm 0.00 in/hr0.0 mm/hr 0.06 in1.5 mm
05:27 PM 63.9°F17.7°C 60.0°F15.6°C 87% 4.0 mph SE6.4 kmh SE 9.0 mph14.5 kmh 29.73 in1006.8 mb 0.00 in0.0 mm 0.00 in/hr0.0 mm/hr 0.06 in1.5 mm
05:28 PM 63.9°F17.7°C 60.0°F15.6°C 87% 4.0 mph SE6.4 kmh SE 9.0 mph14.5 kmh 29.73 in1006.8 mb 0.00 in0.0 mm 0.00 in/hr0.0 mm/hr 0.06 in1.5 mm
05:29 PM 63.9°F17.7°C 60.0°F15.6°C 87% 5.0 mph SE8.0 kmh SE 9.0 mph14.5 kmh 29.73 in1006.8 mb 0.00 in0.0 mm 0.00 in/hr0.0 mm/hr 0.06 in1.5 mm
05:30 PM 63.8°F17.7°C 59.9°F15.5°C 87% 5.0 mph SE8.0 kmh SE 9.0 mph14.5 kmh 29.73 in1006.8 mb 0.00 in0.0 mm 0.00 in/hr0.0 mm/hr 0.06 in1.5 mm
05:31 PM 63.8°F17.7°C 59.9°F15.5°C 87% 5.0 mph SE8.0 kmh SE 9.0 mph14.5 kmh 29.73 in1006.8 mb 0.00 in0.0 mm 0.00 in/hr0.0 mm/hr 0.06 in1.5 mm
05:32 PM 63.8°F17.7°C 59.9°F15.5°C 87% 4.0 mph SE6.4 kmh SE 7.0 mph11.3 kmh 29.73 in1006.8 mb 0.00 in0.0 mm 0.00 in/hr0.0 mm/hr 0.06 in1.5 mm
05:33 PM 63.8°F17.7°C 60.2°F15.7°C 88% 5.0 mph ESE8.0 kmh ESE 7.0 mph11.3 kmh 29.73 in1006.8 mb 0.00 in0.0 mm 0.00 in/hr0.0 mm/hr 0.06 in1.5 mm
05:34 PM 63.8°F17.7°C 60.2°F15.7°C 88% 5.0 mph SE8.0 kmh SE 8.0 mph12.9 kmh 29.72 in1006.4 mb 0.00 in0.0 mm 0.00 in/hr0.0 mm/hr 0.06 in1.5 mm
05:35 PM 63.7°F17.6°C 60.1°F15.6°C 88% 4.0 mph SE6.4 kmh SE 8.0 mph12.9 kmh 29.72 in1006.4 mb 0.00 in0.0 mm 0.00 in/hr0.0 mm/hr 0.06 in1.5 mm
05:36 PM 63.7°F17.6°C 60.1°F15.6°C 88% 3.0 mph SSE4.8 kmh SSE 8.0 mph12.9 kmh 29.72 in1006.4 mb 0.00 in0.0 mm 0.00 in/hr0.0 mm/hr 0.06 in1.5 mm
05:37 PM 63.7°F17.6°C 60.1°F15.6°C 88% 3.0 mph SE4.8 kmh SE 8.0 mph12.9 kmh 29.73 in1006.8 mb 0.00 in0.0 mm 0.00 in/hr0.0 mm/hr 0.06 in1.5 mm
05:38 PM 63.7°F17.6°C 60.1°F15.6°C 88% 3.0 mph SSE4.8 kmh SSE 8.0 mph12.9 kmh 29.72 in1006.4 mb 0.00 in0.0 mm 0.00 in/hr0.0 mm/hr 0.06 in1.5 mm
05:39 PM 63.6°F17.6°C 60.0°F15.6°C 88% 4.0 mph S6.4 kmh S 8.0 mph12.9 kmh 29.72 in1006.4 mb 0.00 in0.0 mm 0.00 in/hr0.0 mm/hr 0.06 in1.5 mm
05:40 PM 63.6°F17.6°C 60.0°F15.6°C 88% 3.0 mph SE4.8 kmh SE 8.0 mph12.9 kmh 29.72 in1006.4 mb 0.00 in0.0 mm 0.00 in/hr0.0 mm/hr 0.06 in1.5 mm
05:41 PM 63.6°F17.6°C 60.0°F15.6°C 88% 6.0 mph SE9.7 kmh SE 8.0 mph12.9 kmh 29.73 in1006.8 mb 0.00 in0.0 mm 0.00 in/hr0.0 mm/hr 0.06 in1.5 mm
05:42 PM 63.6°F17.6°C 60.0°F15.6°C 88% 4.0 mph ESE6.4 kmh ESE 8.0 mph12.9 kmh 29.73 in1006.8 mb 0.00 in0.0 mm 0.00 in/hr0.0 mm/hr 0.06 in1.5 mm
05:43 PM 63.6°F17.6°C 60.0°F15.6°C 88% 4.0 mph SE6.4 kmh SE 8.0 mph12.9 kmh 29.73 in1006.8 mb 0.00 in0.0 mm 0.00 in/hr0.0 mm/hr 0.06 in1.5 mm
05:44 PM 63.6°F17.6°C 60.0°F15.6°C 88% 2.0 mph SE3.2 kmh SE 8.0 mph12.9 kmh 29.73 in1006.8 mb 0.00 in0.0 mm 0.00 in/hr0.0 mm/hr 0.06 in1.5 mm
05:45 PM 63.5°F17.5°C 59.9°F15.5°C 88% 1.0 mph SE1.6 kmh SE 8.0 mph12.9 kmh 29.73 in1006.8 mb 0.00 in0.0 mm 0.00 in/hr0.0 mm/hr 0.06 in1.5 mm
05:46 PM 63.5°F17.5°C 59.9°F15.5°C 88% 3.0 mph E4.8 kmh E 8.0 mph12.9 kmh 29.73 in1006.8 mb 0.00 in0.0 mm 0.00 in/hr0.0 mm/hr 0.06 in1.5 mm
05:47 PM 63.6°F17.6°C 60.0°F15.6°C 88% 3.0 mph SE4.8 kmh SE 8.0 mph12.9 kmh 29.73 in1006.8 mb 0.00 in0.0 mm 0.00 in/hr0.0 mm/hr 0.06 in1.5 mm
05:48 PM 63.5°F17.5°C 59.9°F15.5°C 88% 3.0 mph ESE4.8 kmh ESE 8.0 mph12.9 kmh 29.73 in1006.8 mb 0.00 in0.0 mm 0.00 in/hr0.0 mm/hr 0.06 in1.5 mm
05:49 PM 63.5°F17.5°C 59.9°F15.5°C 88% 4.0 mph SE6.4 kmh SE 8.0 mph12.9 kmh 29.73 in1006.8 mb 0.00 in0.0 mm 0.00 in/hr0.0 mm/hr 0.06 in1.5 mm
05:50 PM 63.5°F17.5°C 59.9°F15.5°C 88% 2.0 mph SE3.2 kmh SE 8.0 mph12.9 kmh 29.73 in1006.8 mb 0.00 in0.0 mm 0.00 in/hr0.0 mm/hr 0.06 in1.5 mm
05:51 PM 63.5°F17.5°C 59.9°F15.5°C 88% 4.0 mph SSE6.4 kmh SSE 8.0 mph12.9 kmh 29.73 in1006.8 mb 0.00 in0.0 mm 0.00 in/hr0.0 mm/hr 0.06 in1.5 mm
05:52 PM 63.5°F17.5°C 59.9°F15.5°C 88% 3.0 mph SE4.8 kmh SE 8.0 mph12.9 kmh 29.73 in1006.8 mb 0.00 in0.0 mm 0.00 in/hr0.0 mm/hr 0.06 in1.5 mm
05:53 PM 63.5°F17.5°C 59.9°F15.5°C 88% 3.0 mph ESE4.8 kmh ESE 8.0 mph12.9 kmh 29.73 in1006.8 mb 0.00 in0.0 mm 0.00 in/hr0.0 mm/hr 0.06 in1.5 mm
05:54 PM 63.5°F17.5°C 59.9°F15.5°C 88% 2.0 mph ESE3.2 kmh ESE 8.0 mph12.9 kmh 29.73 in1006.8 mb 0.00 in0.0 mm 0.00 in/hr0.0 mm/hr 0.06 in1.5 mm
05:55 PM 63.5°F17.5°C 59.9°F15.5°C 88% 2.0 mph ESE3.2 kmh ESE 8.0 mph12.9 kmh 29.73 in1006.8 mb 0.00 in0.0 mm 0.00 in/hr0.0 mm/hr 0.06 in1.5 mm
05:56 PM 63.4°F17.4°C 59.8°F15.4°C 88% 2.0 mph SE3.2 kmh SE 8.0 mph12.9 kmh 29.73 in1006.8 mb 0.00 in0.0 mm 0.00 in/hr0.0 mm/hr 0.06 in1.5 mm
05:57 PM 63.4°F17.4°C 59.8°F15.4°C 88% 2.0 mph ESE3.2 kmh ESE 8.0 mph12.9 kmh 29.73 in1006.8 mb 0.00 in0.0 mm 0.00 in/hr0.0 mm/hr 0.06 in1.5 mm
05:58 PM 63.4°F17.4°C 59.8°F15.4°C 88% 1.0 mph ESE1.6 kmh ESE 8.0 mph12.9 kmh 29.73 in1006.8 mb 0.00 in0.0 mm 0.00 in/hr0.0 mm/hr 0.06 in1.5 mm
05:59 PM 63.4°F17.4°C 59.8°F15.4°C 88% 1.0 mph ESE1.6 kmh ESE 8.0 mph12.9 kmh 29.73 in1006.8 mb 0.00 in0.0 mm 0.00 in/hr0.0 mm/hr 0.06 in1.5 mm
06:00 PM 63.4°F17.4°C 59.8°F15.4°C 88% 1.0 mph ESE1.6 kmh ESE 8.0 mph12.9 kmh 29.73 in1006.8 mb 0.00 in0.0 mm 0.00 in/hr0.0 mm/hr 0.06 in1.5 mm
06:01 PM 63.3°F17.4°C 59.7°F15.4°C 88% 2.0 mph ESE3.2 kmh ESE 8.0 mph12.9 kmh 29.74 in1007.1 mb 0.00 in0.0 mm 0.00 in/hr0.0 mm/hr 0.06 in1.5 mm
06:02 PM 63.3°F17.4°C 59.7°F15.4°C 88% 4.0 mph ESE6.4 kmh ESE 4.0 mph6.4 kmh 29.73 in1006.8 mb 0.00 in0.0 mm 0.00 in/hr0.0 mm/hr 0.06 in1.5 mm
06:03 PM 63.3°F17.4°C 59.7°F15.4°C 88% 2.0 mph ESE3.2 kmh ESE 4.0 mph6.4 kmh 29.74 in1007.1 mb 0.00 in0.0 mm 0.00 in/hr0.0 mm/hr 0.06 in1.5 mm
06:04 PM 63.2°F17.3°C 59.6°F15.3°C 88% 2.0 mph SE3.2 kmh SE 4.0 mph6.4 kmh 29.74 in1007.1 mb 0.00 in0.0 mm 0.00 in/hr0.0 mm/hr 0.06 in1.5 mm
06:05 PM 63.2°F17.3°C 59.6°F15.3°C 88% 3.0 mph SE4.8 kmh SE 4.0 mph6.4 kmh 29.74 in1007.1 mb 0.00 in0.0 mm 0.00 in/hr0.0 mm/hr 0.06 in1.5 mm
06:06 PM 63.2°F17.3°C 59.6°F15.3°C 88% 2.0 mph SE3.2 kmh SE 4.0 mph6.4 kmh 29.74 in1007.1 mb 0.00 in0.0 mm 0.00 in/hr0.0 mm/hr 0.06 in1.5 mm
06:07 PM 63.1°F17.3°C 59.5°F15.3°C 88% 2.0 mph SSE3.2 kmh SSE 4.0 mph6.4 kmh 29.74 in1007.1 mb 0.00 in0.0 mm 0.00 in/hr0.0 mm/hr 0.06 in1.5 mm
06:08 PM 63.1°F17.3°C 59.5°F15.3°C 88% 3.0 mph SSE4.8 kmh SSE 4.0 mph6.4 kmh 29.74 in1007.1 mb 0.00 in0.0 mm 0.00 in/hr0.0 mm/hr 0.06 in1.5 mm
06:09 PM 63.1°F17.3°C 59.5°F15.3°C 88% 2.0 mph SSE3.2 kmh SSE 4.0 mph6.4 kmh 29.74 in1007.1 mb 0.00 in0.0 mm 0.00 in/hr0.0 mm/hr 0.06 in1.5 mm
06:10 PM 63.1°F17.3°C 59.5°F15.3°C 88% 1.0 mph SSE1.6 kmh SSE 4.0 mph6.4 kmh 29.74 in1007.1 mb 0.00 in0.0 mm 0.00 in/hr0.0 mm/hr 0.06 in1.5 mm
06:11 PM 63.0°F17.2°C 59.4°F15.2°C 88% 2.0 mph SSE3.2 kmh SSE 4.0 mph6.4 kmh 29.74 in1007.1 mb 0.00 in0.0 mm 0.00 in/hr0.0 mm/hr 0.06 in1.5 mm
06:12 PM 63.1°F17.3°C 59.5°F15.3°C 88% 1.0 mph SSE1.6 kmh SSE 4.0 mph6.4 kmh 29.74 in1007.1 mb 0.00 in0.0 mm 0.00 in/hr0.0 mm/hr 0.06 in1.5 mm
06:13 PM 63.0°F17.2°C 59.4°F15.2°C 88% 1.0 mph SSE1.6 kmh SSE 4.0 mph6.4 kmh 29.75 in1007.5 mb 0.00 in0.0 mm 0.00 in/hr0.0 mm/hr 0.06 in1.5 mm
06:14 PM 63.0°F17.2°C 59.4°F15.2°C 88% 1.0 mph SSE1.6 kmh SSE 4.0 mph6.4 kmh 29.75 in1007.5 mb 0.00 in0.0 mm 0.00 in/hr0.0 mm/hr 0.06 in1.5 mm
06:15 PM 63.0°F17.2°C 59.4°F15.2°C 88% 1.0 mph SSE1.6 kmh SSE 4.0 mph6.4 kmh 29.75 in1007.5 mb 0.00 in0.0 mm 0.00 in/hr0.0 mm/hr 0.06 in1.5 mm
06:16 PM 63.0°F17.2°C 59.4°F15.2°C 88% 2.0 mph SSE3.2 kmh SSE 4.0 mph6.4 kmh 29.75 in1007.5 mb 0.00 in0.0 mm 0.00 in/hr0.0 mm/hr 0.06 in1.5 mm
06:17 PM 62.9°F17.2°C 59.3°F15.2°C 88% 2.0 mph SE3.2 kmh SE 4.0 mph6.4 kmh 29.74 in1007.1 mb 0.00 in0.0 mm 0.00 in/hr0.0 mm/hr 0.06 in1.5 mm
06:18 PM 62.9°F17.2°C 59.3°F15.2°C 88% 3.0 mph SE4.8 kmh SE 4.0 mph6.4 kmh 29.74 in1007.1 mb 0.00 in0.0 mm 0.00 in/hr0.0 mm/hr 0.06 in1.5 mm
06:19 PM 62.9°F17.2°C 59.3°F15.2°C 88% 2.0 mph SE3.2 kmh SE 4.0 mph6.4 kmh 29.74 in1007.1 mb 0.00 in0.0 mm 0.00 in/hr0.0 mm/hr 0.06 in1.5 mm
06:20 PM 62.8°F17.1°C 59.5°F15.3°C 89% 3.0 mph SE4.8 kmh SE 4.0 mph6.4 kmh 29.74 in1007.1 mb 0.00 in0.0 mm 0.00 in/hr0.0 mm/hr 0.06 in1.5 mm
06:21 PM 62.8°F17.1°C 59.5°F15.3°C 89% 3.0 mph SE4.8 kmh SE 4.0 mph6.4 kmh 29.74 in1007.1 mb 0.00 in0.0 mm 0.00 in/hr0.0 mm/hr 0.06 in1.5 mm
06:22 PM 62.7°F17.1°C 59.4°F15.2°C 89% 2.0 mph SE3.2 kmh SE 4.0 mph6.4 kmh 29.74 in1007.1 mb 0.00 in0.0 mm 0.00 in/hr0.0 mm/hr 0.06 in1.5 mm
06:23 PM 62.7°F17.1°C 59.4°F15.2°C 89% 3.0 mph SE4.8 kmh SE 4.0 mph6.4 kmh 29.74 in1007.1 mb 0.00 in0.0 mm 0.00 in/hr0.0 mm/hr 0.06 in1.5 mm
06:24 PM 62.7°F17.1°C 59.4°F15.2°C 89% 3.0 mph SE4.8 kmh SE 4.0 mph6.4 kmh 29.74 in1007.1 mb 0.00 in0.0 mm 0.00 in/hr0.0 mm/hr 0.06 in1.5 mm
06:25 PM 62.7°F17.1°C 59.4°F15.2°C 89% 2.0 mph SE3.2 kmh SE 4.0 mph6.4 kmh 29.74 in1007.1 mb 0.00 in0.0 mm 0.00 in/hr0.0 mm/hr 0.06 in1.5 mm
06:26 PM 62.6°F17.0°C 59.6°F15.3°C 90% 4.0 mph SE6.4 kmh SE 5.0 mph8.0 kmh 29.74 in1007.1 mb 0.00 in0.0 mm 0.00 in/hr0.0 mm/hr 0.06 in1.5 mm
06:27 PM 62.6°F17.0°C 59.6°F15.3°C 90% 4.0 mph SE6.4 kmh SE 5.0 mph8.0 kmh 29.74 in1007.1 mb 0.00 in0.0 mm 0.00 in/hr0.0 mm/hr 0.06 in1.5 mm
06:29 PM 62.6°F17.0°C 59.6°F15.3°C 90% 3.0 mph SE4.8 kmh SE 5.0 mph8.0 kmh 29.74 in1007.1 mb 0.00 in0.0 mm 0.00 in/hr0.0 mm/hr 0.06 in1.5 mm
06:30 PM 62.5°F16.9°C 59.5°F15.3°C 90% 2.0 mph SE3.2 kmh SE 5.0 mph8.0 kmh 29.74 in1007.1 mb 0.00 in0.0 mm 0.00 in/hr0.0 mm/hr 0.06 in1.5 mm
06:31 PM 62.5°F16.9°C 59.5°F15.3°C 90% 2.0 mph SE3.2 kmh SE 5.0 mph8.0 kmh 29.75 in1007.5 mb 0.00 in0.0 mm 0.00 in/hr0.0 mm/hr 0.06 in1.5 mm
06:32 PM 62.5°F16.9°C 59.5°F15.3°C 90% 2.0 mph SE3.2 kmh SE 3.0 mph4.8 kmh 29.74 in1007.1 mb 0.00 in0.0 mm 0.00 in/hr0.0 mm/hr 0.06 in1.5 mm
06:33 PM 62.5°F16.9°C 59.5°F15.3°C 90% 4.0 mph SSE6.4 kmh SSE 5.0 mph8.0 kmh 29.74 in1007.1 mb 0.00 in0.0 mm 0.00 in/hr0.0 mm/hr 0.06 in1.5 mm
06:34 PM 62.5°F16.9°C 59.5°F15.3°C 90% 3.0 mph ESE4.8 kmh ESE 5.0 mph8.0 kmh 29.74 in1007.1 mb 0.00 in0.0 mm 0.00 in/hr0.0 mm/hr 0.06 in1.5 mm
06:35 PM 62.4°F16.9°C 59.4°F15.2°C 90% 3.0 mph ESE4.8 kmh ESE 5.0 mph8.0 kmh 29.74 in1007.1 mb 0.00 in0.0 mm 0.00 in/hr0.0 mm/hr 0.06 in1.5 mm
06:36 PM 62.4°F16.9°C 59.4°F15.2°C 90% 2.0 mph ESE3.2 kmh ESE 5.0 mph8.0 kmh 29.75 in1007.5 mb 0.00 in0.0 mm 0.00 in/hr0.0 mm/hr 0.06 in1.5 mm
06:37 PM 62.4°F16.9°C 59.4°F15.2°C 90% 2.0 mph SE3.2 kmh SE 5.0 mph8.0 kmh 29.75 in1007.5 mb 0.00 in0.0 mm 0.00 in/hr0.0 mm/hr 0.06 in1.5 mm
06:38 PM 62.4°F16.9°C 59.7°F15.4°C 91% 4.0 mph SE6.4 kmh SE 5.0 mph8.0 kmh 29.75 in1007.5 mb 0.00 in0.0 mm 0.00 in/hr0.0 mm/hr 0.06 in1.5 mm
06:39 PM 62.4°F16.9°C 59.7°F15.4°C 91% 4.0 mph SE6.4 kmh SE 5.0 mph8.0 kmh 29.75 in1007.5 mb 0.00 in0.0 mm 0.00 in/hr0.0 mm/hr 0.06 in1.5 mm
06:40 PM 62.3°F16.8°C 59.6°F15.3°C 91% 2.0 mph ESE3.2 kmh ESE 5.0 mph8.0 kmh 29.75 in1007.5 mb 0.00 in0.0 mm 0.00 in/hr0.0 mm/hr 0.06 in1.5 mm
06:41 PM 62.3°F16.8°C 59.6°F15.3°C 91% 3.0 mph ESE4.8 kmh ESE 5.0 mph8.0 kmh 29.75 in1007.5 mb 0.00 in0.0 mm 0.00 in/hr0.0 mm/hr 0.06 in1.5 mm
06:42 PM 62.3°F16.8°C 59.6°F15.3°C 91% 3.0 mph SE4.8 kmh SE 5.0 mph8.0 kmh 29.75 in1007.5 mb 0.00 in0.0 mm 0.00 in/hr0.0 mm/hr 0.06 in1.5 mm
06:43 PM 62.3°F16.8°C 59.6°F15.3°C 91% 3.0 mph SE4.8 kmh SE 5.0 mph8.0 kmh 29.75 in1007.5 mb 0.00 in0.0 mm 0.00 in/hr0.0 mm/hr 0.06 in1.5 mm
06:44 PM 62.3°F16.8°C 59.6°F15.3°C 91% 3.0 mph SE4.8 kmh SE 5.0 mph8.0 kmh 29.75 in1007.5 mb 0.00 in0.0 mm 0.00 in/hr0.0 mm/hr 0.06 in1.5 mm
06:45 PM 62.3°F16.8°C 59.6°F15.3°C 91% 2.0 mph SE3.2 kmh SE 5.0 mph8.0 kmh 29.75 in1007.5 mb 0.00 in0.0 mm 0.00 in/hr0.0 mm/hr 0.06 in1.5 mm
06:46 PM 62.2°F16.8°C 59.6°F15.3°C 91% 2.0 mph SE3.2 kmh SE 5.0 mph8.0 kmh 29.75 in1007.5 mb 0.00 in0.0 mm 0.00 in/hr0.0 mm/hr 0.06 in1.5 mm
06:47 PM 62.2°F16.8°C 59.6°F15.3°C 91% 3.0 mph ESE4.8 kmh ESE 5.0 mph8.0 kmh 29.75 in1007.5 mb 0.00 in0.0 mm 0.00 in/hr0.0 mm/hr 0.06 in1.5 mm
06:48 PM 62.2°F16.8°C 59.6°F15.3°C 91% 2.0 mph SE3.2 kmh SE 5.0 mph8.0 kmh 29.75 in1007.5 mb 0.00 in0.0 mm 0.00 in/hr0.0 mm/hr 0.06 in1.5 mm
06:49 PM 62.2°F16.8°C 59.6°F15.3°C 91% 2.0 mph SE3.2 kmh SE 5.0 mph8.0 kmh 29.75 in1007.5 mb 0.00 in0.0 mm 0.00 in/hr0.0 mm/hr 0.06 in1.5 mm
06:50 PM 62.2°F16.8°C 59.6°F15.3°C 91% 2.0 mph SE3.2 kmh SE 5.0 mph8.0 kmh 29.75 in1007.5 mb 0.00 in0.0 mm 0.00 in/hr0.0 mm/hr 0.06 in1.5 mm
06:51 PM 62.2°F16.8°C 59.6°F15.3°C 91% 2.0 mph ESE3.2 kmh ESE 5.0 mph8.0 kmh 29.75 in1007.5 mb 0.00 in0.0 mm 0.00 in/hr0.0 mm/hr 0.06 in1.5 mm
06:52 PM 62.2°F16.8°C 59.6°F15.3°C 91% 3.0 mph ESE4.8 kmh ESE 5.0 mph8.0 kmh 29.75 in1007.5 mb 0.00 in0.0 mm 0.00 in/hr0.0 mm/hr 0.06 in1.5 mm
06:53 PM 62.1°F16.7°C 59.5°F15.3°C 91% 1.0 mph ESE1.6 kmh ESE 5.0 mph8.0 kmh 29.75 in1007.5 mb 0.00 in0.0 mm 0.00 in/hr0.0 mm/hr 0.06 in1.5 mm
06:54 PM 62.1°F16.7°C 59.5°F15.3°C 91% 1.0 mph ESE1.6 kmh ESE 5.0 mph8.0 kmh 29.75 in1007.5 mb 0.00 in0.0 mm 0.00 in/hr0.0 mm/hr 0.06 in1.5 mm
06:55 PM 62.1°F16.7°C 59.8°F15.4°C 92% 1.0 mph ESE1.6 kmh ESE 5.0 mph8.0 kmh 29.75 in1007.5 mb 0.00 in0.0 mm 0.00 in/hr0.0 mm/hr 0.06 in1.5 mm
06:56 PM 62.1°F16.7°C 59.5°F15.3°C 91% 2.0 mph ESE3.2 kmh ESE 5.0 mph8.0 kmh 29.75 in1007.5 mb 0.00 in0.0 mm 0.00 in/hr0.0 mm/hr 0.06 in1.5 mm
06:57 PM 62.1°F16.7°C 59.5°F15.3°C 91% 1.0 mph E1.6 kmh E 5.0 mph8.0 kmh 29.75 in1007.5 mb 0.00 in0.0 mm 0.00 in/hr0.0 mm/hr 0.06 in1.5 mm
06:58 PM 62.0°F16.7°C 59.4°F15.2°C 91% 2.0 mph E3.2 kmh E 5.0 mph8.0 kmh 29.75 in1007.5 mb 0.00 in0.0 mm 0.00 in/hr0.0 mm/hr 0.06 in1.5 mm
06:59 PM 62.0°F16.7°C 59.4°F15.2°C 91% 2.0 mph E3.2 kmh E 5.0 mph8.0 kmh 29.75 in1007.5 mb 0.00 in0.0 mm 0.00 in/hr0.0 mm/hr 0.06 in1.5 mm
07:00 PM 62.0°F16.7°C 59.4°F15.2°C 91% 1.0 mph E1.6 kmh E 5.0 mph8.0 kmh 29.75 in1007.5 mb 0.00 in0.0 mm 0.00 in/hr0.0 mm/hr 0.06 in1.5 mm
07:01 PM 62.0°F16.7°C 59.7°F15.4°C 92% 2.0 mph E3.2 kmh E 5.0 mph8.0 kmh 29.75 in1007.5 mb 0.00 in0.0 mm 0.00 in/hr0.0 mm/hr 0.06 in1.5 mm
07:02 PM 62.0°F16.7°C 59.7°F15.4°C 92% 1.0 mph E1.6 kmh E 2.0 mph3.2 kmh 29.75 in1007.5 mb 0.00 in0.0 mm 0.00 in/hr0.0 mm/hr 0.06 in1.5 mm
07:03 PM 62.0°F16.7°C 59.7°F15.4°C 92% 1.0 mph E1.6 kmh E 2.0 mph3.2 kmh 29.75 in1007.5 mb 0.00 in0.0 mm 0.00 in/hr0.0 mm/hr 0.06 in1.5 mm
07:04 PM 61.9°F16.6°C 59.6°F15.3°C 92% 1.0 mph E1.6 kmh E 2.0 mph3.2 kmh 29.75 in1007.5 mb 0.00 in0.0 mm 0.00 in/hr0.0 mm/hr 0.06 in1.5 mm
07:05 PM 61.9°F16.6°C 59.6°F15.3°C 92% 2.0 mph E3.2 kmh E 3.0 mph4.8 kmh 29.75 in1007.5 mb 0.00 in0.0 mm 0.00 in/hr0.0 mm/hr 0.06 in1.5 mm
07:06 PM 61.9°F16.6°C 59.6°F15.3°C 92% 3.0 mph E4.8 kmh E 3.0 mph4.8 kmh 29.75 in1007.5 mb 0.00 in0.0 mm 0.00 in/hr0.0 mm/hr 0.06 in1.5 mm
07:07 PM 61.9°F16.6°C 59.6°F15.3°C 92% 1.0 mph E1.6 kmh E 3.0 mph4.8 kmh 29.75 in1007.5 mb 0.00 in0.0 mm 0.00 in/hr0.0 mm/hr 0.06 in1.5 mm
07:08 PM 61.9°F16.6°C 59.6°F15.3°C 92% 3.0 mph E4.8 kmh E 3.0 mph4.8 kmh 29.75 in1007.5 mb 0.00 in0.0 mm 0.00 in/hr0.0 mm/hr 0.06 in1.5 mm
07:09 PM 61.8°F16.6°C 59.5°F15.3°C 92% 2.0 mph E3.2 kmh E 3.0 mph4.8 kmh 29.75 in1007.5 mb 0.00 in0.0 mm 0.00 in/hr0.0 mm/hr 0.06 in1.5 mm
07:10 PM 61.8°F16.6°C 59.5°F15.3°C 92% 1.0 mph E1.6 kmh E 3.0 mph4.8 kmh 29.75 in1007.5 mb 0.00 in0.0 mm 0.00 in/hr0.0 mm/hr 0.06 in1.5 mm
07:11 PM 61.8°F16.6°C 59.5°F15.3°C 92% 2.0 mph E3.2 kmh E 3.0 mph4.8 kmh 29.75 in1007.5 mb 0.00 in0.0 mm 0.00 in/hr0.0 mm/hr 0.06 in1.5 mm
07:12 PM 61.8°F16.6°C 59.5°F15.3°C 92% 2.0 mph E3.2 kmh E 3.0 mph4.8 kmh 29.75 in1007.5 mb 0.00 in0.0 mm 0.00 in/hr0.0 mm/hr 0.06 in1.5 mm
07:13 PM 61.8°F16.6°C 59.5°F15.3°C 92% 2.0 mph E3.2 kmh E 3.0 mph4.8 kmh 29.75 in1007.5 mb 0.00 in0.0 mm 0.00 in/hr0.0 mm/hr 0.06 in1.5 mm
07:14 PM 61.7°F16.5°C 59.4°F15.2°C 92% 3.0 mph E4.8 kmh E 5.0 mph8.0 kmh 29.75 in1007.5 mb 0.00 in0.0 mm 0.00 in/hr0.0 mm/hr 0.06 in1.5 mm
07:15 PM 61.7°F16.5°C 59.4°F15.2°C 92% 3.0 mph ESE4.8 kmh ESE 5.0 mph8.0 kmh 29.76 in1007.8 mb 0.00 in0.0 mm 0.00 in/hr0.0 mm/hr 0.06 in1.5 mm
07:16 PM 61.7°F16.5°C 59.4°F15.2°C 92% 4.0 mph SE6.4 kmh SE 5.0 mph8.0 kmh 29.75 in1007.5 mb 0.00 in0.0 mm 0.00 in/hr0.0 mm/hr 0.06 in1.5 mm
07:17 PM 61.7°F16.5°C 59.4°F15.2°C 92% 5.0 mph ESE8.0 kmh ESE 6.0 mph9.7 kmh 29.75 in1007.5 mb 0.00 in0.0 mm 0.00 in/hr0.0 mm/hr 0.06 in1.5 mm
07:18 PM 61.6°F16.4°C 59.3°F15.2°C 92% 4.0 mph ESE6.4 kmh ESE 6.0 mph9.7 kmh 29.75 in1007.5 mb 0.00 in0.0 mm 0.00 in/hr0.0 mm/hr 0.06 in1.5 mm
07:19 PM 61.6°F16.4°C 59.3°F15.2°C 92% 2.0 mph ESE3.2 kmh ESE 6.0 mph9.7 kmh 29.75 in1007.5 mb 0.00 in0.0 mm 0.00 in/hr0.0 mm/hr 0.06 in1.5 mm
07:20 PM 61.6°F16.4°C 59.3°F15.2°C 92% 3.0 mph ESE4.8 kmh ESE 6.0 mph9.7 kmh 29.75 in1007.5 mb 0.00 in0.0 mm 0.00 in/hr0.0 mm/hr 0.06 in1.5 mm
07:21 PM 61.6°F16.4°C 59.3°F15.2°C 92% 3.0 mph ESE4.8 kmh ESE 6.0 mph9.7 kmh 29.75 in1007.5 mb 0.00 in0.0 mm 0.00 in/hr0.0 mm/hr 0.06 in1.5 mm
07:22 PM 61.5°F16.4°C 59.2°F15.1°C 92% 2.0 mph ESE3.2 kmh ESE 6.0 mph9.7 kmh 29.75 in1007.5 mb 0.00 in0.0 mm 0.00 in/hr0.0 mm/hr 0.06 in1.5 mm
07:23 PM 61.5°F16.4°C 59.2°F15.1°C 92% 3.0 mph ESE4.8 kmh ESE 6.0 mph9.7 kmh 29.75 in1007.5 mb 0.00 in0.0 mm 0.00 in/hr0.0 mm/hr 0.06 in1.5 mm
07:24 PM 61.5°F16.4°C 59.5°F15.3°C 93% 3.0 mph SE4.8 kmh SE 6.0 mph9.7 kmh 29.75 in1007.5 mb 0.00 in0.0 mm 0.00 in/hr0.0 mm/hr 0.06 in1.5 mm
07:25 PM 61.5°F16.4°C 59.5°F15.3°C 93% 4.0 mph ESE6.4 kmh ESE 6.0 mph9.7 kmh 29.75 in1007.5 mb 0.00 in0.0 mm 0.00 in/hr0.0 mm/hr 0.06 in1.5 mm
07:26 PM 61.5°F16.4°C 59.5°F15.3°C 93% 3.0 mph ESE4.8 kmh ESE 6.0 mph9.7 kmh 29.75 in1007.5 mb 0.00 in0.0 mm 0.00 in/hr0.0 mm/hr 0.06 in1.5 mm
07:27 PM 61.4°F16.3°C 59.4°F15.2°C 93% 2.0 mph SE3.2 kmh SE 6.0 mph